<?xml version='1.0' encoding='UTF-8'?><gpx version="1.1" creator="JPX - https://github.com/jenetics/jpx" xmlns="http://www.topografix.com/GPX/1/1"><trk><trkseg><trkpt lat="57.8619869" lon="12.311434"><ele>110.4</ele><time>2026-05-02T06:40:43.747Z</time></trkpt><trkpt lat="57.8620124" lon="12.3113074"><ele>110.8</ele><time>2026-05-02T06:40:44.733Z</time></trkpt><trkpt lat="57.8620516" lon="12.3110972"><ele>111.19999999999999</ele><time>2026-05-02T06:40:46.716Z</time></trkpt><trkpt lat="57.8620794" lon="12.3109075"><ele>111.6</ele><time>2026-05-02T06:40:48.715Z</time></trkpt><trkpt lat="57.8621028" lon="12.3107112"><ele>112.0</ele><time>2026-05-02T06:40:50.731Z</time></trkpt><trkpt lat="57.862123" lon="12.3105103"><ele>112.39999999999999</ele><time>2026-05-02T06:40:52.732Z</time></trkpt><trkpt lat="57.8621403" lon="12.3103247"><ele>112.79999999999998</ele><time>2026-05-02T06:40:54.721Z</time></trkpt><trkpt lat="57.8621707" lon="12.3101376"><ele>113.2</ele><time>2026-05-02T06:40:56.73Z</time></trkpt><trkpt lat="57.8622171" lon="12.3099653"><ele>113.6</ele><time>2026-05-02T06:40:58.727Z</time></trkpt><trkpt lat="57.8622412" lon="12.3098049"><ele>114.0</ele><time>2026-05-02T06:41:00.714Z</time></trkpt><trkpt lat="57.8621998" lon="12.309652"><ele>114.0</ele><time>2026-05-02T06:41:02.744Z</time></trkpt><trkpt lat="57.8621391" lon="12.3095394"><ele>114.0</ele><time>2026-05-02T06:41:04.722Z</time></trkpt><trkpt lat="57.8620766" lon="12.3094719"><ele>114.0</ele><time>2026-05-02T06:41:06.722Z</time></trkpt><trkpt lat="57.8619759" lon="12.3093413"><ele>114.0</ele><time>2026-05-02T06:41:08.732Z</time></trkpt><trkpt lat="57.861921" lon="12.3092622"><ele>114.0</ele><time>2026-05-02T06:41:09.735Z</time></trkpt><trkpt lat="57.861848" lon="12.3091542"><ele>114.0</ele><time>2026-05-02T06:41:11.725Z</time></trkpt><trkpt lat="57.8617735" lon="12.3089955"><ele>113.75</ele><time>2026-05-02T06:41:13.723Z</time></trkpt><trkpt lat="57.8617059" lon="12.3088053"><ele>113.5</ele><time>2026-05-02T06:41:15.725Z</time></trkpt><trkpt lat="57.8616445" lon="12.3086308"><ele>113.25</ele><time>2026-05-02T06:41:17.71Z</time></trkpt><trkpt lat="57.8615955" lon="12.3084428"><ele>113.0</ele><time>2026-05-02T06:41:19.726Z</time></trkpt><trkpt lat="57.8615975" lon="12.3082202"><ele>113.0</ele><time>2026-05-02T06:41:21.718Z</time></trkpt><trkpt lat="57.8616041" lon="12.3080805"><ele>113.0</ele><time>2026-05-02T06:41:22.711Z</time></trkpt><trkpt lat="57.861615" lon="12.3079458"><ele>113.0</ele><time>2026-05-02T06:41:23.728Z</time></trkpt><trkpt lat="57.8616308" lon="12.3078056"><ele>113.0</ele><time>2026-05-02T06:41:24.717Z</time></trkpt><trkpt lat="57.8616472" lon="12.3076715"><ele>113.0</ele><time>2026-05-02T06:41:25.723Z</time></trkpt><trkpt lat="57.8616621" lon="12.3075385"><ele>113.0</ele><time>2026-05-02T06:41:26.719Z</time></trkpt><trkpt lat="57.8616767" lon="12.3074049"><ele>113.0</ele><time>2026-05-02T06:41:27.724Z</time></trkpt><trkpt lat="57.8616919" lon="12.3072707"><ele>113.33333333333333</ele><time>2026-05-02T06:41:28.728Z</time></trkpt><trkpt lat="57.8617097" lon="12.3071295"><ele>113.66666666666666</ele><time>2026-05-02T06:41:29.726Z</time></trkpt><trkpt lat="57.8617261" lon="12.3069912"><ele>114.0</ele><time>2026-05-02T06:41:30.714Z</time></trkpt><trkpt lat="57.8617462" lon="12.3068682"><ele>114.33333333333334</ele><time>2026-05-02T06:41:31.713Z</time></trkpt><trkpt lat="57.8617638" lon="12.3067453"><ele>114.66666666666667</ele><time>2026-05-02T06:41:32.721Z</time></trkpt><trkpt lat="57.8617735" lon="12.3066281"><ele>115.0</ele><time>2026-05-02T06:41:33.734Z</time></trkpt><trkpt lat="57.8617692" lon="12.3064027"><ele>115.42857142857142</ele><time>2026-05-02T06:41:35.728Z</time></trkpt><trkpt lat="57.8617575" lon="12.3062815"><ele>115.85714285714286</ele><time>2026-05-02T06:41:36.727Z</time></trkpt><trkpt lat="57.861742" lon="12.3061547"><ele>116.28571428571428</ele><time>2026-05-02T06:41:37.729Z</time></trkpt><trkpt lat="57.8617316" lon="12.306023"><ele>116.71428571428571</ele><time>2026-05-02T06:41:38.725Z</time></trkpt><trkpt lat="57.8617283" lon="12.3058906"><ele>117.14285714285714</ele><time>2026-05-02T06:41:39.729Z</time></trkpt><trkpt lat="57.8617375" lon="12.3057573"><ele>117.57142857142857</ele><time>2026-05-02T06:41:40.725Z</time></trkpt><trkpt lat="57.8617583" lon="12.3056262"><ele>118.0</ele><time>2026-05-02T06:41:41.714Z</time></trkpt><trkpt lat="57.8617848" lon="12.3054995"><ele>117.57142857142857</ele><time>2026-05-02T06:41:42.727Z</time></trkpt><trkpt lat="57.861812" lon="12.3053759"><ele>117.14285714285714</ele><time>2026-05-02T06:41:43.734Z</time></trkpt><trkpt lat="57.8618392" lon="12.3052587"><ele>116.71428571428571</ele><time>2026-05-02T06:41:44.724Z</time></trkpt><trkpt lat="57.8618641" lon="12.3051488"><ele>116.28571428571428</ele><time>2026-05-02T06:41:45.731Z</time></trkpt><trkpt lat="57.8618927" lon="12.3050382"><ele>115.85714285714286</ele><time>2026-05-02T06:41:46.729Z</time></trkpt><trkpt lat="57.8619231" lon="12.3049218"><ele>115.42857142857142</ele><time>2026-05-02T06:41:47.722Z</time></trkpt><trkpt lat="57.8619517" lon="12.3048073"><ele>114.99999999999999</ele><time>2026-05-02T06:41:48.726Z</time></trkpt><trkpt lat="57.8619791" lon="12.3046942"><ele>115.00000000000001</ele><time>2026-05-02T06:41:49.719Z</time></trkpt><trkpt lat="57.8620216" lon="12.3044936"><ele>115.0</ele><time>2026-05-02T06:41:51.732Z</time></trkpt><trkpt lat="57.8620723" lon="12.3042886"><ele>115.0</ele><time>2026-05-02T06:41:53.733Z</time></trkpt><trkpt lat="57.8621012" lon="12.3041756"><ele>115.0</ele><time>2026-05-02T06:41:54.724Z</time></trkpt><trkpt lat="57.8621316" lon="12.3040633"><ele>115.00000000000001</ele><time>2026-05-02T06:41:55.727Z</time></trkpt><trkpt lat="57.8621577" lon="12.3039519"><ele>115.0</ele><time>2026-05-02T06:41:56.727Z</time></trkpt><trkpt lat="57.8622071" lon="12.3037432"><ele>115.4</ele><time>2026-05-02T06:41:58.732Z</time></trkpt><trkpt lat="57.8622266" lon="12.3035474"><ele>115.8</ele><time>2026-05-02T06:42:00.725Z</time></trkpt><trkpt lat="57.8621805" lon="12.3033884"><ele>116.19999999999999</ele><time>2026-05-02T06:42:02.73Z</time></trkpt><trkpt lat="57.8621191" lon="12.3032689"><ele>116.6</ele><time>2026-05-02T06:42:04.723Z</time></trkpt><trkpt lat="57.8620544" lon="12.3030972"><ele>117.0</ele><time>2026-05-02T06:42:06.728Z</time></trkpt><trkpt lat="57.8620186" lon="12.3029103"><ele>117.33333333333333</ele><time>2026-05-02T06:42:08.72Z</time></trkpt><trkpt lat="57.8619985" lon="12.302702"><ele>117.66666666666666</ele><time>2026-05-02T06:42:10.721Z</time></trkpt><trkpt lat="57.8620084" lon="12.302585"><ele>118.0</ele><time>2026-05-02T06:42:11.715Z</time></trkpt><trkpt lat="57.8620566" lon="12.3023786"><ele>118.33333333333333</ele><time>2026-05-02T06:42:13.728Z</time></trkpt><trkpt lat="57.8620824" lon="12.3022674"><ele>118.66666666666666</ele><time>2026-05-02T06:42:14.72Z</time></trkpt><trkpt lat="57.8621043" lon="12.3021524"><ele>119.0</ele><time>2026-05-02T06:42:15.715Z</time></trkpt><trkpt lat="57.8621351" lon="12.3019388"><ele>119.4</ele><time>2026-05-02T06:42:17.713Z</time></trkpt><trkpt lat="57.8621495" lon="12.3017527"><ele>119.80000000000001</ele><time>2026-05-02T06:42:19.722Z</time></trkpt><trkpt lat="57.862142" lon="12.3015475"><ele>120.19999999999999</ele><time>2026-05-02T06:42:21.733Z</time></trkpt><trkpt lat="57.8621276" lon="12.3013689"><ele>120.6</ele><time>2026-05-02T06:42:23.726Z</time></trkpt><trkpt lat="57.8621034" lon="12.3011999"><ele>121.0</ele><time>2026-05-02T06:42:25.721Z</time></trkpt><trkpt lat="57.8620832" lon="12.3010562"><ele>121.00000000000001</ele><time>2026-05-02T06:42:27.729Z</time></trkpt><trkpt lat="57.862067" lon="12.3009075"><ele>121.0</ele><time>2026-05-02T06:42:30.719Z</time></trkpt><trkpt lat="57.8620554" lon="12.3007461"><ele>121.0</ele><time>2026-05-02T06:42:33.708Z</time></trkpt><trkpt lat="57.8620331" lon="12.3005861"><ele>121.0</ele><time>2026-05-02T06:42:36.711Z</time></trkpt><trkpt lat="57.8620246" lon="12.3004558"><ele>121.00000000000001</ele><time>2026-05-02T06:42:38.721Z</time></trkpt><trkpt lat="57.8620139" lon="12.3003321"><ele>121.0</ele><time>2026-05-02T06:42:40.72Z</time></trkpt><trkpt lat="57.8620048" lon="12.3002024"><ele>121.33333333333334</ele><time>2026-05-02T06:42:42.706Z</time></trkpt><trkpt lat="57.8620041" lon="12.3000316"><ele>121.66666666666667</ele><time>2026-05-02T06:42:45.712Z</time></trkpt><trkpt lat="57.8620273" lon="12.2999069"><ele>122.0</ele><time>2026-05-02T06:43:36.727Z</time></trkpt><trkpt lat="57.8620908" lon="12.2998547"><ele>122.33333333333334</ele><time>2026-05-02T06:43:38.737Z</time></trkpt><trkpt lat="57.8621618" lon="12.2998263"><ele>122.66666666666667</ele><time>2026-05-02T06:43:40.721Z</time></trkpt><trkpt lat="57.8622354" lon="12.2998011"><ele>123.0</ele><time>2026-05-02T06:43:42.705Z</time></trkpt><trkpt lat="57.8623146" lon="12.2997805"><ele>123.0</ele><time>2026-05-02T06:43:44.707Z</time></trkpt><trkpt lat="57.8624127" lon="12.2997644"><ele>123.00000000000001</ele><time>2026-05-02T06:43:46.723Z</time></trkpt><trkpt lat="57.8625081" lon="12.2997386"><ele>123.00000000000001</ele><time>2026-05-02T06:43:48.729Z</time></trkpt><trkpt lat="57.8626198" lon="12.2997107"><ele>123.0</ele><time>2026-05-02T06:43:50.721Z</time></trkpt><trkpt lat="57.8627238" lon="12.299682"><ele>123.0</ele><time>2026-05-02T06:43:52.709Z</time></trkpt><trkpt lat="57.8627901" lon="12.2996652"><ele>123.33333333333333</ele><time>2026-05-02T06:43:53.711Z</time></trkpt><trkpt lat="57.8628776" lon="12.2996437"><ele>123.66666666666666</ele><time>2026-05-02T06:43:55.723Z</time></trkpt><trkpt lat="57.8629475" lon="12.299615"><ele>124.0</ele><time>2026-05-02T06:43:58.716Z</time></trkpt><trkpt lat="57.8630032" lon="12.2995399"><ele>124.33333333333333</ele><time>2026-05-02T06:44:00.719Z</time></trkpt><trkpt lat="57.8630519" lon="12.2993794"><ele>124.66666666666666</ele><time>2026-05-02T06:44:02.73Z</time></trkpt><trkpt lat="57.8630928" lon="12.2991918"><ele>125.0</ele><time>2026-05-02T06:44:04.715Z</time></trkpt><trkpt lat="57.8631307" lon="12.2990028"><ele>124.6</ele><time>2026-05-02T06:44:06.711Z</time></trkpt><trkpt lat="57.8631662" lon="12.2988109"><ele>124.2</ele><time>2026-05-02T06:44:08.723Z</time></trkpt><trkpt lat="57.8631966" lon="12.2986368"><ele>123.80000000000001</ele><time>2026-05-02T06:44:10.712Z</time></trkpt><trkpt lat="57.863225" lon="12.2984563"><ele>123.4</ele><time>2026-05-02T06:44:12.71Z</time></trkpt><trkpt lat="57.8632353" lon="12.2982873"><ele>123.0</ele><time>2026-05-02T06:44:14.731Z</time></trkpt><trkpt lat="57.8632332" lon="12.2980991"><ele>122.60000000000001</ele><time>2026-05-02T06:44:16.711Z</time></trkpt><trkpt lat="57.8632146" lon="12.297908"><ele>122.20000000000002</ele><time>2026-05-02T06:44:18.729Z</time></trkpt><trkpt lat="57.8631959" lon="12.297729"><ele>121.8</ele><time>2026-05-02T06:44:20.719Z</time></trkpt><trkpt lat="57.8631928" lon="12.2975567"><ele>121.4</ele><time>2026-05-02T06:44:22.729Z</time></trkpt><trkpt lat="57.8632391" lon="12.2973965"><ele>121.0</ele><time>2026-05-02T06:44:24.719Z</time></trkpt><trkpt lat="57.8633059" lon="12.297282"><ele>120.66666666666667</ele><time>2026-05-02T06:44:26.711Z</time></trkpt><trkpt lat="57.8633967" lon="12.2972026"><ele>120.33333333333334</ele><time>2026-05-02T06:44:28.718Z</time></trkpt><trkpt lat="57.8634619" lon="12.2971585"><ele>120.0</ele><time>2026-05-02T06:44:30.728Z</time></trkpt><trkpt lat="57.8635224" lon="12.2970803"><ele>119.66666666666666</ele><time>2026-05-02T06:44:34.719Z</time></trkpt><trkpt lat="57.8635255" lon="12.2969461"><ele>119.33333333333333</ele><time>2026-05-02T06:44:38.713Z</time></trkpt><trkpt lat="57.8634975" lon="12.2967902"><ele>119.0</ele><time>2026-05-02T06:44:53.706Z</time></trkpt><trkpt lat="57.8634738" lon="12.2966635"><ele>118.99999999999999</ele><time>2026-05-02T06:44:55.721Z</time></trkpt><trkpt lat="57.8634471" lon="12.2965331"><ele>119.0</ele><time>2026-05-02T06:44:57.725Z</time></trkpt><trkpt lat="57.8634178" lon="12.296385"><ele>119.0</ele><time>2026-05-02T06:44:59.725Z</time></trkpt><trkpt lat="57.8634056" lon="12.2962511"><ele>119.0</ele><time>2026-05-02T06:45:01.706Z</time></trkpt><trkpt lat="57.8634092" lon="12.2961099"><ele>118.99999999999999</ele><time>2026-05-02T06:45:04.719Z</time></trkpt><trkpt lat="57.8634635" lon="12.2960191"><ele>119.0</ele><time>2026-05-02T06:45:07.726Z</time></trkpt><trkpt lat="57.8635511" lon="12.2959483"><ele>119.4</ele><time>2026-05-02T06:45:10.71Z</time></trkpt><trkpt lat="57.8636397" lon="12.2958839"><ele>119.80000000000001</ele><time>2026-05-02T06:45:12.712Z</time></trkpt><trkpt lat="57.8637355" lon="12.2958229"><ele>120.19999999999999</ele><time>2026-05-02T06:45:14.724Z</time></trkpt><trkpt lat="57.8638424" lon="12.295738"><ele>120.6</ele><time>2026-05-02T06:45:16.727Z</time></trkpt><trkpt lat="57.8639461" lon="12.2956615"><ele>121.0</ele><time>2026-05-02T06:45:18.728Z</time></trkpt><trkpt lat="57.8640299" lon="12.2955558"><ele>121.00000000000001</ele><time>2026-05-02T06:45:20.732Z</time></trkpt><trkpt lat="57.8640937" lon="12.2954332"><ele>121.0</ele><time>2026-05-02T06:45:22.728Z</time></trkpt><trkpt lat="57.8641311" lon="12.2953186"><ele>121.0</ele><time>2026-05-02T06:45:24.724Z</time></trkpt><trkpt lat="57.8641571" lon="12.2951994"><ele>121.0</ele><time>2026-05-02T06:45:26.737Z</time></trkpt><trkpt lat="57.864173" lon="12.2950636"><ele>121.00000000000001</ele><time>2026-05-02T06:45:28.714Z</time></trkpt><trkpt lat="57.8641751" lon="12.2949225"><ele>121.0</ele><time>2026-05-02T06:45:30.723Z</time></trkpt><trkpt lat="57.8641615" lon="12.2947851"><ele>120.66666666666667</ele><time>2026-05-02T06:45:32.705Z</time></trkpt><trkpt lat="57.8641378" lon="12.29465"><ele>120.33333333333334</ele><time>2026-05-02T06:45:34.706Z</time></trkpt><trkpt lat="57.8641082" lon="12.2944919"><ele>120.0</ele><time>2026-05-02T06:45:36.715Z</time></trkpt><trkpt lat="57.8640762" lon="12.2943308"><ele>119.66666666666666</ele><time>2026-05-02T06:45:38.711Z</time></trkpt><trkpt lat="57.8640443" lon="12.2941854"><ele>119.33333333333333</ele><time>2026-05-02T06:45:40.722Z</time></trkpt><trkpt lat="57.8640114" lon="12.2940611"><ele>119.0</ele><time>2026-05-02T06:45:42.71Z</time></trkpt><trkpt lat="57.8639751" lon="12.2939354"><ele>118.57142857142857</ele><time>2026-05-02T06:45:44.72Z</time></trkpt><trkpt lat="57.8639343" lon="12.2938176"><ele>118.14285714285714</ele><time>2026-05-02T06:45:46.725Z</time></trkpt><trkpt lat="57.8638979" lon="12.2937011"><ele>117.71428571428572</ele><time>2026-05-02T06:45:49.723Z</time></trkpt><trkpt lat="57.86386" lon="12.2936051"><ele>117.28571428571429</ele><time>2026-05-02T06:45:53.72Z</time></trkpt><trkpt lat="57.8638157" lon="12.293519"><ele>116.85714285714286</ele><time>2026-05-02T06:46:30.718Z</time></trkpt><trkpt lat="57.8637723" lon="12.2934196"><ele>116.42857142857144</ele><time>2026-05-02T06:46:33.724Z</time></trkpt><trkpt lat="57.8637209" lon="12.293313"><ele>116.00000000000001</ele><time>2026-05-02T06:46:44.719Z</time></trkpt><trkpt lat="57.8636891" lon="12.2931329"><ele>115.66666666666666</ele><time>2026-05-02T06:46:47.714Z</time></trkpt><trkpt lat="57.8637152" lon="12.2929993"><ele>115.33333333333333</ele><time>2026-05-02T06:46:49.714Z</time></trkpt><trkpt lat="57.8637547" lon="12.2928834"><ele>115.0</ele><time>2026-05-02T06:46:51.708Z</time></trkpt><trkpt lat="57.8637988" lon="12.2927305"><ele>114.66666666666666</ele><time>2026-05-02T06:46:53.716Z</time></trkpt><trkpt lat="57.8638403" lon="12.2925643"><ele>114.33333333333333</ele><time>2026-05-02T06:46:55.714Z</time></trkpt><trkpt lat="57.8638828" lon="12.2924009"><ele>114.0</ele><time>2026-05-02T06:46:57.723Z</time></trkpt><trkpt lat="57.8639144" lon="12.2922338"><ele>113.80000000000001</ele><time>2026-05-02T06:46:59.719Z</time></trkpt><trkpt lat="57.8639399" lon="12.2920627"><ele>113.60000000000001</ele><time>2026-05-02T06:47:01.726Z</time></trkpt><trkpt lat="57.8639495" lon="12.291872"><ele>113.4</ele><time>2026-05-02T06:47:03.708Z</time></trkpt><trkpt lat="57.8639416" lon="12.2916746"><ele>113.2</ele><time>2026-05-02T06:47:05.727Z</time></trkpt><trkpt lat="57.863934" lon="12.2914805"><ele>113.0</ele><time>2026-05-02T06:47:07.725Z</time></trkpt><trkpt lat="57.8639292" lon="12.2912972"><ele>112.60000000000001</ele><time>2026-05-02T06:47:09.71Z</time></trkpt><trkpt lat="57.8639221" lon="12.2911205"><ele>112.20000000000002</ele><time>2026-05-02T06:47:11.721Z</time></trkpt><trkpt lat="57.8639157" lon="12.2909358"><ele>111.8</ele><time>2026-05-02T06:47:13.713Z</time></trkpt><trkpt lat="57.8639082" lon="12.29074"><ele>111.4</ele><time>2026-05-02T06:47:15.723Z</time></trkpt><trkpt lat="57.8639008" lon="12.2905446"><ele>111.0</ele><time>2026-05-02T06:47:17.708Z</time></trkpt><trkpt lat="57.8638964" lon="12.290362"><ele>111.0</ele><time>2026-05-02T06:47:19.714Z</time></trkpt><trkpt lat="57.8638952" lon="12.2901699"><ele>111.0</ele><time>2026-05-02T06:47:21.724Z</time></trkpt><trkpt lat="57.8638919" lon="12.2899816"><ele>111.0</ele><time>2026-05-02T06:47:23.715Z</time></trkpt><trkpt lat="57.8638842" lon="12.2898014"><ele>111.0</ele><time>2026-05-02T06:47:25.723Z</time></trkpt><trkpt lat="57.8638618" lon="12.2896164"><ele>111.0</ele><time>2026-05-02T06:47:27.709Z</time></trkpt><trkpt lat="57.8638291" lon="12.2894631"><ele>111.0</ele><time>2026-05-02T06:47:29.724Z</time></trkpt><trkpt lat="57.8637818" lon="12.2893312"><ele>111.0</ele><time>2026-05-02T06:47:31.722Z</time></trkpt><trkpt lat="57.8637154" lon="12.2891661"><ele>111.0</ele><time>2026-05-02T06:47:33.707Z</time></trkpt><trkpt lat="57.8636563" lon="12.2889632"><ele>111.0</ele><time>2026-05-02T06:47:35.722Z</time></trkpt><trkpt lat="57.8636003" lon="12.2887469"><ele>111.0</ele><time>2026-05-02T06:47:37.721Z</time></trkpt><trkpt lat="57.863542" lon="12.2885399"><ele>111.5</ele><time>2026-05-02T06:47:39.721Z</time></trkpt><trkpt lat="57.8635261" lon="12.2883942"><ele>112.0</ele><time>2026-05-02T06:47:40.708Z</time></trkpt><trkpt lat="57.8635164" lon="12.2882388"><ele>112.5</ele><time>2026-05-02T06:47:41.713Z</time></trkpt><trkpt lat="57.8635105" lon="12.2880839"><ele>113.0</ele><time>2026-05-02T06:47:42.727Z</time></trkpt><trkpt lat="57.8635155" lon="12.2879134"><ele>113.5</ele><time>2026-05-02T06:47:43.708Z</time></trkpt><trkpt lat="57.863522" lon="12.287748"><ele>114.0</ele><time>2026-05-02T06:47:44.707Z</time></trkpt><trkpt lat="57.863524" lon="12.2875881"><ele>114.83333333333333</ele><time>2026-05-02T06:47:45.707Z</time></trkpt><trkpt lat="57.8635214" lon="12.2874459"><ele>115.66666666666666</ele><time>2026-05-02T06:47:46.71Z</time></trkpt><trkpt lat="57.863517" lon="12.2873173"><ele>116.5</ele><time>2026-05-02T06:47:47.727Z</time></trkpt><trkpt lat="57.863517" lon="12.287195"><ele>117.33333333333333</ele><time>2026-05-02T06:47:48.71Z</time></trkpt><trkpt lat="57.8635376" lon="12.2870642"><ele>118.16666666666666</ele><time>2026-05-02T06:47:49.716Z</time></trkpt><trkpt lat="57.8635698" lon="12.2868855"><ele>119.0</ele><time>2026-05-02T06:47:51.717Z</time></trkpt><trkpt lat="57.8635834" lon="12.2867384"><ele>119.33333333333333</ele><time>2026-05-02T06:47:54.726Z</time></trkpt><trkpt lat="57.8635677" lon="12.2866225"><ele>119.66666666666666</ele><time>2026-05-02T06:48:33.714Z</time></trkpt><trkpt lat="57.8636522" lon="12.2866322"><ele>120.0</ele><time>2026-05-02T06:48:37.721Z</time></trkpt><trkpt lat="57.8637558" lon="12.2866891"><ele>120.33333333333334</ele><time>2026-05-02T06:48:39.722Z</time></trkpt><trkpt lat="57.8638209" lon="12.2867193"><ele>120.66666666666667</ele><time>2026-05-02T06:48:40.708Z</time></trkpt><trkpt lat="57.8639404" lon="12.2867743"><ele>121.0</ele><time>2026-05-02T06:48:42.727Z</time></trkpt><trkpt lat="57.864032" lon="12.2868104"><ele>121.00000000000001</ele><time>2026-05-02T06:48:44.721Z</time></trkpt><trkpt lat="57.8641413" lon="12.2868521"><ele>121.0</ele><time>2026-05-02T06:48:46.732Z</time></trkpt><trkpt lat="57.8642585" lon="12.2868961"><ele>121.0</ele><time>2026-05-02T06:48:48.711Z</time></trkpt><trkpt lat="57.8643232" lon="12.2869156"><ele>121.0</ele><time>2026-05-02T06:48:49.726Z</time></trkpt><trkpt lat="57.8643896" lon="12.2869293"><ele>121.00000000000001</ele><time>2026-05-02T06:48:50.705Z</time></trkpt><trkpt lat="57.8644544" lon="12.2869414"><ele>121.0</ele><time>2026-05-02T06:48:51.718Z</time></trkpt><trkpt lat="57.8645435" lon="12.2869498"><ele>120.33333333333334</ele><time>2026-05-02T06:48:52.714Z</time></trkpt><trkpt lat="57.8646249" lon="12.2869603"><ele>119.66666666666667</ele><time>2026-05-02T06:48:53.713Z</time></trkpt><trkpt lat="57.8647032" lon="12.2869765"><ele>119.0</ele><time>2026-05-02T06:48:54.724Z</time></trkpt><trkpt lat="57.8647831" lon="12.2869937"><ele>118.33333333333334</ele><time>2026-05-02T06:48:55.723Z</time></trkpt><trkpt lat="57.8648602" lon="12.2870126"><ele>117.66666666666667</ele><time>2026-05-02T06:48:56.725Z</time></trkpt><trkpt lat="57.8649314" lon="12.28703"><ele>117.0</ele><time>2026-05-02T06:48:57.705Z</time></trkpt><trkpt lat="57.8650546" lon="12.2870656"><ele>117.33333333333333</ele><time>2026-05-02T06:48:59.723Z</time></trkpt><trkpt lat="57.8651232" lon="12.2870808"><ele>117.66666666666666</ele><time>2026-05-02T06:49:00.725Z</time></trkpt><trkpt lat="57.8651984" lon="12.2870972"><ele>118.0</ele><time>2026-05-02T06:49:01.707Z</time></trkpt><trkpt lat="57.865272" lon="12.2871123"><ele>118.33333333333333</ele><time>2026-05-02T06:49:02.728Z</time></trkpt><trkpt lat="57.8653503" lon="12.2871283"><ele>118.66666666666666</ele><time>2026-05-02T06:49:03.726Z</time></trkpt><trkpt lat="57.865424" lon="12.2871459"><ele>119.0</ele><time>2026-05-02T06:49:04.705Z</time></trkpt><trkpt lat="57.8655017" lon="12.2871639"><ele>119.0</ele><time>2026-05-02T06:49:05.718Z</time></trkpt><trkpt lat="57.8655714" lon="12.2871813"><ele>119.0</ele><time>2026-05-02T06:49:06.724Z</time></trkpt><trkpt lat="57.8656477" lon="12.287202"><ele>119.0</ele><time>2026-05-02T06:49:07.723Z</time></trkpt><trkpt lat="57.8657245" lon="12.2872197"><ele>119.0</ele><time>2026-05-02T06:49:08.722Z</time></trkpt><trkpt lat="57.8657918" lon="12.2872331"><ele>119.0</ele><time>2026-05-02T06:49:09.709Z</time></trkpt><trkpt lat="57.8658576" lon="12.2872445"><ele>119.0</ele><time>2026-05-02T06:49:10.719Z</time></trkpt><trkpt lat="57.8659297" lon="12.2872635"><ele>119.0</ele><time>2026-05-02T06:49:11.727Z</time></trkpt><trkpt lat="57.8660048" lon="12.287281"><ele>118.85714285714286</ele><time>2026-05-02T06:49:12.722Z</time></trkpt><trkpt lat="57.8660774" lon="12.2872989"><ele>118.71428571428572</ele><time>2026-05-02T06:49:13.721Z</time></trkpt><trkpt lat="57.8661499" lon="12.2873189"><ele>118.57142857142857</ele><time>2026-05-02T06:49:14.723Z</time></trkpt><trkpt lat="57.8662333" lon="12.2873432"><ele>118.42857142857143</ele><time>2026-05-02T06:49:15.716Z</time></trkpt><trkpt lat="57.8663011" lon="12.2873618"><ele>118.28571428571429</ele><time>2026-05-02T06:49:16.714Z</time></trkpt><trkpt lat="57.8663697" lon="12.2873811"><ele>118.14285714285714</ele><time>2026-05-02T06:49:17.717Z</time></trkpt><trkpt lat="57.8664444" lon="12.2874073"><ele>118.0</ele><time>2026-05-02T06:49:18.706Z</time></trkpt><trkpt lat="57.8665185" lon="12.2874302"><ele>118.00000000000001</ele><time>2026-05-02T06:49:19.727Z</time></trkpt><trkpt lat="57.8665872" lon="12.2874359"><ele>118.0</ele><time>2026-05-02T06:49:20.72Z</time></trkpt><trkpt lat="57.8666584" lon="12.2874334"><ele>118.0</ele><time>2026-05-02T06:49:21.719Z</time></trkpt><trkpt lat="57.8667234" lon="12.2874271"><ele>118.0</ele><time>2026-05-02T06:49:22.727Z</time></trkpt><trkpt lat="57.8668297" lon="12.2873653"><ele>118.00000000000001</ele><time>2026-05-02T06:49:24.717Z</time></trkpt><trkpt lat="57.8669203" lon="12.2872314"><ele>118.0</ele><time>2026-05-02T06:49:26.715Z</time></trkpt><trkpt lat="57.8669767" lon="12.2871513"><ele>118.50000000000001</ele><time>2026-05-02T06:49:27.719Z</time></trkpt><trkpt lat="57.8670417" lon="12.2870272"><ele>119.0</ele><time>2026-05-02T06:49:28.725Z</time></trkpt><trkpt lat="57.8671143" lon="12.2868999"><ele>119.5</ele><time>2026-05-02T06:49:29.719Z</time></trkpt><trkpt lat="57.8671847" lon="12.2867852"><ele>120.0</ele><time>2026-05-02T06:49:30.724Z</time></trkpt><trkpt lat="57.8672449" lon="12.2866957"><ele>120.50000000000001</ele><time>2026-05-02T06:49:31.724Z</time></trkpt><trkpt lat="57.8673127" lon="12.286619"><ele>121.0</ele><time>2026-05-02T06:49:32.708Z</time></trkpt><trkpt lat="57.8674294" lon="12.28651"><ele>121.00000000000001</ele><time>2026-05-02T06:49:34.722Z</time></trkpt><trkpt lat="57.8675018" lon="12.2864535"><ele>121.0</ele><time>2026-05-02T06:49:35.716Z</time></trkpt><trkpt lat="57.867572" lon="12.2864108"><ele>121.0</ele><time>2026-05-02T06:49:36.711Z</time></trkpt><trkpt lat="57.8676374" lon="12.2863697"><ele>121.0</ele><time>2026-05-02T06:49:37.707Z</time></trkpt><trkpt lat="57.8677057" lon="12.2863287"><ele>121.00000000000001</ele><time>2026-05-02T06:49:38.725Z</time></trkpt><trkpt lat="57.8677884" lon="12.2862958"><ele>121.0</ele><time>2026-05-02T06:49:39.711Z</time></trkpt><trkpt lat="57.8678635" lon="12.2862708"><ele>120.19999999999999</ele><time>2026-05-02T06:49:40.709Z</time></trkpt><trkpt lat="57.8679446" lon="12.2862492"><ele>119.39999999999999</ele><time>2026-05-02T06:49:41.71Z</time></trkpt><trkpt lat="57.8680096" lon="12.2862374"><ele>118.6</ele><time>2026-05-02T06:49:42.725Z</time></trkpt><trkpt lat="57.8681229" lon="12.2862313"><ele>117.8</ele><time>2026-05-02T06:49:44.724Z</time></trkpt><trkpt lat="57.8682367" lon="12.2862603"><ele>117.0</ele><time>2026-05-02T06:49:46.719Z</time></trkpt><trkpt lat="57.8683382" lon="12.2862884"><ele>117.0</ele><time>2026-05-02T06:49:48.722Z</time></trkpt><trkpt lat="57.8684008" lon="12.2863261"><ele>117.00000000000001</ele><time>2026-05-02T06:49:49.727Z</time></trkpt><trkpt lat="57.8684611" lon="12.2863842"><ele>117.0</ele><time>2026-05-02T06:49:50.708Z</time></trkpt><trkpt lat="57.8685288" lon="12.2864643"><ele>117.0</ele><time>2026-05-02T06:49:51.716Z</time></trkpt><trkpt lat="57.8685874" lon="12.2865437"><ele>117.00000000000001</ele><time>2026-05-02T06:49:52.722Z</time></trkpt><trkpt lat="57.8686527" lon="12.2866347"><ele>117.0</ele><time>2026-05-02T06:49:53.702Z</time></trkpt><trkpt lat="57.8687127" lon="12.2867311"><ele>117.0</ele><time>2026-05-02T06:49:54.719Z</time></trkpt><trkpt lat="57.8687839" lon="12.2868311"><ele>117.0</ele><time>2026-05-02T06:49:55.727Z</time></trkpt><trkpt lat="57.8688466" lon="12.2869243"><ele>117.0</ele><time>2026-05-02T06:49:56.721Z</time></trkpt><trkpt lat="57.868909" lon="12.2870202"><ele>117.0</ele><time>2026-05-02T06:49:57.718Z</time></trkpt><trkpt lat="57.8689656" lon="12.2871121"><ele>117.0</ele><time>2026-05-02T06:49:58.713Z</time></trkpt><trkpt lat="57.869029" lon="12.2872149"><ele>117.0</ele><time>2026-05-02T06:49:59.717Z</time></trkpt><trkpt lat="57.8690909" lon="12.2873128"><ele>117.0</ele><time>2026-05-02T06:50:00.707Z</time></trkpt><trkpt lat="57.869155" lon="12.2873995"><ele>117.16666666666667</ele><time>2026-05-02T06:50:01.726Z</time></trkpt><trkpt lat="57.8692123" lon="12.2874702"><ele>117.33333333333334</ele><time>2026-05-02T06:50:02.714Z</time></trkpt><trkpt lat="57.8692709" lon="12.2875242"><ele>117.5</ele><time>2026-05-02T06:50:03.724Z</time></trkpt><trkpt lat="57.8693968" lon="12.2875585"><ele>117.66666666666667</ele><time>2026-05-02T06:50:05.711Z</time></trkpt><trkpt lat="57.8694763" lon="12.287552"><ele>117.83333333333334</ele><time>2026-05-02T06:50:06.721Z</time></trkpt><trkpt lat="57.8695555" lon="12.2875267"><ele>118.0</ele><time>2026-05-02T06:50:07.724Z</time></trkpt><trkpt lat="57.8696354" lon="12.2874894"><ele>118.16666666666667</ele><time>2026-05-02T06:50:08.717Z</time></trkpt><trkpt lat="57.8697229" lon="12.2874369"><ele>118.33333333333334</ele><time>2026-05-02T06:50:09.707Z</time></trkpt><trkpt lat="57.8698102" lon="12.2873851"><ele>118.5</ele><time>2026-05-02T06:50:10.719Z</time></trkpt><trkpt lat="57.8698922" lon="12.2873355"><ele>118.66666666666666</ele><time>2026-05-02T06:50:11.716Z</time></trkpt><trkpt lat="57.8699645" lon="12.2872951"><ele>118.83333333333333</ele><time>2026-05-02T06:50:12.713Z</time></trkpt><trkpt lat="57.8700302" lon="12.28727"><ele>119.0</ele><time>2026-05-02T06:50:13.722Z</time></trkpt><trkpt lat="57.8700993" lon="12.2872591"><ele>119.49999999999999</ele><time>2026-05-02T06:50:14.718Z</time></trkpt><trkpt lat="57.8701767" lon="12.2872713"><ele>120.0</ele><time>2026-05-02T06:50:15.722Z</time></trkpt><trkpt lat="57.8702571" lon="12.2872855"><ele>120.5</ele><time>2026-05-02T06:50:16.705Z</time></trkpt><trkpt lat="57.8703325" lon="12.2872957"><ele>121.0</ele><time>2026-05-02T06:50:17.725Z</time></trkpt><trkpt lat="57.8704151" lon="12.2873064"><ele>121.49999999999999</ele><time>2026-05-02T06:50:18.724Z</time></trkpt><trkpt lat="57.8704941" lon="12.2873108"><ele>122.0</ele><time>2026-05-02T06:50:19.716Z</time></trkpt><trkpt lat="57.8705756" lon="12.2873123"><ele>121.99999999999999</ele><time>2026-05-02T06:50:20.721Z</time></trkpt><trkpt lat="57.8706598" lon="12.2873122"><ele>122.0</ele><time>2026-05-02T06:50:21.724Z</time></trkpt><trkpt lat="57.870749" lon="12.2873039"><ele>122.0</ele><time>2026-05-02T06:50:22.731Z</time></trkpt><trkpt lat="57.870823" lon="12.287281"><ele>122.0</ele><time>2026-05-02T06:50:23.728Z</time></trkpt><trkpt lat="57.8708991" lon="12.2872436"><ele>121.99999999999999</ele><time>2026-05-02T06:50:24.718Z</time></trkpt><trkpt lat="57.8709732" lon="12.2871835"><ele>122.0</ele><time>2026-05-02T06:50:25.714Z</time></trkpt><trkpt lat="57.8710389" lon="12.2871155"><ele>121.66666666666666</ele><time>2026-05-02T06:50:26.714Z</time></trkpt><trkpt lat="57.8711101" lon="12.2870423"><ele>121.33333333333333</ele><time>2026-05-02T06:50:27.713Z</time></trkpt><trkpt lat="57.8711878" lon="12.2869662"><ele>121.0</ele><time>2026-05-02T06:50:28.72Z</time></trkpt><trkpt lat="57.8712656" lon="12.2868898"><ele>120.66666666666666</ele><time>2026-05-02T06:50:29.725Z</time></trkpt><trkpt lat="57.871338" lon="12.2868152"><ele>120.33333333333333</ele><time>2026-05-02T06:50:30.719Z</time></trkpt><trkpt lat="57.8714122" lon="12.2867318"><ele>120.0</ele><time>2026-05-02T06:50:31.723Z</time></trkpt><trkpt lat="57.8714835" lon="12.286661"><ele>120.0</ele><time>2026-05-02T06:50:32.725Z</time></trkpt><trkpt lat="57.8715564" lon="12.2865882"><ele>120.0</ele><time>2026-05-02T06:50:33.723Z</time></trkpt><trkpt lat="57.8716221" lon="12.2865158"><ele>120.0</ele><time>2026-05-02T06:50:34.723Z</time></trkpt><trkpt lat="57.8716933" lon="12.2864411"><ele>120.0</ele><time>2026-05-02T06:50:35.713Z</time></trkpt><trkpt lat="57.8717622" lon="12.2863702"><ele>120.0</ele><time>2026-05-02T06:50:36.724Z</time></trkpt><trkpt lat="57.8718309" lon="12.2863007"><ele>120.0</ele><time>2026-05-02T06:50:37.718Z</time></trkpt><trkpt lat="57.8718988" lon="12.2862324"><ele>120.28571428571429</ele><time>2026-05-02T06:50:38.725Z</time></trkpt><trkpt lat="57.871963" lon="12.286163"><ele>120.57142857142856</ele><time>2026-05-02T06:50:39.713Z</time></trkpt><trkpt lat="57.8720276" lon="12.2860911"><ele>120.85714285714285</ele><time>2026-05-02T06:50:40.728Z</time></trkpt><trkpt lat="57.8720868" lon="12.2860227"><ele>121.14285714285714</ele><time>2026-05-02T06:50:41.715Z</time></trkpt><trkpt lat="57.8721444" lon="12.2859579"><ele>121.42857142857142</ele><time>2026-05-02T06:50:42.726Z</time></trkpt><trkpt lat="57.8722026" lon="12.2858758"><ele>121.7142857142857</ele><time>2026-05-02T06:50:43.705Z</time></trkpt><trkpt lat="57.8722604" lon="12.2858039"><ele>121.99999999999999</ele><time>2026-05-02T06:50:44.725Z</time></trkpt><trkpt lat="57.8723146" lon="12.285735"><ele>121.99999999999999</ele><time>2026-05-02T06:50:45.719Z</time></trkpt><trkpt lat="57.8724174" lon="12.2855979"><ele>122.0</ele><time>2026-05-02T06:50:47.712Z</time></trkpt><trkpt lat="57.8724731" lon="12.2855214"><ele>122.0</ele><time>2026-05-02T06:50:48.724Z</time></trkpt><trkpt lat="57.872529" lon="12.2854414"><ele>122.0</ele><time>2026-05-02T06:50:49.713Z</time></trkpt><trkpt lat="57.8725827" lon="12.2853596"><ele>121.99999999999999</ele><time>2026-05-02T06:50:50.723Z</time></trkpt><trkpt lat="57.8726448" lon="12.2852656"><ele>122.0</ele><time>2026-05-02T06:50:51.722Z</time></trkpt><trkpt lat="57.8726998" lon="12.2851865"><ele>121.99999999999999</ele><time>2026-05-02T06:50:52.724Z</time></trkpt><trkpt lat="57.8727528" lon="12.2851076"><ele>122.0</ele><time>2026-05-02T06:50:53.714Z</time></trkpt><trkpt lat="57.872852" lon="12.2849639"><ele>122.0</ele><time>2026-05-02T06:50:55.721Z</time></trkpt><trkpt lat="57.8729029" lon="12.2848904"><ele>122.0</ele><time>2026-05-02T06:50:56.714Z</time></trkpt><trkpt lat="57.8729564" lon="12.2848091"><ele>121.99999999999999</ele><time>2026-05-02T06:50:57.732Z</time></trkpt><trkpt lat="57.8730166" lon="12.2847183"><ele>122.0</ele><time>2026-05-02T06:50:58.72Z</time></trkpt><trkpt lat="57.8730706" lon="12.284646"><ele>122.0</ele><time>2026-05-02T06:50:59.713Z</time></trkpt><trkpt lat="57.8731604" lon="12.2845154"><ele>121.99999999999999</ele><time>2026-05-02T06:51:01.717Z</time></trkpt><trkpt lat="57.8732558" lon="12.284357"><ele>121.99999999999999</ele><time>2026-05-02T06:51:03.72Z</time></trkpt><trkpt lat="57.8732981" lon="12.2842675"><ele>122.0</ele><time>2026-05-02T06:51:04.726Z</time></trkpt><trkpt lat="57.8733392" lon="12.2841775"><ele>122.0</ele><time>2026-05-02T06:51:05.716Z</time></trkpt><trkpt lat="57.8734166" lon="12.2839966"><ele>121.83333333333333</ele><time>2026-05-02T06:51:07.723Z</time></trkpt><trkpt lat="57.8734623" lon="12.2839053"><ele>121.66666666666666</ele><time>2026-05-02T06:51:08.722Z</time></trkpt><trkpt lat="57.8735135" lon="12.2838067"><ele>121.5</ele><time>2026-05-02T06:51:09.729Z</time></trkpt><trkpt lat="57.8735705" lon="12.2837165"><ele>121.33333333333334</ele><time>2026-05-02T06:51:10.719Z</time></trkpt><trkpt lat="57.8736451" lon="12.2836074"><ele>121.16666666666667</ele><time>2026-05-02T06:51:11.719Z</time></trkpt><trkpt lat="57.8737272" lon="12.2834985"><ele>121.0</ele><time>2026-05-02T06:51:12.721Z</time></trkpt><trkpt lat="57.8737893" lon="12.2834204"><ele>121.00000000000001</ele><time>2026-05-02T06:51:13.728Z</time></trkpt><trkpt lat="57.8738484" lon="12.283358"><ele>121.0</ele><time>2026-05-02T06:51:14.716Z</time></trkpt><trkpt lat="57.8739072" lon="12.2832954"><ele>121.0</ele><time>2026-05-02T06:51:15.725Z</time></trkpt><trkpt lat="57.8739683" lon="12.2832287"><ele>121.0</ele><time>2026-05-02T06:51:16.723Z</time></trkpt><trkpt lat="57.874022" lon="12.2831646"><ele>121.00000000000001</ele><time>2026-05-02T06:51:17.724Z</time></trkpt><trkpt lat="57.8741282" lon="12.2830504"><ele>121.0</ele><time>2026-05-02T06:51:19.717Z</time></trkpt><trkpt lat="57.8741915" lon="12.2829791"><ele>121.42857142857142</ele><time>2026-05-02T06:51:20.723Z</time></trkpt><trkpt lat="57.8742544" lon="12.2829133"><ele>121.85714285714285</ele><time>2026-05-02T06:51:21.721Z</time></trkpt><trkpt lat="57.8743085" lon="12.2828508"><ele>122.28571428571428</ele><time>2026-05-02T06:51:22.708Z</time></trkpt><trkpt lat="57.8743661" lon="12.2827728"><ele>122.71428571428572</ele><time>2026-05-02T06:51:23.719Z</time></trkpt><trkpt lat="57.8744206" lon="12.2826984"><ele>123.14285714285715</ele><time>2026-05-02T06:51:24.719Z</time></trkpt><trkpt lat="57.8744663" lon="12.2826158"><ele>123.57142857142858</ele><time>2026-05-02T06:51:25.729Z</time></trkpt><trkpt lat="57.874509" lon="12.2825178"><ele>124.0</ele><time>2026-05-02T06:51:26.714Z</time></trkpt><trkpt lat="57.8745532" lon="12.2824114"><ele>122.4</ele><time>2026-05-02T06:51:27.709Z</time></trkpt><trkpt lat="57.8745915" lon="12.2823068"><ele>120.80000000000001</ele><time>2026-05-02T06:51:28.724Z</time></trkpt><trkpt lat="57.8746234" lon="12.2821975"><ele>119.19999999999999</ele><time>2026-05-02T06:51:29.711Z</time></trkpt><trkpt lat="57.8746821" lon="12.2819933"><ele>117.6</ele><time>2026-05-02T06:51:31.737Z</time></trkpt><trkpt lat="57.8747516" lon="12.2818016"><ele>116.0</ele><time>2026-05-02T06:51:33.717Z</time></trkpt><trkpt lat="57.8748565" lon="12.2816756"><ele>115.85714285714288</ele><time>2026-05-02T06:51:35.721Z</time></trkpt><trkpt lat="57.8749182" lon="12.2816357"><ele>115.71428571428572</ele><time>2026-05-02T06:51:36.726Z</time></trkpt><trkpt lat="57.8749811" lon="12.2815967"><ele>115.57142857142857</ele><time>2026-05-02T06:51:37.717Z</time></trkpt><trkpt lat="57.8750486" lon="12.2815744"><ele>115.42857142857143</ele><time>2026-05-02T06:51:38.725Z</time></trkpt><trkpt lat="57.8751193" lon="12.2815481"><ele>115.28571428571428</ele><time>2026-05-02T06:51:39.727Z</time></trkpt><trkpt lat="57.8751897" lon="12.2815151"><ele>115.14285714285712</ele><time>2026-05-02T06:51:40.707Z</time></trkpt><trkpt lat="57.8752592" lon="12.2814932"><ele>114.99999999999999</ele><time>2026-05-02T06:51:41.725Z</time></trkpt><trkpt lat="57.8753295" lon="12.281477"><ele>114.16666666666667</ele><time>2026-05-02T06:51:42.72Z</time></trkpt><trkpt lat="57.875399" lon="12.2814602"><ele>113.33333333333334</ele><time>2026-05-02T06:51:43.731Z</time></trkpt><trkpt lat="57.8754728" lon="12.2814419"><ele>112.5</ele><time>2026-05-02T06:51:44.725Z</time></trkpt><trkpt lat="57.875551" lon="12.2814237"><ele>111.66666666666666</ele><time>2026-05-02T06:51:45.722Z</time></trkpt><trkpt lat="57.8756302" lon="12.2814063"><ele>110.83333333333333</ele><time>2026-05-02T06:51:46.715Z</time></trkpt><trkpt lat="57.8757063" lon="12.2813876"><ele>110.0</ele><time>2026-05-02T06:51:47.728Z</time></trkpt><trkpt lat="57.8757832" lon="12.2813762"><ele>109.99999999999999</ele><time>2026-05-02T06:51:48.724Z</time></trkpt><trkpt lat="57.8758567" lon="12.2813669"><ele>110.0</ele><time>2026-05-02T06:51:49.711Z</time></trkpt><trkpt lat="57.8759215" lon="12.2813611"><ele>110.0</ele><time>2026-05-02T06:51:50.714Z</time></trkpt><trkpt lat="57.8759875" lon="12.2813561"><ele>110.0</ele><time>2026-05-02T06:51:51.722Z</time></trkpt><trkpt lat="57.876054" lon="12.2813533"><ele>110.0</ele><time>2026-05-02T06:51:52.721Z</time></trkpt><trkpt lat="57.8761198" lon="12.2813562"><ele>109.99999999999999</ele><time>2026-05-02T06:51:53.731Z</time></trkpt><trkpt lat="57.8761931" lon="12.2813781"><ele>110.0</ele><time>2026-05-02T06:51:54.728Z</time></trkpt><trkpt lat="57.8762628" lon="12.281401"><ele>110.42857142857142</ele><time>2026-05-02T06:51:55.73Z</time></trkpt><trkpt lat="57.8763311" lon="12.2814216"><ele>110.85714285714286</ele><time>2026-05-02T06:51:56.725Z</time></trkpt><trkpt lat="57.8764012" lon="12.2814361"><ele>111.28571428571428</ele><time>2026-05-02T06:51:57.722Z</time></trkpt><trkpt lat="57.8764684" lon="12.2814527"><ele>111.71428571428571</ele><time>2026-05-02T06:51:58.721Z</time></trkpt><trkpt lat="57.8765352" lon="12.2814703"><ele>112.14285714285714</ele><time>2026-05-02T06:51:59.721Z</time></trkpt><trkpt lat="57.8766002" lon="12.2814867"><ele>112.57142857142857</ele><time>2026-05-02T06:52:00.713Z</time></trkpt><trkpt lat="57.8766646" lon="12.2815029"><ele>113.0</ele><time>2026-05-02T06:52:01.718Z</time></trkpt><trkpt lat="57.8767348" lon="12.2815214"><ele>114.80000000000001</ele><time>2026-05-02T06:52:02.727Z</time></trkpt><trkpt lat="57.8768012" lon="12.2815398"><ele>116.60000000000001</ele><time>2026-05-02T06:52:03.724Z</time></trkpt><trkpt lat="57.8769188" lon="12.281595"><ele>118.39999999999999</ele><time>2026-05-02T06:52:05.718Z</time></trkpt><trkpt lat="57.8769801" lon="12.2816383"><ele>120.19999999999999</ele><time>2026-05-02T06:52:06.722Z</time></trkpt><trkpt lat="57.8770818" lon="12.2817285"><ele>122.0</ele><time>2026-05-02T06:52:08.723Z</time></trkpt><trkpt lat="57.8771855" lon="12.2818204"><ele>122.0</ele><time>2026-05-02T06:52:10.719Z</time></trkpt><trkpt lat="57.8772937" lon="12.2819302"><ele>121.99999999999999</ele><time>2026-05-02T06:52:12.716Z</time></trkpt><trkpt lat="57.8773731" lon="12.2820206"><ele>121.99999999999999</ele><time>2026-05-02T06:52:13.728Z</time></trkpt><trkpt lat="57.8774367" lon="12.28211"><ele>122.0</ele><time>2026-05-02T06:52:14.715Z</time></trkpt><trkpt lat="57.8775118" lon="12.2822146"><ele>122.0</ele><time>2026-05-02T06:52:15.721Z</time></trkpt><trkpt lat="57.8775787" lon="12.2823104"><ele>122.99999999999999</ele><time>2026-05-02T06:52:16.733Z</time></trkpt><trkpt lat="57.8776557" lon="12.2824051"><ele>124.0</ele><time>2026-05-02T06:52:17.711Z</time></trkpt><trkpt lat="57.8777318" lon="12.2825013"><ele>125.0</ele><time>2026-05-02T06:52:18.727Z</time></trkpt><trkpt lat="57.877792" lon="12.282585"><ele>126.0</ele><time>2026-05-02T06:52:19.716Z</time></trkpt><trkpt lat="57.8778625" lon="12.2826762"><ele>126.99999999999999</ele><time>2026-05-02T06:52:20.718Z</time></trkpt><trkpt lat="57.8779466" lon="12.2827885"><ele>128.0</ele><time>2026-05-02T06:52:21.723Z</time></trkpt><trkpt lat="57.8780331" lon="12.2828939"><ele>127.99999999999999</ele><time>2026-05-02T06:52:22.721Z</time></trkpt><trkpt lat="57.8781032" lon="12.2829749"><ele>128.0</ele><time>2026-05-02T06:52:23.72Z</time></trkpt><trkpt lat="57.8781618" lon="12.2830324"><ele>128.0</ele><time>2026-05-02T06:52:24.721Z</time></trkpt><trkpt lat="57.8782278" lon="12.2830503"><ele>128.0</ele><time>2026-05-02T06:52:25.724Z</time></trkpt><trkpt lat="57.8783038" lon="12.2830521"><ele>127.99999999999999</ele><time>2026-05-02T06:52:26.723Z</time></trkpt><trkpt lat="57.8783693" lon="12.2830362"><ele>128.0</ele><time>2026-05-02T06:52:27.731Z</time></trkpt><trkpt lat="57.8784818" lon="12.2830127"><ele>127.80000000000001</ele><time>2026-05-02T06:52:29.727Z</time></trkpt><trkpt lat="57.8785794" lon="12.2829803"><ele>127.60000000000001</ele><time>2026-05-02T06:52:31.715Z</time></trkpt><trkpt lat="57.8786701" lon="12.282959"><ele>127.39999999999999</ele><time>2026-05-02T06:52:33.717Z</time></trkpt><trkpt lat="57.8787919" lon="12.2829865"><ele>127.19999999999999</ele><time>2026-05-02T06:52:35.721Z</time></trkpt><trkpt lat="57.8789026" lon="12.283017"><ele>127.0</ele><time>2026-05-02T06:52:37.711Z</time></trkpt><trkpt lat="57.8789969" lon="12.2830043"><ele>127.00000000000001</ele><time>2026-05-02T06:52:39.721Z</time></trkpt><trkpt lat="57.8791041" lon="12.2829047"><ele>127.0</ele><time>2026-05-02T06:52:41.72Z</time></trkpt><trkpt lat="57.8791632" lon="12.2828528"><ele>127.0</ele><time>2026-05-02T06:52:42.721Z</time></trkpt><trkpt lat="57.8792235" lon="12.282775"><ele>127.0</ele><time>2026-05-02T06:52:43.718Z</time></trkpt><trkpt lat="57.8792978" lon="12.2826853"><ele>127.00000000000001</ele><time>2026-05-02T06:52:44.712Z</time></trkpt><trkpt lat="57.8793647" lon="12.2825982"><ele>127.0</ele><time>2026-05-02T06:52:45.718Z</time></trkpt><trkpt lat="57.8794223" lon="12.2825271"><ele>127.00000000000001</ele><time>2026-05-02T06:52:46.719Z</time></trkpt><trkpt lat="57.8794801" lon="12.2824661"><ele>127.0</ele><time>2026-05-02T06:52:47.721Z</time></trkpt><trkpt lat="57.8795429" lon="12.282392"><ele>127.0</ele><time>2026-05-02T06:52:48.708Z</time></trkpt><trkpt lat="57.879624" lon="12.282293"><ele>127.0</ele><time>2026-05-02T06:52:49.725Z</time></trkpt><trkpt lat="57.879692" lon="12.2821882"><ele>127.00000000000001</ele><time>2026-05-02T06:52:50.724Z</time></trkpt><trkpt lat="57.8797691" lon="12.2820706"><ele>127.0</ele><time>2026-05-02T06:52:51.717Z</time></trkpt><trkpt lat="57.8798398" lon="12.2819721"><ele>127.00000000000001</ele><time>2026-05-02T06:52:52.724Z</time></trkpt><trkpt lat="57.8799063" lon="12.2818999"><ele>127.0</ele><time>2026-05-02T06:52:53.724Z</time></trkpt><trkpt lat="57.8799711" lon="12.2818402"><ele>127.0</ele><time>2026-05-02T06:52:54.724Z</time></trkpt><trkpt lat="57.8800361" lon="12.2817978"><ele>127.0</ele><time>2026-05-02T06:52:55.73Z</time></trkpt><trkpt lat="57.8801446" lon="12.2817845"><ele>127.00000000000001</ele><time>2026-05-02T06:52:57.727Z</time></trkpt><trkpt lat="57.8802371" lon="12.2818072"><ele>127.0</ele><time>2026-05-02T06:52:59.734Z</time></trkpt><trkpt lat="57.8803609" lon="12.2818497"><ele>127.14285714285714</ele><time>2026-05-02T06:53:01.717Z</time></trkpt><trkpt lat="57.8804378" lon="12.2818588"><ele>127.28571428571428</ele><time>2026-05-02T06:53:02.704Z</time></trkpt><trkpt lat="57.8805209" lon="12.2818499"><ele>127.42857142857142</ele><time>2026-05-02T06:53:03.722Z</time></trkpt><trkpt lat="57.8806023" lon="12.2818428"><ele>127.57142857142857</ele><time>2026-05-02T06:53:04.711Z</time></trkpt><trkpt lat="57.8806733" lon="12.2818316"><ele>127.7142857142857</ele><time>2026-05-02T06:53:05.723Z</time></trkpt><trkpt lat="57.8807375" lon="12.281824"><ele>127.85714285714285</ele><time>2026-05-02T06:53:06.72Z</time></trkpt><trkpt lat="57.8808026" lon="12.281827"><ele>128.0</ele><time>2026-05-02T06:53:07.728Z</time></trkpt><trkpt lat="57.8808691" lon="12.2818312"><ele>127.83333333333333</ele><time>2026-05-02T06:53:08.719Z</time></trkpt><trkpt lat="57.8809366" lon="12.2818663"><ele>127.66666666666666</ele><time>2026-05-02T06:53:09.712Z</time></trkpt><trkpt lat="57.8810028" lon="12.281925"><ele>127.5</ele><time>2026-05-02T06:53:10.721Z</time></trkpt><trkpt lat="57.8810866" lon="12.282019"><ele>127.33333333333334</ele><time>2026-05-02T06:53:11.708Z</time></trkpt><trkpt lat="57.8811469" lon="12.2821451"><ele>127.16666666666667</ele><time>2026-05-02T06:53:12.715Z</time></trkpt><trkpt lat="57.8812105" lon="12.2822785"><ele>127.0</ele><time>2026-05-02T06:53:13.723Z</time></trkpt><trkpt lat="57.8812705" lon="12.2823756"><ele>127.00000000000001</ele><time>2026-05-02T06:53:14.724Z</time></trkpt><trkpt lat="57.8813254" lon="12.2824568"><ele>127.0</ele><time>2026-05-02T06:53:15.729Z</time></trkpt><trkpt lat="57.8813825" lon="12.2825306"><ele>127.0</ele><time>2026-05-02T06:53:16.719Z</time></trkpt><trkpt lat="57.8814398" lon="12.2825959"><ele>127.0</ele><time>2026-05-02T06:53:17.704Z</time></trkpt><trkpt lat="57.881498" lon="12.2826577"><ele>127.00000000000001</ele><time>2026-05-02T06:53:18.724Z</time></trkpt><trkpt lat="57.8815986" lon="12.2827605"><ele>127.0</ele><time>2026-05-02T06:53:20.718Z</time></trkpt><trkpt lat="57.881653" lon="12.2828209"><ele>127.0</ele><time>2026-05-02T06:53:21.723Z</time></trkpt><trkpt lat="57.8817118" lon="12.2828882"><ele>126.99999999999999</ele><time>2026-05-02T06:53:22.728Z</time></trkpt><trkpt lat="57.8817727" lon="12.2829539"><ele>126.99999999999999</ele><time>2026-05-02T06:53:23.722Z</time></trkpt><trkpt lat="57.8818864" lon="12.2830451"><ele>127.0</ele><time>2026-05-02T06:53:25.716Z</time></trkpt><trkpt lat="57.8819917" lon="12.2830837"><ele>127.0</ele><time>2026-05-02T06:53:27.717Z</time></trkpt><trkpt lat="57.882088" lon="12.2830722"><ele>127.39999999999999</ele><time>2026-05-02T06:53:29.741Z</time></trkpt><trkpt lat="57.8822137" lon="12.2830615"><ele>127.79999999999998</ele><time>2026-05-02T06:53:31.71Z</time></trkpt><trkpt lat="57.8822902" lon="12.2830493"><ele>128.2</ele><time>2026-05-02T06:53:32.711Z</time></trkpt><trkpt lat="57.8823537" lon="12.2830358"><ele>128.6</ele><time>2026-05-02T06:53:33.723Z</time></trkpt><trkpt lat="57.8824781" lon="12.2830027"><ele>129.0</ele><time>2026-05-02T06:53:35.717Z</time></trkpt><trkpt lat="57.8825429" lon="12.2829799"><ele>128.66666666666666</ele><time>2026-05-02T06:53:36.72Z</time></trkpt><trkpt lat="57.882617" lon="12.2829502"><ele>128.33333333333334</ele><time>2026-05-02T06:53:37.717Z</time></trkpt><trkpt lat="57.8826943" lon="12.2829089"><ele>128.0</ele><time>2026-05-02T06:53:38.726Z</time></trkpt><trkpt lat="57.8827756" lon="12.2828526"><ele>127.66666666666667</ele><time>2026-05-02T06:53:39.728Z</time></trkpt><trkpt lat="57.8828563" lon="12.282803"><ele>127.33333333333334</ele><time>2026-05-02T06:53:40.722Z</time></trkpt><trkpt lat="57.8829269" lon="12.2827542"><ele>127.0</ele><time>2026-05-02T06:53:41.711Z</time></trkpt><trkpt lat="57.8829885" lon="12.2827185"><ele>127.00000000000001</ele><time>2026-05-02T06:53:42.718Z</time></trkpt><trkpt lat="57.8831183" lon="12.2826581"><ele>127.0</ele><time>2026-05-02T06:53:44.725Z</time></trkpt><trkpt lat="57.8831907" lon="12.2826519"><ele>127.0</ele><time>2026-05-02T06:53:45.721Z</time></trkpt><trkpt lat="57.8832641" lon="12.2826543"><ele>127.0</ele><time>2026-05-02T06:53:46.726Z</time></trkpt><trkpt lat="57.8833303" lon="12.2826587"><ele>127.00000000000001</ele><time>2026-05-02T06:53:47.724Z</time></trkpt><trkpt lat="57.8833949" lon="12.2826541"><ele>127.0</ele><time>2026-05-02T06:53:48.724Z</time></trkpt><trkpt lat="57.8834683" lon="12.2826384"><ele>126.00000000000001</ele><time>2026-05-02T06:53:49.71Z</time></trkpt><trkpt lat="57.8835516" lon="12.2826119"><ele>125.0</ele><time>2026-05-02T06:53:50.718Z</time></trkpt><trkpt lat="57.8836341" lon="12.2825892"><ele>124.0</ele><time>2026-05-02T06:53:51.715Z</time></trkpt><trkpt lat="57.8837296" lon="12.2825604"><ele>123.0</ele><time>2026-05-02T06:53:52.72Z</time></trkpt><trkpt lat="57.8838007" lon="12.2825375"><ele>122.00000000000001</ele><time>2026-05-02T06:53:53.712Z</time></trkpt><trkpt lat="57.8838683" lon="12.2825147"><ele>121.0</ele><time>2026-05-02T06:53:54.72Z</time></trkpt><trkpt lat="57.8839349" lon="12.2824877"><ele>121.00000000000001</ele><time>2026-05-02T06:53:55.727Z</time></trkpt><trkpt lat="57.8840002" lon="12.2824579"><ele>121.0</ele><time>2026-05-02T06:53:56.715Z</time></trkpt><trkpt lat="57.8840668" lon="12.282424"><ele>121.0</ele><time>2026-05-02T06:53:57.723Z</time></trkpt><trkpt lat="57.8841302" lon="12.2823929"><ele>121.0</ele><time>2026-05-02T06:53:58.719Z</time></trkpt><trkpt lat="57.8841999" lon="12.282341"><ele>121.00000000000001</ele><time>2026-05-02T06:53:59.721Z</time></trkpt><trkpt lat="57.8842787" lon="12.2822765"><ele>121.0</ele><time>2026-05-02T06:54:00.713Z</time></trkpt><trkpt lat="57.8843597" lon="12.2821901"><ele>121.50000000000001</ele><time>2026-05-02T06:54:01.725Z</time></trkpt><trkpt lat="57.884435" lon="12.2820978"><ele>122.0</ele><time>2026-05-02T06:54:02.717Z</time></trkpt><trkpt lat="57.8845136" lon="12.2819921"><ele>122.5</ele><time>2026-05-02T06:54:03.714Z</time></trkpt><trkpt lat="57.884574" lon="12.2818925"><ele>123.0</ele><time>2026-05-02T06:54:04.706Z</time></trkpt><trkpt lat="57.8846307" lon="12.2817892"><ele>123.50000000000001</ele><time>2026-05-02T06:54:05.717Z</time></trkpt><trkpt lat="57.8846797" lon="12.2816813"><ele>124.0</ele><time>2026-05-02T06:54:06.72Z</time></trkpt><trkpt lat="57.88473" lon="12.2815639"><ele>124.00000000000001</ele><time>2026-05-02T06:54:07.718Z</time></trkpt><trkpt lat="57.884781" lon="12.281446"><ele>124.0</ele><time>2026-05-02T06:54:08.71Z</time></trkpt><trkpt lat="57.8848364" lon="12.2813221"><ele>124.0</ele><time>2026-05-02T06:54:09.72Z</time></trkpt><trkpt lat="57.8848872" lon="12.2812078"><ele>124.0</ele><time>2026-05-02T06:54:10.724Z</time></trkpt><trkpt lat="57.8849258" lon="12.2810895"><ele>124.00000000000001</ele><time>2026-05-02T06:54:11.716Z</time></trkpt><trkpt lat="57.8849643" lon="12.2809769"><ele>124.0</ele><time>2026-05-02T06:54:12.725Z</time></trkpt><trkpt lat="57.8850227" lon="12.2807872"><ele>123.6</ele><time>2026-05-02T06:54:14.721Z</time></trkpt><trkpt lat="57.8850723" lon="12.2806289"><ele>123.2</ele><time>2026-05-02T06:54:16.705Z</time></trkpt><trkpt lat="57.8851077" lon="12.2805258"><ele>122.79999999999998</ele><time>2026-05-02T06:54:17.729Z</time></trkpt><trkpt lat="57.8851786" lon="12.2803432"><ele>122.39999999999999</ele><time>2026-05-02T06:54:19.715Z</time></trkpt><trkpt lat="57.8852585" lon="12.2801544"><ele>122.0</ele><time>2026-05-02T06:54:21.722Z</time></trkpt><trkpt lat="57.8852948" lon="12.2800292"><ele>123.16666666666666</ele><time>2026-05-02T06:54:22.719Z</time></trkpt><trkpt lat="57.8853322" lon="12.2798938"><ele>124.33333333333333</ele><time>2026-05-02T06:54:23.719Z</time></trkpt><trkpt lat="57.8853648" lon="12.2797647"><ele>125.5</ele><time>2026-05-02T06:54:24.721Z</time></trkpt><trkpt lat="57.8853972" lon="12.2796352"><ele>126.66666666666666</ele><time>2026-05-02T06:54:25.729Z</time></trkpt><trkpt lat="57.8854279" lon="12.2795072"><ele>127.83333333333333</ele><time>2026-05-02T06:54:26.711Z</time></trkpt><trkpt lat="57.885456" lon="12.2793776"><ele>129.0</ele><time>2026-05-02T06:54:27.712Z</time></trkpt><trkpt lat="57.8854908" lon="12.2792573"><ele>129.0</ele><time>2026-05-02T06:54:28.719Z</time></trkpt><trkpt lat="57.8855402" lon="12.279123"><ele>129.0</ele><time>2026-05-02T06:54:29.73Z</time></trkpt><trkpt lat="57.8855966" lon="12.278997"><ele>129.0</ele><time>2026-05-02T06:54:30.713Z</time></trkpt><trkpt lat="57.8856551" lon="12.2788723"><ele>129.0</ele><time>2026-05-02T06:54:31.72Z</time></trkpt><trkpt lat="57.8857091" lon="12.2787628"><ele>129.0</ele><time>2026-05-02T06:54:32.725Z</time></trkpt><trkpt lat="57.8857576" lon="12.2786654"><ele>129.0</ele><time>2026-05-02T06:54:33.706Z</time></trkpt><trkpt lat="57.8858065" lon="12.278577"><ele>129.0</ele><time>2026-05-02T06:54:34.715Z</time></trkpt><trkpt lat="57.885862" lon="12.2784871"><ele>129.0</ele><time>2026-05-02T06:54:35.726Z</time></trkpt><trkpt lat="57.8859257" lon="12.2784046"><ele>129.0</ele><time>2026-05-02T06:54:36.712Z</time></trkpt><trkpt lat="57.8859939" lon="12.2783349"><ele>129.0</ele><time>2026-05-02T06:54:37.716Z</time></trkpt><trkpt lat="57.886071" lon="12.2782766"><ele>129.0</ele><time>2026-05-02T06:54:38.717Z</time></trkpt><trkpt lat="57.8861489" lon="12.278222"><ele>129.0</ele><time>2026-05-02T06:54:39.716Z</time></trkpt><trkpt lat="57.8862324" lon="12.2782026"><ele>129.0</ele><time>2026-05-02T06:54:40.719Z</time></trkpt><trkpt lat="57.886314" lon="12.2781936"><ele>129.0</ele><time>2026-05-02T06:54:41.708Z</time></trkpt><trkpt lat="57.8863959" lon="12.2782008"><ele>129.0</ele><time>2026-05-02T06:54:42.712Z</time></trkpt><trkpt lat="57.8864722" lon="12.2782231"><ele>129.0</ele><time>2026-05-02T06:54:43.724Z</time></trkpt><trkpt lat="57.8865456" lon="12.27824"><ele>129.0</ele><time>2026-05-02T06:54:44.72Z</time></trkpt><trkpt lat="57.8866124" lon="12.2782491"><ele>129.0</ele><time>2026-05-02T06:54:45.713Z</time></trkpt><trkpt lat="57.8866801" lon="12.2782238"><ele>129.0</ele><time>2026-05-02T06:54:46.725Z</time></trkpt><trkpt lat="57.8867554" lon="12.2781817"><ele>129.0</ele><time>2026-05-02T06:54:47.714Z</time></trkpt><trkpt lat="57.8868287" lon="12.2781236"><ele>129.0</ele><time>2026-05-02T06:54:48.706Z</time></trkpt><trkpt lat="57.8868962" lon="12.2780559"><ele>129.0</ele><time>2026-05-02T06:54:49.715Z</time></trkpt><trkpt lat="57.8869607" lon="12.2779887"><ele>129.0</ele><time>2026-05-02T06:54:50.717Z</time></trkpt><trkpt lat="57.8870246" lon="12.2779313"><ele>129.0</ele><time>2026-05-02T06:54:51.725Z</time></trkpt><trkpt lat="57.887092" lon="12.2778924"><ele>127.0</ele><time>2026-05-02T06:54:52.714Z</time></trkpt><trkpt lat="57.8872083" lon="12.2779067"><ele>125.0</ele><time>2026-05-02T06:54:54.716Z</time></trkpt><trkpt lat="57.8873196" lon="12.2780388"><ele>123.0</ele><time>2026-05-02T06:54:56.708Z</time></trkpt><trkpt lat="57.887382" lon="12.2781299"><ele>121.0</ele><time>2026-05-02T06:54:57.721Z</time></trkpt><trkpt lat="57.8874511" lon="12.2782381"><ele>119.0</ele><time>2026-05-02T06:54:58.722Z</time></trkpt><trkpt lat="57.8875065" lon="12.2783369"><ele>118.99999999999999</ele><time>2026-05-02T06:54:59.724Z</time></trkpt><trkpt lat="57.8875632" lon="12.278446"><ele>119.0</ele><time>2026-05-02T06:55:00.731Z</time></trkpt><trkpt lat="57.8876329" lon="12.2785415"><ele>119.0</ele><time>2026-05-02T06:55:01.728Z</time></trkpt><trkpt lat="57.8876954" lon="12.2786245"><ele>119.0</ele><time>2026-05-02T06:55:02.713Z</time></trkpt><trkpt lat="57.8877612" lon="12.2787012"><ele>118.99999999999999</ele><time>2026-05-02T06:55:03.717Z</time></trkpt><trkpt lat="57.8878341" lon="12.2787632"><ele>119.0</ele><time>2026-05-02T06:55:04.72Z</time></trkpt><trkpt lat="57.8879032" lon="12.2788097"><ele>118.57142857142857</ele><time>2026-05-02T06:55:05.725Z</time></trkpt><trkpt lat="57.8879693" lon="12.2788492"><ele>118.14285714285714</ele><time>2026-05-02T06:55:06.719Z</time></trkpt><trkpt lat="57.8880342" lon="12.2788857"><ele>117.71428571428572</ele><time>2026-05-02T06:55:07.722Z</time></trkpt><trkpt lat="57.888102" lon="12.2789225"><ele>117.28571428571429</ele><time>2026-05-02T06:55:08.713Z</time></trkpt><trkpt lat="57.8881698" lon="12.2789556"><ele>116.85714285714286</ele><time>2026-05-02T06:55:09.721Z</time></trkpt><trkpt lat="57.8882353" lon="12.2789833"><ele>116.42857142857144</ele><time>2026-05-02T06:55:10.725Z</time></trkpt><trkpt lat="57.8883009" lon="12.2790207"><ele>116.00000000000001</ele><time>2026-05-02T06:55:11.721Z</time></trkpt><trkpt lat="57.8883668" lon="12.2790689"><ele>115.42857142857144</ele><time>2026-05-02T06:55:12.726Z</time></trkpt><trkpt lat="57.8884294" lon="12.2791164"><ele>114.85714285714286</ele><time>2026-05-02T06:55:13.708Z</time></trkpt><trkpt lat="57.8884999" lon="12.2791766"><ele>114.28571428571429</ele><time>2026-05-02T06:55:14.72Z</time></trkpt><trkpt lat="57.8885676" lon="12.2792464"><ele>113.71428571428572</ele><time>2026-05-02T06:55:15.724Z</time></trkpt><trkpt lat="57.8886318" lon="12.2793212"><ele>113.14285714285714</ele><time>2026-05-02T06:55:16.723Z</time></trkpt><trkpt lat="57.8886916" lon="12.2793924"><ele>112.57142857142857</ele><time>2026-05-02T06:55:17.724Z</time></trkpt><trkpt lat="57.8887521" lon="12.2794692"><ele>112.0</ele><time>2026-05-02T06:55:18.722Z</time></trkpt><trkpt lat="57.8888116" lon="12.2795505"><ele>112.0</ele><time>2026-05-02T06:55:19.717Z</time></trkpt><trkpt lat="57.888871" lon="12.2796332"><ele>112.0</ele><time>2026-05-02T06:55:20.707Z</time></trkpt><trkpt lat="57.8889267" lon="12.279716"><ele>112.0</ele><time>2026-05-02T06:55:21.72Z</time></trkpt><trkpt lat="57.8889779" lon="12.2798163"><ele>112.0</ele><time>2026-05-02T06:55:22.728Z</time></trkpt><trkpt lat="57.889016" lon="12.27994"><ele>112.0</ele><time>2026-05-02T06:55:23.72Z</time></trkpt><trkpt lat="57.8890525" lon="12.2800635"><ele>112.0</ele><time>2026-05-02T06:55:24.719Z</time></trkpt><trkpt lat="57.8890826" lon="12.2801937"><ele>112.0</ele><time>2026-05-02T06:55:25.723Z</time></trkpt><trkpt lat="57.8891012" lon="12.2803189"><ele>112.50000000000001</ele><time>2026-05-02T06:55:26.719Z</time></trkpt><trkpt lat="57.8891301" lon="12.2804576"><ele>113.0</ele><time>2026-05-02T06:55:27.73Z</time></trkpt><trkpt lat="57.889164" lon="12.2805631"><ele>113.5</ele><time>2026-05-02T06:55:28.725Z</time></trkpt><trkpt lat="57.8892061" lon="12.2806537"><ele>114.0</ele><time>2026-05-02T06:55:29.723Z</time></trkpt><trkpt lat="57.88931" lon="12.2807479"><ele>114.50000000000001</ele><time>2026-05-02T06:55:31.722Z</time></trkpt><trkpt lat="57.8894318" lon="12.2807535"><ele>115.0</ele><time>2026-05-02T06:55:33.727Z</time></trkpt><trkpt lat="57.889546" lon="12.2807124"><ele>113.6</ele><time>2026-05-02T06:55:35.718Z</time></trkpt><trkpt lat="57.8896313" lon="12.2807068"><ele>112.2</ele><time>2026-05-02T06:55:37.72Z</time></trkpt><trkpt lat="57.8897126" lon="12.280719"><ele>110.80000000000001</ele><time>2026-05-02T06:55:40.72Z</time></trkpt><trkpt lat="57.8897795" lon="12.2806465"><ele>109.4</ele><time>2026-05-02T06:55:43.713Z</time></trkpt><trkpt lat="57.8898504" lon="12.2804931"><ele>108.0</ele><time>2026-05-02T06:55:46.719Z</time></trkpt><trkpt lat="57.8899214" lon="12.2803453"><ele>108.0</ele><time>2026-05-02T06:55:48.706Z</time></trkpt><trkpt lat="57.88997" lon="12.280267"><ele>108.0</ele><time>2026-05-02T06:55:49.712Z</time></trkpt><trkpt lat="57.8900182" lon="12.2801849"><ele>108.0</ele><time>2026-05-02T06:55:50.729Z</time></trkpt><trkpt lat="57.8900667" lon="12.2800914"><ele>108.0</ele><time>2026-05-02T06:55:51.719Z</time></trkpt><trkpt lat="57.8901078" lon="12.2799906"><ele>108.0</ele><time>2026-05-02T06:55:52.72Z</time></trkpt><trkpt lat="57.89014" lon="12.2798724"><ele>108.0</ele><time>2026-05-02T06:55:53.714Z</time></trkpt><trkpt lat="57.8901635" lon="12.2797452"><ele>108.0</ele><time>2026-05-02T06:55:54.729Z</time></trkpt><trkpt lat="57.8901782" lon="12.2796134"><ele>107.71428571428571</ele><time>2026-05-02T06:55:55.729Z</time></trkpt><trkpt lat="57.8901854" lon="12.2794818"><ele>107.42857142857142</ele><time>2026-05-02T06:55:56.728Z</time></trkpt><trkpt lat="57.8901962" lon="12.2793523"><ele>107.14285714285714</ele><time>2026-05-02T06:55:57.727Z</time></trkpt><trkpt lat="57.8902157" lon="12.2792271"><ele>106.85714285714286</ele><time>2026-05-02T06:55:58.719Z</time></trkpt><trkpt lat="57.8902396" lon="12.279103"><ele>106.57142857142857</ele><time>2026-05-02T06:55:59.726Z</time></trkpt><trkpt lat="57.8902653" lon="12.2789806"><ele>106.28571428571429</ele><time>2026-05-02T06:56:00.72Z</time></trkpt><trkpt lat="57.8902894" lon="12.278858"><ele>106.0</ele><time>2026-05-02T06:56:01.726Z</time></trkpt><trkpt lat="57.8903081" lon="12.2787381"><ele>105.14285714285715</ele><time>2026-05-02T06:56:02.72Z</time></trkpt><trkpt lat="57.8903261" lon="12.2786209"><ele>104.28571428571428</ele><time>2026-05-02T06:56:03.726Z</time></trkpt><trkpt lat="57.8903428" lon="12.278499"><ele>103.42857142857143</ele><time>2026-05-02T06:56:04.725Z</time></trkpt><trkpt lat="57.8903602" lon="12.2783733"><ele>102.57142857142858</ele><time>2026-05-02T06:56:05.716Z</time></trkpt><trkpt lat="57.8903811" lon="12.2782501"><ele>101.71428571428572</ele><time>2026-05-02T06:56:06.716Z</time></trkpt><trkpt lat="57.8904051" lon="12.2781327"><ele>100.85714285714286</ele><time>2026-05-02T06:56:07.733Z</time></trkpt><trkpt lat="57.8904305" lon="12.2780111"><ele>100.0</ele><time>2026-05-02T06:56:08.719Z</time></trkpt><trkpt lat="57.8904578" lon="12.277896"><ele>99.85714285714286</ele><time>2026-05-02T06:56:09.725Z</time></trkpt><trkpt lat="57.8904884" lon="12.2777855"><ele>99.71428571428572</ele><time>2026-05-02T06:56:10.722Z</time></trkpt><trkpt lat="57.8905207" lon="12.2776776"><ele>99.57142857142858</ele><time>2026-05-02T06:56:11.725Z</time></trkpt><trkpt lat="57.8905536" lon="12.2775696"><ele>99.42857142857143</ele><time>2026-05-02T06:56:12.722Z</time></trkpt><trkpt lat="57.8905876" lon="12.2774647"><ele>99.28571428571428</ele><time>2026-05-02T06:56:13.711Z</time></trkpt><trkpt lat="57.8906236" lon="12.2773667"><ele>99.14285714285715</ele><time>2026-05-02T06:56:14.724Z</time></trkpt><trkpt lat="57.8906946" lon="12.2771957"><ele>99.0</ele><time>2026-05-02T06:56:16.713Z</time></trkpt><trkpt lat="57.8907704" lon="12.2770273"><ele>99.0</ele><time>2026-05-02T06:56:18.727Z</time></trkpt><trkpt lat="57.8908518" lon="12.2768597"><ele>99.0</ele><time>2026-05-02T06:56:20.706Z</time></trkpt><trkpt lat="57.8909382" lon="12.2767045"><ele>99.0</ele><time>2026-05-02T06:56:22.725Z</time></trkpt><trkpt lat="57.8909891" lon="12.2766319"><ele>99.0</ele><time>2026-05-02T06:56:23.708Z</time></trkpt><trkpt lat="57.8910478" lon="12.2765591"><ele>99.0</ele><time>2026-05-02T06:56:24.711Z</time></trkpt><trkpt lat="57.8911114" lon="12.2764916"><ele>99.0</ele><time>2026-05-02T06:56:25.715Z</time></trkpt><trkpt lat="57.8911774" lon="12.2764234"><ele>98.83333333333333</ele><time>2026-05-02T06:56:26.725Z</time></trkpt><trkpt lat="57.8912448" lon="12.27635"><ele>98.66666666666666</ele><time>2026-05-02T06:56:27.72Z</time></trkpt><trkpt lat="57.8913112" lon="12.2762707"><ele>98.5</ele><time>2026-05-02T06:56:28.724Z</time></trkpt><trkpt lat="57.8913742" lon="12.2761838"><ele>98.33333333333333</ele><time>2026-05-02T06:56:29.712Z</time></trkpt><trkpt lat="57.8914335" lon="12.2760904"><ele>98.16666666666666</ele><time>2026-05-02T06:56:30.721Z</time></trkpt><trkpt lat="57.89149" lon="12.2759954"><ele>98.0</ele><time>2026-05-02T06:56:31.722Z</time></trkpt><trkpt lat="57.8915438" lon="12.2759018"><ele>97.99999999999999</ele><time>2026-05-02T06:56:32.717Z</time></trkpt><trkpt lat="57.8915939" lon="12.275802"><ele>98.0</ele><time>2026-05-02T06:56:33.711Z</time></trkpt><trkpt lat="57.8916396" lon="12.2756909"><ele>98.0</ele><time>2026-05-02T06:56:34.722Z</time></trkpt><trkpt lat="57.8916785" lon="12.2755786"><ele>98.0</ele><time>2026-05-02T06:56:35.727Z</time></trkpt><trkpt lat="57.8917135" lon="12.2754769"><ele>97.99999999999999</ele><time>2026-05-02T06:56:36.717Z</time></trkpt><trkpt lat="57.8917424" lon="12.2752839"><ele>98.0</ele><time>2026-05-02T06:56:38.708Z</time></trkpt><trkpt lat="57.8917538" lon="12.275055"><ele>98.66666666666666</ele><time>2026-05-02T06:56:40.711Z</time></trkpt><trkpt lat="57.8917668" lon="12.2748279"><ele>99.33333333333333</ele><time>2026-05-02T06:56:42.711Z</time></trkpt><trkpt lat="57.8917858" lon="12.2747134"><ele>100.0</ele><time>2026-05-02T06:56:43.715Z</time></trkpt><trkpt lat="57.8918171" lon="12.2746039"><ele>100.66666666666666</ele><time>2026-05-02T06:56:44.718Z</time></trkpt><trkpt lat="57.8918486" lon="12.2744935"><ele>101.33333333333333</ele><time>2026-05-02T06:56:45.732Z</time></trkpt><trkpt lat="57.8919004" lon="12.2743985"><ele>102.0</ele><time>2026-05-02T06:56:46.722Z</time></trkpt><trkpt lat="57.8919569" lon="12.2743089"><ele>102.0</ele><time>2026-05-02T06:56:47.723Z</time></trkpt><trkpt lat="57.8920156" lon="12.2742274"><ele>102.0</ele><time>2026-05-02T06:56:48.718Z</time></trkpt><trkpt lat="57.8920725" lon="12.2741482"><ele>102.0</ele><time>2026-05-02T06:56:49.732Z</time></trkpt><trkpt lat="57.8921279" lon="12.2740738"><ele>102.0</ele><time>2026-05-02T06:56:50.725Z</time></trkpt><trkpt lat="57.8921901" lon="12.2739977"><ele>102.0</ele><time>2026-05-02T06:56:51.707Z</time></trkpt><trkpt lat="57.8922553" lon="12.2739261"><ele>102.0</ele><time>2026-05-02T06:56:52.712Z</time></trkpt><trkpt lat="57.8923212" lon="12.2738532"><ele>102.0</ele><time>2026-05-02T06:56:53.712Z</time></trkpt><trkpt lat="57.8923914" lon="12.2737709"><ele>102.16666666666667</ele><time>2026-05-02T06:56:54.708Z</time></trkpt><trkpt lat="57.8924637" lon="12.2736799"><ele>102.33333333333334</ele><time>2026-05-02T06:56:55.712Z</time></trkpt><trkpt lat="57.8925305" lon="12.2736014"><ele>102.5</ele><time>2026-05-02T06:56:56.71Z</time></trkpt><trkpt lat="57.8925924" lon="12.2735373"><ele>102.66666666666667</ele><time>2026-05-02T06:56:57.724Z</time></trkpt><trkpt lat="57.8926552" lon="12.2734863"><ele>102.83333333333334</ele><time>2026-05-02T06:56:58.706Z</time></trkpt><trkpt lat="57.8927152" lon="12.2734452"><ele>103.0</ele><time>2026-05-02T06:56:59.723Z</time></trkpt><trkpt lat="57.8928238" lon="12.2734032"><ele>103.0</ele><time>2026-05-02T06:57:01.716Z</time></trkpt><trkpt lat="57.8929239" lon="12.2733794"><ele>103.0</ele><time>2026-05-02T06:57:03.706Z</time></trkpt><trkpt lat="57.8930512" lon="12.2733805"><ele>103.0</ele><time>2026-05-02T06:57:05.713Z</time></trkpt><trkpt lat="57.8931227" lon="12.2733802"><ele>103.0</ele><time>2026-05-02T06:57:06.72Z</time></trkpt><trkpt lat="57.8931973" lon="12.2733764"><ele>103.0</ele><time>2026-05-02T06:57:07.719Z</time></trkpt><trkpt lat="57.8932724" lon="12.2733659"><ele>103.00000000000001</ele><time>2026-05-02T06:57:08.711Z</time></trkpt><trkpt lat="57.8933502" lon="12.2733457"><ele>103.0</ele><time>2026-05-02T06:57:09.726Z</time></trkpt><trkpt lat="57.8934292" lon="12.2733118"><ele>103.0</ele><time>2026-05-02T06:57:10.72Z</time></trkpt><trkpt lat="57.8935027" lon="12.2732757"><ele>103.0</ele><time>2026-05-02T06:57:11.726Z</time></trkpt><trkpt lat="57.8935682" lon="12.2732446"><ele>103.00000000000001</ele><time>2026-05-02T06:57:12.727Z</time></trkpt><trkpt lat="57.8936948" lon="12.2732296"><ele>103.0</ele><time>2026-05-02T06:57:14.721Z</time></trkpt><trkpt lat="57.8937595" lon="12.273257"><ele>103.00000000000001</ele><time>2026-05-02T06:57:15.71Z</time></trkpt><trkpt lat="57.8938236" lon="12.273316"><ele>103.0</ele><time>2026-05-02T06:57:16.723Z</time></trkpt><trkpt lat="57.8938832" lon="12.2734022"><ele>103.0</ele><time>2026-05-02T06:57:17.716Z</time></trkpt><trkpt lat="57.8939419" lon="12.2734874"><ele>103.0</ele><time>2026-05-02T06:57:18.723Z</time></trkpt><trkpt lat="57.8939928" lon="12.2735984"><ele>103.00000000000001</ele><time>2026-05-02T06:57:19.722Z</time></trkpt><trkpt lat="57.8940384" lon="12.2737315"><ele>103.0</ele><time>2026-05-02T06:57:20.717Z</time></trkpt><trkpt lat="57.8940839" lon="12.2738811"><ele>102.83333333333334</ele><time>2026-05-02T06:57:21.718Z</time></trkpt><trkpt lat="57.894117" lon="12.2740436"><ele>102.66666666666667</ele><time>2026-05-02T06:57:22.718Z</time></trkpt><trkpt lat="57.894154" lon="12.2742129"><ele>102.5</ele><time>2026-05-02T06:57:23.726Z</time></trkpt><trkpt lat="57.8941785" lon="12.274358"><ele>102.33333333333334</ele><time>2026-05-02T06:57:24.706Z</time></trkpt><trkpt lat="57.8942013" lon="12.2744953"><ele>102.16666666666667</ele><time>2026-05-02T06:57:25.718Z</time></trkpt><trkpt lat="57.8942252" lon="12.2746227"><ele>102.0</ele><time>2026-05-02T06:57:26.729Z</time></trkpt><trkpt lat="57.8942549" lon="12.2747465"><ele>102.14285714285714</ele><time>2026-05-02T06:57:27.719Z</time></trkpt><trkpt lat="57.8942906" lon="12.2748662"><ele>102.28571428571429</ele><time>2026-05-02T06:57:28.724Z</time></trkpt><trkpt lat="57.8943303" lon="12.2749898"><ele>102.42857142857142</ele><time>2026-05-02T06:57:29.716Z</time></trkpt><trkpt lat="57.8943656" lon="12.275118"><ele>102.57142857142857</ele><time>2026-05-02T06:57:30.714Z</time></trkpt><trkpt lat="57.8943962" lon="12.2752341"><ele>102.71428571428571</ele><time>2026-05-02T06:57:31.714Z</time></trkpt><trkpt lat="57.8944266" lon="12.2753471"><ele>102.85714285714285</ele><time>2026-05-02T06:57:32.719Z</time></trkpt><trkpt lat="57.8944674" lon="12.2754686"><ele>103.0</ele><time>2026-05-02T06:57:33.716Z</time></trkpt><trkpt lat="57.8945125" lon="12.2755724"><ele>103.28571428571428</ele><time>2026-05-02T06:57:34.717Z</time></trkpt><trkpt lat="57.8945654" lon="12.2756651"><ele>103.57142857142857</ele><time>2026-05-02T06:57:35.703Z</time></trkpt><trkpt lat="57.8946203" lon="12.2757624"><ele>103.85714285714286</ele><time>2026-05-02T06:57:36.725Z</time></trkpt><trkpt lat="57.8946769" lon="12.2758401"><ele>104.14285714285714</ele><time>2026-05-02T06:57:37.713Z</time></trkpt><trkpt lat="57.894736" lon="12.2759159"><ele>104.42857142857143</ele><time>2026-05-02T06:57:38.714Z</time></trkpt><trkpt lat="57.8947989" lon="12.2759963"><ele>104.71428571428571</ele><time>2026-05-02T06:57:39.716Z</time></trkpt><trkpt lat="57.8948469" lon="12.2761037"><ele>105.0</ele><time>2026-05-02T06:57:40.711Z</time></trkpt><trkpt lat="57.8948827" lon="12.2762259"><ele>105.0</ele><time>2026-05-02T06:57:41.719Z</time></trkpt><trkpt lat="57.8949073" lon="12.2763587"><ele>105.0</ele><time>2026-05-02T06:57:42.714Z</time></trkpt><trkpt lat="57.8949153" lon="12.276495"><ele>105.0</ele><time>2026-05-02T06:57:43.725Z</time></trkpt><trkpt lat="57.8949032" lon="12.276649"><ele>105.0</ele><time>2026-05-02T06:57:44.709Z</time></trkpt><trkpt lat="57.8949007" lon="12.2768087"><ele>105.0</ele><time>2026-05-02T06:57:45.723Z</time></trkpt><trkpt lat="57.8948985" lon="12.2769599"><ele>105.0</ele><time>2026-05-02T06:57:46.733Z</time></trkpt><trkpt lat="57.8949041" lon="12.27709"><ele>105.2</ele><time>2026-05-02T06:57:47.71Z</time></trkpt><trkpt lat="57.8949374" lon="12.27728"><ele>105.4</ele><time>2026-05-02T06:57:49.719Z</time></trkpt><trkpt lat="57.8949987" lon="12.2774385"><ele>105.6</ele><time>2026-05-02T06:57:51.734Z</time></trkpt><trkpt lat="57.8950705" lon="12.2776058"><ele>105.8</ele><time>2026-05-02T06:57:53.72Z</time></trkpt><trkpt lat="57.8951364" lon="12.2777575"><ele>106.0</ele><time>2026-05-02T06:57:55.731Z</time></trkpt><trkpt lat="57.8952033" lon="12.2779158"><ele>108.4</ele><time>2026-05-02T06:57:57.732Z</time></trkpt><trkpt lat="57.8952752" lon="12.2780759"><ele>110.8</ele><time>2026-05-02T06:57:59.726Z</time></trkpt><trkpt lat="57.8953314" lon="12.2782311"><ele>113.20000000000002</ele><time>2026-05-02T06:58:01.727Z</time></trkpt><trkpt lat="57.8953598" lon="12.2784261"><ele>115.60000000000001</ele><time>2026-05-02T06:58:03.723Z</time></trkpt><trkpt lat="57.8953586" lon="12.2785559"><ele>118.0</ele><time>2026-05-02T06:58:04.716Z</time></trkpt><trkpt lat="57.8953328" lon="12.2786971"><ele>118.50000000000001</ele><time>2026-05-02T06:58:05.717Z</time></trkpt><trkpt lat="57.8952992" lon="12.2788442"><ele>119.0</ele><time>2026-05-02T06:58:06.713Z</time></trkpt><trkpt lat="57.8952706" lon="12.2789877"><ele>119.5</ele><time>2026-05-02T06:58:07.722Z</time></trkpt><trkpt lat="57.8952572" lon="12.2791277"><ele>120.0</ele><time>2026-05-02T06:58:08.717Z</time></trkpt><trkpt lat="57.8952448" lon="12.2792736"><ele>120.50000000000001</ele><time>2026-05-02T06:58:09.71Z</time></trkpt><trkpt lat="57.8952572" lon="12.2794133"><ele>121.0</ele><time>2026-05-02T06:58:10.722Z</time></trkpt><trkpt lat="57.895283" lon="12.279552"><ele>121.00000000000001</ele><time>2026-05-02T06:58:11.722Z</time></trkpt><trkpt lat="57.895308" lon="12.2796889"><ele>121.0</ele><time>2026-05-02T06:58:12.734Z</time></trkpt><trkpt lat="57.8953394" lon="12.2798175"><ele>121.0</ele><time>2026-05-02T06:58:13.724Z</time></trkpt><trkpt lat="57.8953701" lon="12.2799469"><ele>121.0</ele><time>2026-05-02T06:58:14.723Z</time></trkpt><trkpt lat="57.8954036" lon="12.280079"><ele>121.00000000000001</ele><time>2026-05-02T06:58:15.722Z</time></trkpt><trkpt lat="57.8954377" lon="12.2802071"><ele>121.0</ele><time>2026-05-02T06:58:16.716Z</time></trkpt><trkpt lat="57.8954747" lon="12.2803461"><ele>120.33333333333334</ele><time>2026-05-02T06:58:17.728Z</time></trkpt><trkpt lat="57.8955054" lon="12.2805237"><ele>119.66666666666667</ele><time>2026-05-02T06:58:18.709Z</time></trkpt><trkpt lat="57.8955353" lon="12.2806778"><ele>119.0</ele><time>2026-05-02T06:58:19.715Z</time></trkpt><trkpt lat="57.8955591" lon="12.2808193"><ele>118.33333333333334</ele><time>2026-05-02T06:58:20.719Z</time></trkpt><trkpt lat="57.8955835" lon="12.2809618"><ele>117.66666666666667</ele><time>2026-05-02T06:58:21.729Z</time></trkpt><trkpt lat="57.8956067" lon="12.2811027"><ele>117.0</ele><time>2026-05-02T06:58:22.722Z</time></trkpt><trkpt lat="57.8956373" lon="12.2812482"><ele>116.33333333333333</ele><time>2026-05-02T06:58:23.718Z</time></trkpt><trkpt lat="57.8956682" lon="12.2813857"><ele>115.66666666666666</ele><time>2026-05-02T06:58:24.725Z</time></trkpt><trkpt lat="57.8957018" lon="12.2815244"><ele>115.0</ele><time>2026-05-02T06:58:25.726Z</time></trkpt><trkpt lat="57.8957482" lon="12.281651"><ele>114.33333333333333</ele><time>2026-05-02T06:58:26.72Z</time></trkpt><trkpt lat="57.8957909" lon="12.2817743"><ele>113.66666666666666</ele><time>2026-05-02T06:58:27.715Z</time></trkpt><trkpt lat="57.8958352" lon="12.2818918"><ele>113.0</ele><time>2026-05-02T06:58:28.718Z</time></trkpt><trkpt lat="57.8958783" lon="12.281995"><ele>112.83333333333333</ele><time>2026-05-02T06:58:29.725Z</time></trkpt><trkpt lat="57.8959266" lon="12.28208"><ele>112.66666666666666</ele><time>2026-05-02T06:58:30.718Z</time></trkpt><trkpt lat="57.8960337" lon="12.2821512"><ele>112.5</ele><time>2026-05-02T06:58:32.722Z</time></trkpt><trkpt lat="57.8961481" lon="12.2821615"><ele>112.33333333333334</ele><time>2026-05-02T06:58:34.714Z</time></trkpt><trkpt lat="57.8962146" lon="12.2821505"><ele>112.16666666666667</ele><time>2026-05-02T06:58:35.718Z</time></trkpt><trkpt lat="57.8962841" lon="12.2821467"><ele>112.0</ele><time>2026-05-02T06:58:36.714Z</time></trkpt><trkpt lat="57.8963493" lon="12.282182"><ele>112.0</ele><time>2026-05-02T06:58:37.712Z</time></trkpt><trkpt lat="57.8964083" lon="12.282252"><ele>112.0</ele><time>2026-05-02T06:58:38.706Z</time></trkpt><trkpt lat="57.8964445" lon="12.2823743"><ele>112.0</ele><time>2026-05-02T06:58:39.722Z</time></trkpt><trkpt lat="57.8964681" lon="12.2825103"><ele>112.0</ele><time>2026-05-02T06:58:40.722Z</time></trkpt><trkpt lat="57.8964909" lon="12.2826495"><ele>112.0</ele><time>2026-05-02T06:58:41.724Z</time></trkpt><trkpt lat="57.8965082" lon="12.2827895"><ele>112.0</ele><time>2026-05-02T06:58:42.708Z</time></trkpt><trkpt lat="57.8965265" lon="12.282922"><ele>112.0</ele><time>2026-05-02T06:58:43.716Z</time></trkpt><trkpt lat="57.8965544" lon="12.2830417"><ele>111.25</ele><time>2026-05-02T06:58:44.716Z</time></trkpt><trkpt lat="57.8965956" lon="12.2832161"><ele>110.5</ele><time>2026-05-02T06:58:46.715Z</time></trkpt><trkpt lat="57.8966461" lon="12.2834047"><ele>109.75</ele><time>2026-05-02T06:58:48.704Z</time></trkpt><trkpt lat="57.8967098" lon="12.2835952"><ele>109.0</ele><time>2026-05-02T06:58:50.711Z</time></trkpt><trkpt lat="57.8968096" lon="12.2837477"><ele>110.80000000000001</ele><time>2026-05-02T06:58:52.715Z</time></trkpt><trkpt lat="57.8968648" lon="12.2838083"><ele>112.60000000000001</ele><time>2026-05-02T06:58:53.717Z</time></trkpt><trkpt lat="57.8969773" lon="12.283885"><ele>114.4</ele><time>2026-05-02T06:58:55.714Z</time></trkpt><trkpt lat="57.8971037" lon="12.2839259"><ele>116.2</ele><time>2026-05-02T06:58:57.704Z</time></trkpt><trkpt lat="57.8971821" lon="12.2839194"><ele>118.0</ele><time>2026-05-02T06:58:58.715Z</time></trkpt><trkpt lat="57.8972479" lon="12.2838989"><ele>118.0</ele><time>2026-05-02T06:58:59.711Z</time></trkpt><trkpt lat="57.8973128" lon="12.2838858"><ele>118.0</ele><time>2026-05-02T06:59:00.722Z</time></trkpt><trkpt lat="57.8973761" lon="12.2838743"><ele>118.0</ele><time>2026-05-02T06:59:01.709Z</time></trkpt><trkpt lat="57.8974466" lon="12.2838715"><ele>118.0</ele><time>2026-05-02T06:59:02.71Z</time></trkpt><trkpt lat="57.8975223" lon="12.2838614"><ele>118.0</ele><time>2026-05-02T06:59:03.723Z</time></trkpt><trkpt lat="57.8976121" lon="12.283849"><ele>118.0</ele><time>2026-05-02T06:59:04.709Z</time></trkpt><trkpt lat="57.897692" lon="12.2838472"><ele>118.0</ele><time>2026-05-02T06:59:05.707Z</time></trkpt><trkpt lat="57.8977902" lon="12.2838551"><ele>118.66666666666667</ele><time>2026-05-02T06:59:06.714Z</time></trkpt><trkpt lat="57.8978742" lon="12.2838704"><ele>119.33333333333334</ele><time>2026-05-02T06:59:07.708Z</time></trkpt><trkpt lat="57.8979609" lon="12.2838922"><ele>120.0</ele><time>2026-05-02T06:59:08.721Z</time></trkpt><trkpt lat="57.8980464" lon="12.2839203"><ele>120.66666666666666</ele><time>2026-05-02T06:59:09.714Z</time></trkpt><trkpt lat="57.8981295" lon="12.2839597"><ele>121.33333333333333</ele><time>2026-05-02T06:59:10.709Z</time></trkpt><trkpt lat="57.8982019" lon="12.2840174"><ele>122.0</ele><time>2026-05-02T06:59:11.723Z</time></trkpt><trkpt lat="57.8982676" lon="12.2840972"><ele>120.85714285714283</ele><time>2026-05-02T06:59:12.713Z</time></trkpt><trkpt lat="57.8983175" lon="12.2841959"><ele>119.71428571428571</ele><time>2026-05-02T06:59:13.715Z</time></trkpt><trkpt lat="57.8983729" lon="12.2842947"><ele>118.57142857142856</ele><time>2026-05-02T06:59:14.719Z</time></trkpt><trkpt lat="57.8984272" lon="12.2843618"><ele>117.42857142857142</ele><time>2026-05-02T06:59:15.71Z</time></trkpt><trkpt lat="57.8984959" lon="12.2844147"><ele>116.28571428571428</ele><time>2026-05-02T06:59:16.711Z</time></trkpt><trkpt lat="57.8985691" lon="12.2844502"><ele>115.14285714285714</ele><time>2026-05-02T06:59:17.714Z</time></trkpt><trkpt lat="57.8986356" lon="12.2844608"><ele>114.0</ele><time>2026-05-02T06:59:18.714Z</time></trkpt><trkpt lat="57.8987102" lon="12.2844376"><ele>113.71428571428571</ele><time>2026-05-02T06:59:19.715Z</time></trkpt><trkpt lat="57.8988019" lon="12.2844118"><ele>113.42857142857142</ele><time>2026-05-02T06:59:20.712Z</time></trkpt><trkpt lat="57.8988785" lon="12.2843955"><ele>113.14285714285714</ele><time>2026-05-02T06:59:21.72Z</time></trkpt><trkpt lat="57.8989473" lon="12.2843785"><ele>112.85714285714286</ele><time>2026-05-02T06:59:22.699Z</time></trkpt><trkpt lat="57.8990151" lon="12.2843492"><ele>112.57142857142857</ele><time>2026-05-02T06:59:23.715Z</time></trkpt><trkpt lat="57.8990759" lon="12.2843052"><ele>112.28571428571428</ele><time>2026-05-02T06:59:24.715Z</time></trkpt><trkpt lat="57.8991367" lon="12.2842415"><ele>112.0</ele><time>2026-05-02T06:59:25.703Z</time></trkpt><trkpt lat="57.8992007" lon="12.2841521"><ele>111.50000000000001</ele><time>2026-05-02T06:59:26.714Z</time></trkpt><trkpt lat="57.8992582" lon="12.2840624"><ele>111.0</ele><time>2026-05-02T06:59:27.714Z</time></trkpt><trkpt lat="57.8993103" lon="12.2839641"><ele>110.5</ele><time>2026-05-02T06:59:28.701Z</time></trkpt><trkpt lat="57.899355" lon="12.283858"><ele>110.0</ele><time>2026-05-02T06:59:29.708Z</time></trkpt><trkpt lat="57.8994045" lon="12.2837399"><ele>109.50000000000001</ele><time>2026-05-02T06:59:30.714Z</time></trkpt><trkpt lat="57.8994551" lon="12.2836196"><ele>109.0</ele><time>2026-05-02T06:59:31.722Z</time></trkpt><trkpt lat="57.8995098" lon="12.2835039"><ele>108.85714285714286</ele><time>2026-05-02T06:59:32.704Z</time></trkpt><trkpt lat="57.8995616" lon="12.2834242"><ele>108.71428571428572</ele><time>2026-05-02T06:59:33.717Z</time></trkpt><trkpt lat="57.8996235" lon="12.2833643"><ele>108.57142857142857</ele><time>2026-05-02T06:59:34.715Z</time></trkpt><trkpt lat="57.8996874" lon="12.283322"><ele>108.42857142857143</ele><time>2026-05-02T06:59:35.704Z</time></trkpt><trkpt lat="57.8997576" lon="12.2833092"><ele>108.28571428571428</ele><time>2026-05-02T06:59:36.712Z</time></trkpt><trkpt lat="57.8998268" lon="12.2833207"><ele>108.14285714285714</ele><time>2026-05-02T06:59:37.711Z</time></trkpt><trkpt lat="57.8998931" lon="12.2833476"><ele>108.0</ele><time>2026-05-02T06:59:38.716Z</time></trkpt><trkpt lat="57.8999646" lon="12.2833847"><ele>108.0</ele><time>2026-05-02T06:59:39.709Z</time></trkpt><trkpt lat="57.9000431" lon="12.283436"><ele>108.0</ele><time>2026-05-02T06:59:40.708Z</time></trkpt><trkpt lat="57.9001241" lon="12.283495"><ele>108.0</ele><time>2026-05-02T06:59:41.701Z</time></trkpt><trkpt lat="57.9001956" lon="12.2835594"><ele>108.0</ele><time>2026-05-02T06:59:42.714Z</time></trkpt><trkpt lat="57.9002683" lon="12.283622"><ele>108.0</ele><time>2026-05-02T06:59:43.714Z</time></trkpt><trkpt lat="57.9003417" lon="12.2837108"><ele>108.0</ele><time>2026-05-02T06:59:44.714Z</time></trkpt><trkpt lat="57.9004037" lon="12.2837973"><ele>108.0</ele><time>2026-05-02T06:59:45.71Z</time></trkpt><trkpt lat="57.900458" lon="12.2838898"><ele>108.0</ele><time>2026-05-02T06:59:46.699Z</time></trkpt><trkpt lat="57.9005182" lon="12.2839919"><ele>108.0</ele><time>2026-05-02T06:59:47.71Z</time></trkpt><trkpt lat="57.9005769" lon="12.2840862"><ele>108.0</ele><time>2026-05-02T06:59:48.697Z</time></trkpt><trkpt lat="57.9006427" lon="12.284157"><ele>108.0</ele><time>2026-05-02T06:59:49.714Z</time></trkpt><trkpt lat="57.9007095" lon="12.2841944"><ele>108.0</ele><time>2026-05-02T06:59:50.712Z</time></trkpt><trkpt lat="57.9007791" lon="12.2842166"><ele>108.0</ele><time>2026-05-02T06:59:51.713Z</time></trkpt><trkpt lat="57.9008508" lon="12.2842301"><ele>108.71428571428571</ele><time>2026-05-02T06:59:52.716Z</time></trkpt><trkpt lat="57.9009215" lon="12.2842386"><ele>109.42857142857142</ele><time>2026-05-02T06:59:53.714Z</time></trkpt><trkpt lat="57.900998" lon="12.2842357"><ele>110.14285714285714</ele><time>2026-05-02T06:59:54.715Z</time></trkpt><trkpt lat="57.9010727" lon="12.2842292"><ele>110.85714285714286</ele><time>2026-05-02T06:59:55.713Z</time></trkpt><trkpt lat="57.9011446" lon="12.2842224"><ele>111.57142857142857</ele><time>2026-05-02T06:59:56.705Z</time></trkpt><trkpt lat="57.9012126" lon="12.2842186"><ele>112.28571428571429</ele><time>2026-05-02T06:59:57.706Z</time></trkpt><trkpt lat="57.9012894" lon="12.2842263"><ele>113.0</ele><time>2026-05-02T06:59:58.711Z</time></trkpt><trkpt lat="57.9013706" lon="12.2842363"><ele>112.99999999999999</ele><time>2026-05-02T06:59:59.717Z</time></trkpt><trkpt lat="57.9014479" lon="12.2842412"><ele>113.0</ele><time>2026-05-02T07:00:00.713Z</time></trkpt><trkpt lat="57.9015269" lon="12.284233"><ele>113.0</ele><time>2026-05-02T07:00:01.711Z</time></trkpt><trkpt lat="57.9016014" lon="12.2842101"><ele>113.0</ele><time>2026-05-02T07:00:02.714Z</time></trkpt><trkpt lat="57.901672" lon="12.2841768"><ele>112.99999999999999</ele><time>2026-05-02T07:00:03.711Z</time></trkpt><trkpt lat="57.901744" lon="12.2841382"><ele>113.0</ele><time>2026-05-02T07:00:04.719Z</time></trkpt><trkpt lat="57.9018169" lon="12.2840992"><ele>112.16666666666666</ele><time>2026-05-02T07:00:05.712Z</time></trkpt><trkpt lat="57.9019178" lon="12.2840454"><ele>111.33333333333333</ele><time>2026-05-02T07:00:07.717Z</time></trkpt><trkpt lat="57.9020022" lon="12.283991"><ele>110.5</ele><time>2026-05-02T07:00:09.718Z</time></trkpt><trkpt lat="57.9020806" lon="12.2839373"><ele>109.66666666666666</ele><time>2026-05-02T07:00:11.706Z</time></trkpt><trkpt lat="57.9021395" lon="12.283889"><ele>108.83333333333333</ele><time>2026-05-02T07:00:13.705Z</time></trkpt><trkpt lat="57.9021953" lon="12.2838023"><ele>108.0</ele><time>2026-05-02T07:00:16.706Z</time></trkpt><trkpt lat="57.9022808" lon="12.2837859"><ele>108.0</ele><time>2026-05-02T07:05:38.711Z</time></trkpt><trkpt lat="57.9023517" lon="12.2837793"><ele>108.0</ele><time>2026-05-02T07:05:40.716Z</time></trkpt><trkpt lat="57.9024245" lon="12.2837666"><ele>108.0</ele><time>2026-05-02T07:05:42.716Z</time></trkpt><trkpt lat="57.9025156" lon="12.2837482"><ele>108.0</ele><time>2026-05-02T07:05:44.712Z</time></trkpt><trkpt lat="57.9026361" lon="12.2837302"><ele>108.0</ele><time>2026-05-02T07:05:46.717Z</time></trkpt><trkpt lat="57.9027046" lon="12.2837175"><ele>108.0</ele><time>2026-05-02T07:05:47.723Z</time></trkpt><trkpt lat="57.9027838" lon="12.2837016"><ele>108.0</ele><time>2026-05-02T07:05:48.721Z</time></trkpt><trkpt lat="57.9028656" lon="12.2836907"><ele>108.0</ele><time>2026-05-02T07:05:49.722Z</time></trkpt><trkpt lat="57.9029522" lon="12.2836831"><ele>108.0</ele><time>2026-05-02T07:05:50.713Z</time></trkpt><trkpt lat="57.9030282" lon="12.2836751"><ele>108.0</ele><time>2026-05-02T07:05:51.729Z</time></trkpt><trkpt lat="57.9031037" lon="12.2836833"><ele>108.0</ele><time>2026-05-02T07:05:52.72Z</time></trkpt><trkpt lat="57.9031785" lon="12.2836916"><ele>108.0</ele><time>2026-05-02T07:05:53.724Z</time></trkpt><trkpt lat="57.9032539" lon="12.2837009"><ele>108.0</ele><time>2026-05-02T07:05:54.728Z</time></trkpt><trkpt lat="57.9033297" lon="12.2837175"><ele>108.0</ele><time>2026-05-02T07:05:55.717Z</time></trkpt><trkpt lat="57.9034009" lon="12.2837339"><ele>108.0</ele><time>2026-05-02T07:05:56.723Z</time></trkpt><trkpt lat="57.9034664" lon="12.2837535"><ele>108.0</ele><time>2026-05-02T07:05:57.719Z</time></trkpt><trkpt lat="57.9035319" lon="12.2837764"><ele>108.0</ele><time>2026-05-02T07:05:58.728Z</time></trkpt><trkpt lat="57.9035982" lon="12.2838065"><ele>108.0</ele><time>2026-05-02T07:05:59.722Z</time></trkpt><trkpt lat="57.9036676" lon="12.283843"><ele>108.0</ele><time>2026-05-02T07:06:00.726Z</time></trkpt><trkpt lat="57.9037432" lon="12.2838808"><ele>107.5</ele><time>2026-05-02T07:06:01.734Z</time></trkpt><trkpt lat="57.9038102" lon="12.2839125"><ele>107.0</ele><time>2026-05-02T07:06:02.714Z</time></trkpt><trkpt lat="57.903899" lon="12.2839425"><ele>106.5</ele><time>2026-05-02T07:06:04.725Z</time></trkpt><trkpt lat="57.9039779" lon="12.2839491"><ele>106.0</ele><time>2026-05-02T07:06:07.736Z</time></trkpt><trkpt lat="57.904047" lon="12.2839417"><ele>105.5</ele><time>2026-05-02T07:06:11.716Z</time></trkpt><trkpt lat="57.9041108" lon="12.2838673"><ele>105.0</ele><time>2026-05-02T07:06:53.717Z</time></trkpt><trkpt lat="57.9041721" lon="12.2837719"><ele>103.16666666666667</ele><time>2026-05-02T07:06:55.71Z</time></trkpt><trkpt lat="57.9042658" lon="12.2836232"><ele>101.33333333333333</ele><time>2026-05-02T07:06:57.725Z</time></trkpt><trkpt lat="57.9043216" lon="12.2835362"><ele>99.5</ele><time>2026-05-02T07:06:58.714Z</time></trkpt><trkpt lat="57.9043786" lon="12.2834483"><ele>97.66666666666666</ele><time>2026-05-02T07:06:59.725Z</time></trkpt><trkpt lat="57.9044342" lon="12.2833624"><ele>95.83333333333333</ele><time>2026-05-02T07:07:00.728Z</time></trkpt><trkpt lat="57.9044901" lon="12.2832834"><ele>94.0</ele><time>2026-05-02T07:07:01.712Z</time></trkpt><trkpt lat="57.9045432" lon="12.2832044"><ele>94.80000000000001</ele><time>2026-05-02T07:07:02.723Z</time></trkpt><trkpt lat="57.904645" lon="12.2830712"><ele>95.60000000000001</ele><time>2026-05-02T07:07:04.72Z</time></trkpt><trkpt lat="57.904743" lon="12.2829653"><ele>96.4</ele><time>2026-05-02T07:07:06.728Z</time></trkpt><trkpt lat="57.9048548" lon="12.282875"><ele>97.2</ele><time>2026-05-02T07:07:08.736Z</time></trkpt><trkpt lat="57.9049156" lon="12.2828272"><ele>98.0</ele><time>2026-05-02T07:07:09.713Z</time></trkpt><trkpt lat="57.9049751" lon="12.2827824"><ele>97.99999999999999</ele><time>2026-05-02T07:07:10.728Z</time></trkpt><trkpt lat="57.9050747" lon="12.2827308"><ele>98.0</ele><time>2026-05-02T07:07:12.726Z</time></trkpt><trkpt lat="57.9051537" lon="12.2827892"><ele>98.0</ele><time>2026-05-02T07:07:14.727Z</time></trkpt><trkpt lat="57.9052129" lon="12.2828525"><ele>98.0</ele><time>2026-05-02T07:07:17.71Z</time></trkpt><trkpt lat="57.9052734" lon="12.2828959"><ele>97.99999999999999</ele><time>2026-05-02T07:08:10.731Z</time></trkpt><trkpt lat="57.9053774" lon="12.2829792"><ele>98.0</ele><time>2026-05-02T07:08:13.707Z</time></trkpt><trkpt lat="57.9054932" lon="12.2830733"><ele>97.16666666666666</ele><time>2026-05-02T07:08:15.731Z</time></trkpt><trkpt lat="57.9055604" lon="12.2831317"><ele>96.33333333333333</ele><time>2026-05-02T07:08:16.723Z</time></trkpt><trkpt lat="57.9056283" lon="12.2831875"><ele>95.5</ele><time>2026-05-02T07:08:17.723Z</time></trkpt><trkpt lat="57.9056999" lon="12.2832473"><ele>94.66666666666666</ele><time>2026-05-02T07:08:18.718Z</time></trkpt><trkpt lat="57.905771" lon="12.2833171"><ele>93.83333333333333</ele><time>2026-05-02T07:08:19.719Z</time></trkpt><trkpt lat="57.9058398" lon="12.2834024"><ele>93.0</ele><time>2026-05-02T07:08:20.719Z</time></trkpt><trkpt lat="57.9059004" lon="12.283505"><ele>93.83333333333333</ele><time>2026-05-02T07:08:21.718Z</time></trkpt><trkpt lat="57.9059608" lon="12.2836071"><ele>94.66666666666666</ele><time>2026-05-02T07:08:22.723Z</time></trkpt><trkpt lat="57.9060169" lon="12.2837257"><ele>95.5</ele><time>2026-05-02T07:08:23.714Z</time></trkpt><trkpt lat="57.906064" lon="12.2838426"><ele>96.33333333333333</ele><time>2026-05-02T07:08:24.718Z</time></trkpt><trkpt lat="57.9061096" lon="12.2839602"><ele>97.16666666666666</ele><time>2026-05-02T07:08:25.719Z</time></trkpt><trkpt lat="57.9061619" lon="12.2840391"><ele>98.0</ele><time>2026-05-02T07:08:26.722Z</time></trkpt><trkpt lat="57.9062186" lon="12.2841139"><ele>98.66666666666666</ele><time>2026-05-02T07:08:27.721Z</time></trkpt><trkpt lat="57.9063365" lon="12.2842011"><ele>99.33333333333333</ele><time>2026-05-02T07:08:29.723Z</time></trkpt><trkpt lat="57.9063999" lon="12.2842226"><ele>100.0</ele><time>2026-05-02T07:08:30.723Z</time></trkpt><trkpt lat="57.9064707" lon="12.2842305"><ele>100.66666666666666</ele><time>2026-05-02T07:08:31.726Z</time></trkpt><trkpt lat="57.9065403" lon="12.2842377"><ele>101.33333333333333</ele><time>2026-05-02T07:08:32.711Z</time></trkpt><trkpt lat="57.9066122" lon="12.2842451"><ele>102.0</ele><time>2026-05-02T07:08:33.727Z</time></trkpt><trkpt lat="57.9066856" lon="12.2842539"><ele>102.57142857142857</ele><time>2026-05-02T07:08:34.722Z</time></trkpt><trkpt lat="57.90676" lon="12.2842607"><ele>103.14285714285714</ele><time>2026-05-02T07:08:35.726Z</time></trkpt><trkpt lat="57.9068379" lon="12.2842579"><ele>103.71428571428572</ele><time>2026-05-02T07:08:36.728Z</time></trkpt><trkpt lat="57.9069139" lon="12.2842465"><ele>104.28571428571428</ele><time>2026-05-02T07:08:37.724Z</time></trkpt><trkpt lat="57.906987" lon="12.2842322"><ele>104.85714285714285</ele><time>2026-05-02T07:08:38.726Z</time></trkpt><trkpt lat="57.9070506" lon="12.2842062"><ele>105.42857142857143</ele><time>2026-05-02T07:08:39.725Z</time></trkpt><trkpt lat="57.9071187" lon="12.2841644"><ele>106.0</ele><time>2026-05-02T07:08:40.723Z</time></trkpt><trkpt lat="57.9071865" lon="12.2841219"><ele>106.0</ele><time>2026-05-02T07:08:41.711Z</time></trkpt><trkpt lat="57.9072559" lon="12.2840809"><ele>106.0</ele><time>2026-05-02T07:08:42.725Z</time></trkpt><trkpt lat="57.9073293" lon="12.2840297"><ele>106.0</ele><time>2026-05-02T07:08:43.73Z</time></trkpt><trkpt lat="57.9073948" lon="12.2839789"><ele>106.0</ele><time>2026-05-02T07:08:44.714Z</time></trkpt><trkpt lat="57.9074581" lon="12.2839043"><ele>106.0</ele><time>2026-05-02T07:08:45.723Z</time></trkpt><trkpt lat="57.9075115" lon="12.2838059"><ele>106.0</ele><time>2026-05-02T07:08:46.732Z</time></trkpt><trkpt lat="57.9075596" lon="12.2836904"><ele>106.0</ele><time>2026-05-02T07:08:47.721Z</time></trkpt><trkpt lat="57.9075971" lon="12.2835622"><ele>107.66666666666667</ele><time>2026-05-02T07:08:48.719Z</time></trkpt><trkpt lat="57.9076309" lon="12.2834331"><ele>109.33333333333334</ele><time>2026-05-02T07:08:49.726Z</time></trkpt><trkpt lat="57.9076661" lon="12.2833093"><ele>111.0</ele><time>2026-05-02T07:08:50.725Z</time></trkpt><trkpt lat="57.9077054" lon="12.283192"><ele>112.66666666666666</ele><time>2026-05-02T07:08:51.726Z</time></trkpt><trkpt lat="57.9077504" lon="12.2830786"><ele>114.33333333333333</ele><time>2026-05-02T07:08:52.732Z</time></trkpt><trkpt lat="57.9078024" lon="12.2829705"><ele>116.0</ele><time>2026-05-02T07:08:53.714Z</time></trkpt><trkpt lat="57.9078602" lon="12.2828721"><ele>116.16666666666666</ele><time>2026-05-02T07:08:54.713Z</time></trkpt><trkpt lat="57.9079183" lon="12.2827755"><ele>116.33333333333333</ele><time>2026-05-02T07:08:55.711Z</time></trkpt><trkpt lat="57.9079769" lon="12.2826805"><ele>116.5</ele><time>2026-05-02T07:08:56.722Z</time></trkpt><trkpt lat="57.908037" lon="12.2825951"><ele>116.66666666666666</ele><time>2026-05-02T07:08:57.724Z</time></trkpt><trkpt lat="57.9080954" lon="12.282512"><ele>116.83333333333333</ele><time>2026-05-02T07:08:58.718Z</time></trkpt><trkpt lat="57.9081512" lon="12.2824216"><ele>117.0</ele><time>2026-05-02T07:08:59.724Z</time></trkpt><trkpt lat="57.9082049" lon="12.2823217"><ele>116.83333333333333</ele><time>2026-05-02T07:09:00.726Z</time></trkpt><trkpt lat="57.9082568" lon="12.2822182"><ele>116.66666666666666</ele><time>2026-05-02T07:09:01.71Z</time></trkpt><trkpt lat="57.9083059" lon="12.2821111"><ele>116.5</ele><time>2026-05-02T07:09:02.729Z</time></trkpt><trkpt lat="57.9083556" lon="12.2820035"><ele>116.33333333333333</ele><time>2026-05-02T07:09:03.722Z</time></trkpt><trkpt lat="57.9084021" lon="12.2818912"><ele>116.16666666666666</ele><time>2026-05-02T07:09:04.712Z</time></trkpt><trkpt lat="57.9084511" lon="12.2817706"><ele>116.0</ele><time>2026-05-02T07:09:05.728Z</time></trkpt><trkpt lat="57.9084995" lon="12.2816313"><ele>117.25</ele><time>2026-05-02T07:09:06.725Z</time></trkpt><trkpt lat="57.9085525" lon="12.2814777"><ele>118.5</ele><time>2026-05-02T07:09:07.718Z</time></trkpt><trkpt lat="57.9086119" lon="12.2813005"><ele>119.75</ele><time>2026-05-02T07:09:08.713Z</time></trkpt><trkpt lat="57.9086745" lon="12.2811092"><ele>121.0</ele><time>2026-05-02T07:09:09.727Z</time></trkpt><trkpt lat="57.9087405" lon="12.2809139"><ele>121.0</ele><time>2026-05-02T07:09:10.726Z</time></trkpt><trkpt lat="57.9088039" lon="12.2807318"><ele>121.0</ele><time>2026-05-02T07:09:11.726Z</time></trkpt><trkpt lat="57.9088686" lon="12.2805585"><ele>121.0</ele><time>2026-05-02T07:09:12.721Z</time></trkpt><trkpt lat="57.9089345" lon="12.2803892"><ele>121.0</ele><time>2026-05-02T07:09:13.731Z</time></trkpt><trkpt lat="57.9089995" lon="12.2802353"><ele>121.0</ele><time>2026-05-02T07:09:14.726Z</time></trkpt><trkpt lat="57.9090705" lon="12.2800981"><ele>120.8</ele><time>2026-05-02T07:09:15.716Z</time></trkpt><trkpt lat="57.9091463" lon="12.2799782"><ele>120.6</ele><time>2026-05-02T07:09:16.721Z</time></trkpt><trkpt lat="57.9092249" lon="12.279872"><ele>120.4</ele><time>2026-05-02T07:09:17.705Z</time></trkpt><trkpt lat="57.9093084" lon="12.2797828"><ele>120.2</ele><time>2026-05-02T07:09:18.726Z</time></trkpt><trkpt lat="57.9093948" lon="12.2797164"><ele>120.0</ele><time>2026-05-02T07:09:19.732Z</time></trkpt><trkpt lat="57.9094839" lon="12.2796629"><ele>119.66666666666667</ele><time>2026-05-02T07:09:20.731Z</time></trkpt><trkpt lat="57.9095718" lon="12.2796103"><ele>119.33333333333334</ele><time>2026-05-02T07:09:21.72Z</time></trkpt><trkpt lat="57.9096591" lon="12.2795582"><ele>119.0</ele><time>2026-05-02T07:09:22.726Z</time></trkpt><trkpt lat="57.9097437" lon="12.2795082"><ele>118.66666666666667</ele><time>2026-05-02T07:09:23.717Z</time></trkpt><trkpt lat="57.9098296" lon="12.2794662"><ele>118.33333333333334</ele><time>2026-05-02T07:09:24.72Z</time></trkpt><trkpt lat="57.9099151" lon="12.2794367"><ele>118.0</ele><time>2026-05-02T07:09:25.714Z</time></trkpt><trkpt lat="57.9100026" lon="12.2794263"><ele>118.4</ele><time>2026-05-02T07:09:26.72Z</time></trkpt><trkpt lat="57.910092" lon="12.2794312"><ele>118.80000000000001</ele><time>2026-05-02T07:09:27.726Z</time></trkpt><trkpt lat="57.9101876" lon="12.279445"><ele>119.2</ele><time>2026-05-02T07:09:28.719Z</time></trkpt><trkpt lat="57.9102912" lon="12.2794635"><ele>119.6</ele><time>2026-05-02T07:09:29.722Z</time></trkpt><trkpt lat="57.9103975" lon="12.2794803"><ele>120.0</ele><time>2026-05-02T07:09:30.72Z</time></trkpt><trkpt lat="57.9104955" lon="12.2794874"><ele>120.0</ele><time>2026-05-02T07:09:31.713Z</time></trkpt><trkpt lat="57.9105867" lon="12.2794645"><ele>120.0</ele><time>2026-05-02T07:09:32.722Z</time></trkpt><trkpt lat="57.9106716" lon="12.2794404"><ele>120.0</ele><time>2026-05-02T07:09:33.723Z</time></trkpt><trkpt lat="57.9107468" lon="12.2793887"><ele>120.0</ele><time>2026-05-02T07:09:34.723Z</time></trkpt><trkpt lat="57.9108125" lon="12.2793319"><ele>120.0</ele><time>2026-05-02T07:09:35.718Z</time></trkpt><trkpt lat="57.9108757" lon="12.2792761"><ele>120.0</ele><time>2026-05-02T07:09:36.716Z</time></trkpt><trkpt lat="57.9109382" lon="12.2792146"><ele>120.28571428571429</ele><time>2026-05-02T07:09:37.724Z</time></trkpt><trkpt lat="57.911001" lon="12.2791497"><ele>120.57142857142856</ele><time>2026-05-02T07:09:38.721Z</time></trkpt><trkpt lat="57.9110688" lon="12.2790788"><ele>120.85714285714285</ele><time>2026-05-02T07:09:39.719Z</time></trkpt><trkpt lat="57.9111349" lon="12.2790047"><ele>121.14285714285714</ele><time>2026-05-02T07:09:40.711Z</time></trkpt><trkpt lat="57.9111934" lon="12.2789199"><ele>121.42857142857142</ele><time>2026-05-02T07:09:41.724Z</time></trkpt><trkpt lat="57.9112534" lon="12.2788339"><ele>121.7142857142857</ele><time>2026-05-02T07:09:42.714Z</time></trkpt><trkpt lat="57.9113025" lon="12.278743"><ele>121.99999999999999</ele><time>2026-05-02T07:09:43.717Z</time></trkpt><trkpt lat="57.9113522" lon="12.2786538"><ele>121.99999999999999</ele><time>2026-05-02T07:09:44.729Z</time></trkpt><trkpt lat="57.9114006" lon="12.2785534"><ele>122.0</ele><time>2026-05-02T07:09:45.724Z</time></trkpt><trkpt lat="57.9114477" lon="12.278453"><ele>122.0</ele><time>2026-05-02T07:09:46.725Z</time></trkpt><trkpt lat="57.9114914" lon="12.2783341"><ele>122.0</ele><time>2026-05-02T07:09:47.725Z</time></trkpt><trkpt lat="57.9115334" lon="12.2782023"><ele>121.99999999999999</ele><time>2026-05-02T07:09:48.724Z</time></trkpt><trkpt lat="57.9115752" lon="12.2780692"><ele>122.0</ele><time>2026-05-02T07:09:49.72Z</time></trkpt><trkpt lat="57.9116155" lon="12.2779388"><ele>122.0</ele><time>2026-05-02T07:09:50.73Z</time></trkpt><trkpt lat="57.9116548" lon="12.2778135"><ele>121.99999999999999</ele><time>2026-05-02T07:09:51.727Z</time></trkpt><trkpt lat="57.9117135" lon="12.2776857"><ele>121.99999999999999</ele><time>2026-05-02T07:09:52.727Z</time></trkpt><trkpt lat="57.9117833" lon="12.2775552"><ele>122.0</ele><time>2026-05-02T07:09:53.721Z</time></trkpt><trkpt lat="57.9118591" lon="12.2774202"><ele>122.0</ele><time>2026-05-02T07:09:54.712Z</time></trkpt><trkpt lat="57.9119354" lon="12.277309"><ele>123.19999999999999</ele><time>2026-05-02T07:09:55.724Z</time></trkpt><trkpt lat="57.9120093" lon="12.2772034"><ele>124.39999999999999</ele><time>2026-05-02T07:09:56.724Z</time></trkpt><trkpt lat="57.912078" lon="12.2770968"><ele>125.60000000000001</ele><time>2026-05-02T07:09:57.709Z</time></trkpt><trkpt lat="57.9121432" lon="12.2769766"><ele>126.80000000000001</ele><time>2026-05-02T07:09:58.712Z</time></trkpt><trkpt lat="57.9122038" lon="12.2768389"><ele>128.0</ele><time>2026-05-02T07:09:59.72Z</time></trkpt><trkpt lat="57.9122678" lon="12.2766924"><ele>128.0</ele><time>2026-05-02T07:10:00.724Z</time></trkpt><trkpt lat="57.9123289" lon="12.2765397"><ele>128.0</ele><time>2026-05-02T07:10:01.723Z</time></trkpt><trkpt lat="57.9123776" lon="12.2763748"><ele>128.0</ele><time>2026-05-02T07:10:02.722Z</time></trkpt><trkpt lat="57.9124261" lon="12.2762116"><ele>128.0</ele><time>2026-05-02T07:10:03.715Z</time></trkpt><trkpt lat="57.9124726" lon="12.276065"><ele>128.0</ele><time>2026-05-02T07:10:04.733Z</time></trkpt><trkpt lat="57.9125257" lon="12.2759308"><ele>128.4</ele><time>2026-05-02T07:10:05.721Z</time></trkpt><trkpt lat="57.9125747" lon="12.2758016"><ele>128.8</ele><time>2026-05-02T07:10:06.71Z</time></trkpt><trkpt lat="57.9126326" lon="12.2756847"><ele>129.2</ele><time>2026-05-02T07:10:07.728Z</time></trkpt><trkpt lat="57.9127086" lon="12.275573"><ele>129.6</ele><time>2026-05-02T07:10:08.722Z</time></trkpt><trkpt lat="57.9127845" lon="12.2754673"><ele>130.0</ele><time>2026-05-02T07:10:09.723Z</time></trkpt><trkpt lat="57.9128731" lon="12.2753829"><ele>130.0</ele><time>2026-05-02T07:10:10.725Z</time></trkpt><trkpt lat="57.9129629" lon="12.2753088"><ele>130.0</ele><time>2026-05-02T07:10:11.721Z</time></trkpt><trkpt lat="57.9130521" lon="12.2752391"><ele>130.0</ele><time>2026-05-02T07:10:12.726Z</time></trkpt><trkpt lat="57.9131365" lon="12.2751738"><ele>130.0</ele><time>2026-05-02T07:10:13.71Z</time></trkpt><trkpt lat="57.9132207" lon="12.275109"><ele>130.0</ele><time>2026-05-02T07:10:14.729Z</time></trkpt><trkpt lat="57.9133" lon="12.2750488"><ele>130.0</ele><time>2026-05-02T07:10:15.725Z</time></trkpt><trkpt lat="57.9133714" lon="12.2749949"><ele>130.0</ele><time>2026-05-02T07:10:16.71Z</time></trkpt><trkpt lat="57.9134394" lon="12.2749488"><ele>130.0</ele><time>2026-05-02T07:10:17.723Z</time></trkpt><trkpt lat="57.9135126" lon="12.2749093"><ele>130.0</ele><time>2026-05-02T07:10:18.722Z</time></trkpt><trkpt lat="57.9135966" lon="12.2748714"><ele>130.0</ele><time>2026-05-02T07:10:19.717Z</time></trkpt><trkpt lat="57.9136767" lon="12.2748348"><ele>130.0</ele><time>2026-05-02T07:10:20.713Z</time></trkpt><trkpt lat="57.913768" lon="12.2747673"><ele>129.0</ele><time>2026-05-02T07:10:21.721Z</time></trkpt><trkpt lat="57.9138573" lon="12.2747022"><ele>128.0</ele><time>2026-05-02T07:10:22.711Z</time></trkpt><trkpt lat="57.913944" lon="12.2746331"><ele>127.0</ele><time>2026-05-02T07:10:23.722Z</time></trkpt><trkpt lat="57.9140318" lon="12.2745403"><ele>126.0</ele><time>2026-05-02T07:10:24.722Z</time></trkpt><trkpt lat="57.9141157" lon="12.2744502"><ele>125.0</ele><time>2026-05-02T07:10:25.724Z</time></trkpt><trkpt lat="57.9142023" lon="12.2743653"><ele>125.6</ele><time>2026-05-02T07:10:26.724Z</time></trkpt><trkpt lat="57.9142881" lon="12.2742824"><ele>126.2</ele><time>2026-05-02T07:10:27.715Z</time></trkpt><trkpt lat="57.9143772" lon="12.2742154"><ele>126.80000000000001</ele><time>2026-05-02T07:10:28.718Z</time></trkpt><trkpt lat="57.9144658" lon="12.2741427"><ele>127.4</ele><time>2026-05-02T07:10:29.72Z</time></trkpt><trkpt lat="57.9145483" lon="12.2740732"><ele>128.0</ele><time>2026-05-02T07:10:30.734Z</time></trkpt><trkpt lat="57.9146309" lon="12.2740102"><ele>128.0</ele><time>2026-05-02T07:10:31.707Z</time></trkpt><trkpt lat="57.9147132" lon="12.2739425"><ele>128.0</ele><time>2026-05-02T07:10:32.724Z</time></trkpt><trkpt lat="57.914799" lon="12.2738695"><ele>128.0</ele><time>2026-05-02T07:10:33.718Z</time></trkpt><trkpt lat="57.9148819" lon="12.2738069"><ele>128.0</ele><time>2026-05-02T07:10:34.714Z</time></trkpt><trkpt lat="57.9149669" lon="12.2737428"><ele>128.0</ele><time>2026-05-02T07:10:35.732Z</time></trkpt><trkpt lat="57.915049" lon="12.2736775"><ele>126.49999999999999</ele><time>2026-05-02T07:10:36.728Z</time></trkpt><trkpt lat="57.9151213" lon="12.2736061"><ele>125.0</ele><time>2026-05-02T07:10:37.728Z</time></trkpt><trkpt lat="57.9151853" lon="12.2735205"><ele>123.5</ele><time>2026-05-02T07:10:38.729Z</time></trkpt><trkpt lat="57.9152417" lon="12.2734199"><ele>122.0</ele><time>2026-05-02T07:10:39.726Z</time></trkpt><trkpt lat="57.9152904" lon="12.2733076"><ele>120.49999999999999</ele><time>2026-05-02T07:10:40.725Z</time></trkpt><trkpt lat="57.9153402" lon="12.2731904"><ele>119.0</ele><time>2026-05-02T07:10:41.731Z</time></trkpt><trkpt lat="57.9153943" lon="12.2730833"><ele>117.99999999999999</ele><time>2026-05-02T07:10:42.721Z</time></trkpt><trkpt lat="57.9154535" lon="12.2729891"><ele>117.0</ele><time>2026-05-02T07:10:43.724Z</time></trkpt><trkpt lat="57.9155151" lon="12.2729038"><ele>116.0</ele><time>2026-05-02T07:10:44.713Z</time></trkpt><trkpt lat="57.9155729" lon="12.2728119"><ele>115.0</ele><time>2026-05-02T07:10:45.707Z</time></trkpt><trkpt lat="57.9156269" lon="12.2727072"><ele>113.99999999999999</ele><time>2026-05-02T07:10:46.714Z</time></trkpt><trkpt lat="57.915677" lon="12.2725894"><ele>113.0</ele><time>2026-05-02T07:10:47.711Z</time></trkpt><trkpt lat="57.9157265" lon="12.2724628"><ele>112.99999999999999</ele><time>2026-05-02T07:10:48.716Z</time></trkpt><trkpt lat="57.9157726" lon="12.2723292"><ele>113.0</ele><time>2026-05-02T07:10:49.723Z</time></trkpt><trkpt lat="57.9158179" lon="12.2721989"><ele>113.0</ele><time>2026-05-02T07:10:50.714Z</time></trkpt><trkpt lat="57.9158628" lon="12.2720681"><ele>113.0</ele><time>2026-05-02T07:10:51.732Z</time></trkpt><trkpt lat="57.9159038" lon="12.2719295"><ele>112.99999999999999</ele><time>2026-05-02T07:10:52.72Z</time></trkpt><trkpt lat="57.9159412" lon="12.2717862"><ele>113.0</ele><time>2026-05-02T07:10:53.709Z</time></trkpt><trkpt lat="57.9159742" lon="12.271644"><ele>112.33333333333333</ele><time>2026-05-02T07:10:54.712Z</time></trkpt><trkpt lat="57.9160059" lon="12.2715009"><ele>111.66666666666666</ele><time>2026-05-02T07:10:55.713Z</time></trkpt><trkpt lat="57.9160359" lon="12.2713557"><ele>111.0</ele><time>2026-05-02T07:10:56.714Z</time></trkpt><trkpt lat="57.916065" lon="12.27121"><ele>110.33333333333334</ele><time>2026-05-02T07:10:57.718Z</time></trkpt><trkpt lat="57.9160863" lon="12.271055"><ele>109.66666666666667</ele><time>2026-05-02T07:10:58.724Z</time></trkpt><trkpt lat="57.9161104" lon="12.2709084"><ele>109.0</ele><time>2026-05-02T07:10:59.728Z</time></trkpt><trkpt lat="57.9161247" lon="12.270752"><ele>109.16666666666667</ele><time>2026-05-02T07:11:00.709Z</time></trkpt><trkpt lat="57.9161341" lon="12.2705906"><ele>109.33333333333334</ele><time>2026-05-02T07:11:01.73Z</time></trkpt><trkpt lat="57.9161362" lon="12.2704261"><ele>109.5</ele><time>2026-05-02T07:11:02.73Z</time></trkpt><trkpt lat="57.9161367" lon="12.2702691"><ele>109.66666666666666</ele><time>2026-05-02T07:11:03.715Z</time></trkpt><trkpt lat="57.9161255" lon="12.2701149"><ele>109.83333333333333</ele><time>2026-05-02T07:11:04.733Z</time></trkpt><trkpt lat="57.9161094" lon="12.2699591"><ele>110.0</ele><time>2026-05-02T07:11:05.727Z</time></trkpt><trkpt lat="57.9160892" lon="12.2698024"><ele>109.83333333333333</ele><time>2026-05-02T07:11:06.734Z</time></trkpt><trkpt lat="57.9160665" lon="12.2696451"><ele>109.66666666666666</ele><time>2026-05-02T07:11:07.734Z</time></trkpt><trkpt lat="57.9160372" lon="12.2694942"><ele>109.5</ele><time>2026-05-02T07:11:08.71Z</time></trkpt><trkpt lat="57.9160023" lon="12.2693471"><ele>109.33333333333334</ele><time>2026-05-02T07:11:09.723Z</time></trkpt><trkpt lat="57.9159631" lon="12.269206"><ele>109.16666666666667</ele><time>2026-05-02T07:11:10.723Z</time></trkpt><trkpt lat="57.9159242" lon="12.2690661"><ele>109.0</ele><time>2026-05-02T07:11:11.722Z</time></trkpt><trkpt lat="57.9158799" lon="12.2689342"><ele>108.50000000000001</ele><time>2026-05-02T07:11:12.733Z</time></trkpt><trkpt lat="57.9158327" lon="12.2688025"><ele>108.0</ele><time>2026-05-02T07:11:13.723Z</time></trkpt><trkpt lat="57.9157823" lon="12.2686807"><ele>107.5</ele><time>2026-05-02T07:11:14.717Z</time></trkpt><trkpt lat="57.915728" lon="12.2685659"><ele>107.0</ele><time>2026-05-02T07:11:15.724Z</time></trkpt><trkpt lat="57.9156709" lon="12.2684534"><ele>106.50000000000001</ele><time>2026-05-02T07:11:16.734Z</time></trkpt><trkpt lat="57.9156129" lon="12.268349"><ele>106.0</ele><time>2026-05-02T07:11:17.711Z</time></trkpt><trkpt lat="57.9155536" lon="12.2682454"><ele>106.00000000000001</ele><time>2026-05-02T07:11:18.72Z</time></trkpt><trkpt lat="57.9154945" lon="12.2681435"><ele>106.0</ele><time>2026-05-02T07:11:19.736Z</time></trkpt><trkpt lat="57.9154341" lon="12.2680425"><ele>106.0</ele><time>2026-05-02T07:11:20.727Z</time></trkpt><trkpt lat="57.9153749" lon="12.2679375"><ele>106.0</ele><time>2026-05-02T07:11:21.728Z</time></trkpt><trkpt lat="57.9153152" lon="12.2678253"><ele>106.00000000000001</ele><time>2026-05-02T07:11:22.714Z</time></trkpt><trkpt lat="57.915254" lon="12.267717"><ele>106.0</ele><time>2026-05-02T07:11:23.727Z</time></trkpt><trkpt lat="57.9151935" lon="12.2676087"><ele>105.83333333333334</ele><time>2026-05-02T07:11:24.714Z</time></trkpt><trkpt lat="57.9151354" lon="12.2674929"><ele>105.66666666666667</ele><time>2026-05-02T07:11:25.727Z</time></trkpt><trkpt lat="57.9150778" lon="12.2673782"><ele>105.5</ele><time>2026-05-02T07:11:26.711Z</time></trkpt><trkpt lat="57.9150175" lon="12.2672638"><ele>105.33333333333334</ele><time>2026-05-02T07:11:27.711Z</time></trkpt><trkpt lat="57.9149591" lon="12.267153"><ele>105.16666666666667</ele><time>2026-05-02T07:11:28.708Z</time></trkpt><trkpt lat="57.9148977" lon="12.2670449"><ele>105.0</ele><time>2026-05-02T07:11:29.714Z</time></trkpt><trkpt lat="57.914839" lon="12.2669295"><ele>105.5</ele><time>2026-05-02T07:11:30.725Z</time></trkpt><trkpt lat="57.9147824" lon="12.2668097"><ele>106.0</ele><time>2026-05-02T07:11:31.72Z</time></trkpt><trkpt lat="57.9147248" lon="12.2666924"><ele>106.5</ele><time>2026-05-02T07:11:32.717Z</time></trkpt><trkpt lat="57.9146695" lon="12.2665733"><ele>107.0</ele><time>2026-05-02T07:11:33.715Z</time></trkpt><trkpt lat="57.9146168" lon="12.2664576"><ele>107.5</ele><time>2026-05-02T07:11:34.733Z</time></trkpt><trkpt lat="57.9145635" lon="12.266332"><ele>108.0</ele><time>2026-05-02T07:11:35.723Z</time></trkpt><trkpt lat="57.9145141" lon="12.2661994"><ele>108.0</ele><time>2026-05-02T07:11:36.72Z</time></trkpt><trkpt lat="57.914465" lon="12.2660562"><ele>108.0</ele><time>2026-05-02T07:11:37.724Z</time></trkpt><trkpt lat="57.9144233" lon="12.2659109"><ele>108.0</ele><time>2026-05-02T07:11:38.725Z</time></trkpt><trkpt lat="57.91439" lon="12.2657608"><ele>108.0</ele><time>2026-05-02T07:11:39.73Z</time></trkpt><trkpt lat="57.9143615" lon="12.2656035"><ele>108.0</ele><time>2026-05-02T07:11:40.726Z</time></trkpt><trkpt lat="57.9143367" lon="12.2654433"><ele>108.0</ele><time>2026-05-02T07:11:41.733Z</time></trkpt><trkpt lat="57.9143154" lon="12.2652825"><ele>107.60000000000001</ele><time>2026-05-02T07:11:42.723Z</time></trkpt><trkpt lat="57.9142995" lon="12.2651236"><ele>107.20000000000002</ele><time>2026-05-02T07:11:43.714Z</time></trkpt><trkpt lat="57.9142882" lon="12.2649614"><ele>106.8</ele><time>2026-05-02T07:11:44.733Z</time></trkpt><trkpt lat="57.9142797" lon="12.2647875"><ele>106.4</ele><time>2026-05-02T07:11:45.725Z</time></trkpt><trkpt lat="57.9142738" lon="12.2646061"><ele>106.0</ele><time>2026-05-02T07:11:46.715Z</time></trkpt><trkpt lat="57.9142729" lon="12.2644213"><ele>106.0</ele><time>2026-05-02T07:11:47.722Z</time></trkpt><trkpt lat="57.9142778" lon="12.2642306"><ele>106.0</ele><time>2026-05-02T07:11:48.728Z</time></trkpt><trkpt lat="57.9142833" lon="12.2640349"><ele>106.0</ele><time>2026-05-02T07:11:49.712Z</time></trkpt><trkpt lat="57.9142924" lon="12.2638343"><ele>106.0</ele><time>2026-05-02T07:11:50.722Z</time></trkpt><trkpt lat="57.9143062" lon="12.2636301"><ele>106.0</ele><time>2026-05-02T07:11:51.722Z</time></trkpt><trkpt lat="57.9143213" lon="12.2634266"><ele>106.19999999999999</ele><time>2026-05-02T07:11:52.727Z</time></trkpt><trkpt lat="57.9143392" lon="12.2632295"><ele>106.39999999999999</ele><time>2026-05-02T07:11:53.722Z</time></trkpt><trkpt lat="57.9143604" lon="12.2630328"><ele>106.6</ele><time>2026-05-02T07:11:54.725Z</time></trkpt><trkpt lat="57.9143835" lon="12.2628364"><ele>106.8</ele><time>2026-05-02T07:11:55.729Z</time></trkpt><trkpt lat="57.9144062" lon="12.2626399"><ele>107.0</ele><time>2026-05-02T07:11:56.719Z</time></trkpt><trkpt lat="57.9144312" lon="12.2624433"><ele>107.6</ele><time>2026-05-02T07:11:57.727Z</time></trkpt><trkpt lat="57.9144583" lon="12.2622477"><ele>108.19999999999999</ele><time>2026-05-02T07:11:58.73Z</time></trkpt><trkpt lat="57.9144899" lon="12.2620597"><ele>108.8</ele><time>2026-05-02T07:11:59.715Z</time></trkpt><trkpt lat="57.9145263" lon="12.2618845"><ele>109.4</ele><time>2026-05-02T07:12:00.727Z</time></trkpt><trkpt lat="57.9145678" lon="12.2617201"><ele>110.0</ele><time>2026-05-02T07:12:01.714Z</time></trkpt><trkpt lat="57.9146087" lon="12.2615632"><ele>110.4</ele><time>2026-05-02T07:12:02.71Z</time></trkpt><trkpt lat="57.9146535" lon="12.2614192"><ele>110.8</ele><time>2026-05-02T07:12:03.722Z</time></trkpt><trkpt lat="57.9147041" lon="12.2612783"><ele>111.19999999999999</ele><time>2026-05-02T07:12:04.724Z</time></trkpt><trkpt lat="57.9147682" lon="12.2611288"><ele>111.6</ele><time>2026-05-02T07:12:05.73Z</time></trkpt><trkpt lat="57.9148378" lon="12.2609865"><ele>112.0</ele><time>2026-05-02T07:12:06.703Z</time></trkpt><trkpt lat="57.9149154" lon="12.2608469"><ele>112.0</ele><time>2026-05-02T07:12:07.711Z</time></trkpt><trkpt lat="57.9149976" lon="12.2607221"><ele>111.99999999999999</ele><time>2026-05-02T07:12:08.72Z</time></trkpt><trkpt lat="57.9150819" lon="12.2606146"><ele>111.99999999999999</ele><time>2026-05-02T07:12:09.732Z</time></trkpt><trkpt lat="57.9151686" lon="12.2605285"><ele>112.0</ele><time>2026-05-02T07:12:10.723Z</time></trkpt><trkpt lat="57.9152625" lon="12.2604598"><ele>112.0</ele><time>2026-05-02T07:12:11.732Z</time></trkpt><trkpt lat="57.9153572" lon="12.2603908"><ele>111.39999999999999</ele><time>2026-05-02T07:12:12.728Z</time></trkpt><trkpt lat="57.9154629" lon="12.2603498"><ele>110.79999999999998</ele><time>2026-05-02T07:12:13.729Z</time></trkpt><trkpt lat="57.9155728" lon="12.2603171"><ele>110.2</ele><time>2026-05-02T07:12:14.709Z</time></trkpt><trkpt lat="57.9156788" lon="12.2602869"><ele>109.6</ele><time>2026-05-02T07:12:15.727Z</time></trkpt><trkpt lat="57.9157803" lon="12.2602582"><ele>109.0</ele><time>2026-05-02T07:12:16.728Z</time></trkpt><trkpt lat="57.9158855" lon="12.2602228"><ele>108.6</ele><time>2026-05-02T07:12:17.717Z</time></trkpt><trkpt lat="57.9159911" lon="12.2601896"><ele>108.2</ele><time>2026-05-02T07:12:18.731Z</time></trkpt><trkpt lat="57.9160961" lon="12.2601419"><ele>107.79999999999998</ele><time>2026-05-02T07:12:19.71Z</time></trkpt><trkpt lat="57.9161997" lon="12.2600949"><ele>107.39999999999999</ele><time>2026-05-02T07:12:20.711Z</time></trkpt><trkpt lat="57.9162984" lon="12.2600251"><ele>107.0</ele><time>2026-05-02T07:12:21.725Z</time></trkpt><trkpt lat="57.9163941" lon="12.2599458"><ele>107.0</ele><time>2026-05-02T07:12:22.729Z</time></trkpt><trkpt lat="57.9164793" lon="12.2598552"><ele>106.99999999999999</ele><time>2026-05-02T07:12:23.735Z</time></trkpt><trkpt lat="57.9165553" lon="12.2597538"><ele>106.99999999999999</ele><time>2026-05-02T07:12:24.73Z</time></trkpt><trkpt lat="57.9166309" lon="12.2596347"><ele>107.0</ele><time>2026-05-02T07:12:25.724Z</time></trkpt><trkpt lat="57.9167041" lon="12.2595058"><ele>107.0</ele><time>2026-05-02T07:12:26.722Z</time></trkpt><trkpt lat="57.9167768" lon="12.2593697"><ele>107.0</ele><time>2026-05-02T07:12:27.729Z</time></trkpt><trkpt lat="57.9168455" lon="12.2592242"><ele>106.99999999999999</ele><time>2026-05-02T07:12:28.729Z</time></trkpt><trkpt lat="57.9169118" lon="12.2590717"><ele>106.99999999999999</ele><time>2026-05-02T07:12:29.713Z</time></trkpt><trkpt lat="57.9169796" lon="12.2589221"><ele>107.0</ele><time>2026-05-02T07:12:30.715Z</time></trkpt><trkpt lat="57.9170502" lon="12.2587794"><ele>107.0</ele><time>2026-05-02T07:12:31.721Z</time></trkpt><trkpt lat="57.9171246" lon="12.2586486"><ele>107.39999999999999</ele><time>2026-05-02T07:12:32.712Z</time></trkpt><trkpt lat="57.917204" lon="12.2585279"><ele>107.79999999999998</ele><time>2026-05-02T07:12:33.732Z</time></trkpt><trkpt lat="57.9172867" lon="12.2584209"><ele>108.2</ele><time>2026-05-02T07:12:34.726Z</time></trkpt><trkpt lat="57.9173668" lon="12.2583189"><ele>108.6</ele><time>2026-05-02T07:12:35.726Z</time></trkpt><trkpt lat="57.9174666" lon="12.2582504"><ele>109.0</ele><time>2026-05-02T07:12:36.717Z</time></trkpt><trkpt lat="57.9175676" lon="12.2581998"><ele>109.2</ele><time>2026-05-02T07:12:37.713Z</time></trkpt><trkpt lat="57.9176668" lon="12.2581511"><ele>109.4</ele><time>2026-05-02T07:12:38.724Z</time></trkpt><trkpt lat="57.9177728" lon="12.2581226"><ele>109.6</ele><time>2026-05-02T07:12:39.728Z</time></trkpt><trkpt lat="57.91788" lon="12.2581133"><ele>109.8</ele><time>2026-05-02T07:12:40.719Z</time></trkpt><trkpt lat="57.917989" lon="12.2581162"><ele>110.0</ele><time>2026-05-02T07:12:41.714Z</time></trkpt><trkpt lat="57.9180985" lon="12.258122"><ele>110.0</ele><time>2026-05-02T07:12:42.72Z</time></trkpt><trkpt lat="57.9182039" lon="12.2581303"><ele>110.0</ele><time>2026-05-02T07:12:43.709Z</time></trkpt><trkpt lat="57.9183102" lon="12.2581355"><ele>110.0</ele><time>2026-05-02T07:12:44.714Z</time></trkpt><trkpt lat="57.9184172" lon="12.2581444"><ele>110.0</ele><time>2026-05-02T07:12:45.722Z</time></trkpt><trkpt lat="57.9185242" lon="12.2581505"><ele>110.0</ele><time>2026-05-02T07:12:46.726Z</time></trkpt><trkpt lat="57.9186278" lon="12.258154"><ele>109.4</ele><time>2026-05-02T07:12:47.71Z</time></trkpt><trkpt lat="57.9187298" lon="12.2581562"><ele>108.8</ele><time>2026-05-02T07:12:48.714Z</time></trkpt><trkpt lat="57.9188306" lon="12.2581565"><ele>108.19999999999999</ele><time>2026-05-02T07:12:49.725Z</time></trkpt><trkpt lat="57.9189329" lon="12.2581568"><ele>107.6</ele><time>2026-05-02T07:12:50.709Z</time></trkpt><trkpt lat="57.9190323" lon="12.258157"><ele>107.0</ele><time>2026-05-02T07:12:51.727Z</time></trkpt><trkpt lat="57.9191333" lon="12.2581596"><ele>107.0</ele><time>2026-05-02T07:12:52.719Z</time></trkpt><trkpt lat="57.919232" lon="12.2581549"><ele>106.99999999999999</ele><time>2026-05-02T07:12:53.729Z</time></trkpt><trkpt lat="57.9193308" lon="12.2581531"><ele>106.99999999999999</ele><time>2026-05-02T07:12:54.727Z</time></trkpt><trkpt lat="57.9194239" lon="12.2581508"><ele>107.0</ele><time>2026-05-02T07:12:55.728Z</time></trkpt><trkpt lat="57.9195188" lon="12.2581529"><ele>107.0</ele><time>2026-05-02T07:12:56.722Z</time></trkpt><trkpt lat="57.9196121" lon="12.2581564"><ele>107.0</ele><time>2026-05-02T07:12:57.717Z</time></trkpt><trkpt lat="57.9197117" lon="12.2581525"><ele>106.99999999999999</ele><time>2026-05-02T07:12:58.726Z</time></trkpt><trkpt lat="57.919807" lon="12.2581499"><ele>106.99999999999999</ele><time>2026-05-02T07:12:59.707Z</time></trkpt><trkpt lat="57.9199006" lon="12.258146"><ele>107.0</ele><time>2026-05-02T07:13:00.725Z</time></trkpt><trkpt lat="57.9199902" lon="12.2581399"><ele>107.0</ele><time>2026-05-02T07:13:01.722Z</time></trkpt><trkpt lat="57.9200785" lon="12.2581328"><ele>107.6</ele><time>2026-05-02T07:13:02.726Z</time></trkpt><trkpt lat="57.9201675" lon="12.2581143"><ele>108.19999999999999</ele><time>2026-05-02T07:13:03.713Z</time></trkpt><trkpt lat="57.9202621" lon="12.258097"><ele>108.8</ele><time>2026-05-02T07:13:04.73Z</time></trkpt><trkpt lat="57.9203581" lon="12.2580854"><ele>109.4</ele><time>2026-05-02T07:13:05.723Z</time></trkpt><trkpt lat="57.9204501" lon="12.2580778"><ele>110.0</ele><time>2026-05-02T07:13:06.718Z</time></trkpt><trkpt lat="57.920543" lon="12.2580625"><ele>110.0</ele><time>2026-05-02T07:13:07.726Z</time></trkpt><trkpt lat="57.9206431" lon="12.2580443"><ele>110.0</ele><time>2026-05-02T07:13:08.721Z</time></trkpt><trkpt lat="57.9207367" lon="12.258027"><ele>110.0</ele><time>2026-05-02T07:13:09.721Z</time></trkpt><trkpt lat="57.920825" lon="12.2580062"><ele>110.0</ele><time>2026-05-02T07:13:10.721Z</time></trkpt><trkpt lat="57.9209224" lon="12.2579759"><ele>110.0</ele><time>2026-05-02T07:13:11.715Z</time></trkpt><trkpt lat="57.9210216" lon="12.2579457"><ele>109.8</ele><time>2026-05-02T07:13:12.722Z</time></trkpt><trkpt lat="57.9211225" lon="12.2579104"><ele>109.6</ele><time>2026-05-02T07:13:13.713Z</time></trkpt><trkpt lat="57.9212216" lon="12.2578757"><ele>109.4</ele><time>2026-05-02T07:13:14.723Z</time></trkpt><trkpt lat="57.9213245" lon="12.2578328"><ele>109.2</ele><time>2026-05-02T07:13:15.722Z</time></trkpt><trkpt lat="57.9214271" lon="12.2577915"><ele>109.0</ele><time>2026-05-02T07:13:16.725Z</time></trkpt><trkpt lat="57.9215262" lon="12.2577493"><ele>109.0</ele><time>2026-05-02T07:13:17.725Z</time></trkpt><trkpt lat="57.9216271" lon="12.2577174"><ele>109.0</ele><time>2026-05-02T07:13:18.72Z</time></trkpt><trkpt lat="57.9217322" lon="12.2576946"><ele>109.0</ele><time>2026-05-02T07:13:19.709Z</time></trkpt><trkpt lat="57.9218319" lon="12.2576892"><ele>109.0</ele><time>2026-05-02T07:13:20.719Z</time></trkpt><trkpt lat="57.9219329" lon="12.2576978"><ele>109.0</ele><time>2026-05-02T07:13:21.727Z</time></trkpt><trkpt lat="57.9220353" lon="12.2577231"><ele>109.2</ele><time>2026-05-02T07:13:22.719Z</time></trkpt><trkpt lat="57.9221363" lon="12.2577661"><ele>109.4</ele><time>2026-05-02T07:13:23.725Z</time></trkpt><trkpt lat="57.9222386" lon="12.2578268"><ele>109.6</ele><time>2026-05-02T07:13:24.725Z</time></trkpt><trkpt lat="57.922338" lon="12.2579003"><ele>109.8</ele><time>2026-05-02T07:13:25.724Z</time></trkpt><trkpt lat="57.9224373" lon="12.257983"><ele>110.0</ele><time>2026-05-02T07:13:26.726Z</time></trkpt><trkpt lat="57.9225353" lon="12.2580738"><ele>109.2</ele><time>2026-05-02T07:13:27.722Z</time></trkpt><trkpt lat="57.9226301" lon="12.2581622"><ele>108.4</ele><time>2026-05-02T07:13:28.72Z</time></trkpt><trkpt lat="57.9227186" lon="12.2582468"><ele>107.6</ele><time>2026-05-02T07:13:29.727Z</time></trkpt><trkpt lat="57.9228067" lon="12.2583245"><ele>106.8</ele><time>2026-05-02T07:13:30.728Z</time></trkpt><trkpt lat="57.9228959" lon="12.2583931"><ele>106.0</ele><time>2026-05-02T07:13:31.713Z</time></trkpt><trkpt lat="57.9229898" lon="12.2584505"><ele>106.0</ele><time>2026-05-02T07:13:32.718Z</time></trkpt><trkpt lat="57.9230836" lon="12.2584929"><ele>106.0</ele><time>2026-05-02T07:13:33.725Z</time></trkpt><trkpt lat="57.9231786" lon="12.2585209"><ele>106.0</ele><time>2026-05-02T07:13:34.721Z</time></trkpt><trkpt lat="57.9232727" lon="12.2585335"><ele>106.0</ele><time>2026-05-02T07:13:35.724Z</time></trkpt><trkpt lat="57.9233654" lon="12.2585512"><ele>106.0</ele><time>2026-05-02T07:13:36.714Z</time></trkpt><trkpt lat="57.9234553" lon="12.2585567"><ele>105.6</ele><time>2026-05-02T07:13:37.726Z</time></trkpt><trkpt lat="57.9235432" lon="12.2585347"><ele>105.19999999999999</ele><time>2026-05-02T07:13:38.721Z</time></trkpt><trkpt lat="57.9236363" lon="12.2585017"><ele>104.80000000000001</ele><time>2026-05-02T07:13:39.714Z</time></trkpt><trkpt lat="57.92373" lon="12.2584631"><ele>104.4</ele><time>2026-05-02T07:13:40.707Z</time></trkpt><trkpt lat="57.9238221" lon="12.2584242"><ele>104.0</ele><time>2026-05-02T07:13:41.717Z</time></trkpt><trkpt lat="57.9239135" lon="12.2583885"><ele>104.0</ele><time>2026-05-02T07:13:42.724Z</time></trkpt><trkpt lat="57.9240078" lon="12.2583527"><ele>104.0</ele><time>2026-05-02T07:13:43.731Z</time></trkpt><trkpt lat="57.9241051" lon="12.2583164"><ele>104.0</ele><time>2026-05-02T07:13:44.724Z</time></trkpt><trkpt lat="57.9242051" lon="12.2582798"><ele>104.0</ele><time>2026-05-02T07:13:45.724Z</time></trkpt><trkpt lat="57.9243072" lon="12.2582458"><ele>104.0</ele><time>2026-05-02T07:13:46.721Z</time></trkpt><trkpt lat="57.9244101" lon="12.2582238"><ele>104.2</ele><time>2026-05-02T07:13:47.727Z</time></trkpt><trkpt lat="57.9245136" lon="12.2582162"><ele>104.4</ele><time>2026-05-02T07:13:48.721Z</time></trkpt><trkpt lat="57.9246155" lon="12.2582086"><ele>104.6</ele><time>2026-05-02T07:13:49.718Z</time></trkpt><trkpt lat="57.9247199" lon="12.2582244"><ele>104.8</ele><time>2026-05-02T07:13:50.73Z</time></trkpt><trkpt lat="57.924825" lon="12.2582506"><ele>105.0</ele><time>2026-05-02T07:13:51.737Z</time></trkpt><trkpt lat="57.924927" lon="12.2582914"><ele>105.0</ele><time>2026-05-02T07:13:52.729Z</time></trkpt><trkpt lat="57.9250275" lon="12.2583451"><ele>105.0</ele><time>2026-05-02T07:13:53.736Z</time></trkpt><trkpt lat="57.9251272" lon="12.2584061"><ele>105.0</ele><time>2026-05-02T07:13:54.716Z</time></trkpt><trkpt lat="57.9252256" lon="12.2584706"><ele>105.0</ele><time>2026-05-02T07:13:55.722Z</time></trkpt><trkpt lat="57.9253236" lon="12.2585385"><ele>105.0</ele><time>2026-05-02T07:13:56.728Z</time></trkpt><trkpt lat="57.9254188" lon="12.2586044"><ele>105.4</ele><time>2026-05-02T07:13:57.726Z</time></trkpt><trkpt lat="57.9255126" lon="12.2586694"><ele>105.8</ele><time>2026-05-02T07:13:58.722Z</time></trkpt><trkpt lat="57.9256048" lon="12.2587346"><ele>106.19999999999999</ele><time>2026-05-02T07:13:59.724Z</time></trkpt><trkpt lat="57.9256961" lon="12.2588019"><ele>106.6</ele><time>2026-05-02T07:14:00.729Z</time></trkpt><trkpt lat="57.9257864" lon="12.2588707"><ele>107.0</ele><time>2026-05-02T07:14:01.721Z</time></trkpt><trkpt lat="57.9258783" lon="12.2589406"><ele>106.8</ele><time>2026-05-02T07:14:02.719Z</time></trkpt><trkpt lat="57.9259716" lon="12.2590116"><ele>106.6</ele><time>2026-05-02T07:14:03.709Z</time></trkpt><trkpt lat="57.9260679" lon="12.259085"><ele>106.39999999999999</ele><time>2026-05-02T07:14:04.71Z</time></trkpt><trkpt lat="57.9261631" lon="12.2591592"><ele>106.19999999999999</ele><time>2026-05-02T07:14:05.726Z</time></trkpt><trkpt lat="57.9262594" lon="12.2592316"><ele>106.0</ele><time>2026-05-02T07:14:06.712Z</time></trkpt><trkpt lat="57.9263493" lon="12.2593127"><ele>106.0</ele><time>2026-05-02T07:14:07.728Z</time></trkpt><trkpt lat="57.9264411" lon="12.2593971"><ele>106.0</ele><time>2026-05-02T07:14:08.715Z</time></trkpt><trkpt lat="57.9265299" lon="12.2594828"><ele>106.0</ele><time>2026-05-02T07:14:09.721Z</time></trkpt><trkpt lat="57.9266188" lon="12.2595697"><ele>106.0</ele><time>2026-05-02T07:14:10.72Z</time></trkpt><trkpt lat="57.9267068" lon="12.2596571"><ele>106.0</ele><time>2026-05-02T07:14:11.721Z</time></trkpt><trkpt lat="57.9267915" lon="12.259747"><ele>105.8</ele><time>2026-05-02T07:14:12.725Z</time></trkpt><trkpt lat="57.9268745" lon="12.2598364"><ele>105.6</ele><time>2026-05-02T07:14:13.722Z</time></trkpt><trkpt lat="57.9269585" lon="12.2599241"><ele>105.4</ele><time>2026-05-02T07:14:14.725Z</time></trkpt><trkpt lat="57.9270439" lon="12.2600094"><ele>105.2</ele><time>2026-05-02T07:14:15.723Z</time></trkpt><trkpt lat="57.9271285" lon="12.2600952"><ele>105.0</ele><time>2026-05-02T07:14:16.72Z</time></trkpt><trkpt lat="57.9272137" lon="12.2601789"><ele>105.0</ele><time>2026-05-02T07:14:17.705Z</time></trkpt><trkpt lat="57.9272972" lon="12.2602628"><ele>105.0</ele><time>2026-05-02T07:14:18.728Z</time></trkpt><trkpt lat="57.9273798" lon="12.2603496"><ele>105.0</ele><time>2026-05-02T07:14:19.729Z</time></trkpt><trkpt lat="57.9274586" lon="12.2604439"><ele>105.0</ele><time>2026-05-02T07:14:20.722Z</time></trkpt><trkpt lat="57.9275342" lon="12.260549"><ele>105.0</ele><time>2026-05-02T07:14:21.726Z</time></trkpt><trkpt lat="57.9276031" lon="12.2606605"><ele>105.33333333333333</ele><time>2026-05-02T07:14:22.727Z</time></trkpt><trkpt lat="57.9276623" lon="12.2607754"><ele>105.66666666666666</ele><time>2026-05-02T07:14:23.723Z</time></trkpt><trkpt lat="57.9277097" lon="12.260887"><ele>106.0</ele><time>2026-05-02T07:14:24.725Z</time></trkpt><trkpt lat="57.9277529" lon="12.260997"><ele>106.33333333333333</ele><time>2026-05-02T07:14:25.73Z</time></trkpt><trkpt lat="57.9277885" lon="12.2611048"><ele>106.66666666666666</ele><time>2026-05-02T07:14:26.729Z</time></trkpt><trkpt lat="57.9278416" lon="12.2612979"><ele>107.0</ele><time>2026-05-02T07:14:28.731Z</time></trkpt><trkpt lat="57.9278926" lon="12.261489"><ele>107.33333333333333</ele><time>2026-05-02T07:14:30.723Z</time></trkpt><trkpt lat="57.9279315" lon="12.2616062"><ele>107.66666666666666</ele><time>2026-05-02T07:14:32.733Z</time></trkpt><trkpt lat="57.9279998" lon="12.2616643"><ele>108.0</ele><time>2026-05-02T07:14:34.718Z</time></trkpt><trkpt lat="57.9280893" lon="12.2616211"><ele>108.33333333333334</ele><time>2026-05-02T07:14:36.731Z</time></trkpt><trkpt lat="57.92821" lon="12.2615405"><ele>108.66666666666667</ele><time>2026-05-02T07:14:38.722Z</time></trkpt><trkpt lat="57.9282847" lon="12.2614991"><ele>109.0</ele><time>2026-05-02T07:14:39.718Z</time></trkpt><trkpt lat="57.9283664" lon="12.2614496"><ele>109.0</ele><time>2026-05-02T07:14:40.713Z</time></trkpt><trkpt lat="57.9284537" lon="12.2613908"><ele>109.0</ele><time>2026-05-02T07:14:41.724Z</time></trkpt><trkpt lat="57.9285516" lon="12.2613234"><ele>109.0</ele><time>2026-05-02T07:14:42.731Z</time></trkpt><trkpt lat="57.9286578" lon="12.2612391"><ele>109.0</ele><time>2026-05-02T07:14:43.732Z</time></trkpt><trkpt lat="57.9287591" lon="12.2611525"><ele>109.0</ele><time>2026-05-02T07:14:44.722Z</time></trkpt><trkpt lat="57.9288436" lon="12.2610797"><ele>109.00000000000001</ele><time>2026-05-02T07:14:45.715Z</time></trkpt><trkpt lat="57.9289138" lon="12.261022"><ele>109.0</ele><time>2026-05-02T07:14:46.723Z</time></trkpt><trkpt lat="57.9289733" lon="12.2609701"><ele>109.0</ele><time>2026-05-02T07:14:47.729Z</time></trkpt><trkpt lat="57.9290721" lon="12.2609107"><ele>109.0</ele><time>2026-05-02T07:14:49.727Z</time></trkpt><trkpt lat="57.9291525" lon="12.2609932"><ele>109.00000000000001</ele><time>2026-05-02T07:14:51.719Z</time></trkpt><trkpt lat="57.929217" lon="12.2611475"><ele>109.0</ele><time>2026-05-02T07:14:53.727Z</time></trkpt><trkpt lat="57.9292901" lon="12.2613302"><ele>109.14285714285714</ele><time>2026-05-02T07:14:55.728Z</time></trkpt><trkpt lat="57.9293299" lon="12.2614297"><ele>109.28571428571429</ele><time>2026-05-02T07:14:56.711Z</time></trkpt><trkpt lat="57.9293757" lon="12.2615311"><ele>109.42857142857142</ele><time>2026-05-02T07:14:57.715Z</time></trkpt><trkpt lat="57.9294174" lon="12.2616289"><ele>109.57142857142857</ele><time>2026-05-02T07:14:58.73Z</time></trkpt><trkpt lat="57.9294568" lon="12.2617252"><ele>109.71428571428571</ele><time>2026-05-02T07:14:59.721Z</time></trkpt><trkpt lat="57.9294968" lon="12.261824"><ele>109.85714285714285</ele><time>2026-05-02T07:15:00.71Z</time></trkpt><trkpt lat="57.9295381" lon="12.2619217"><ele>110.0</ele><time>2026-05-02T07:15:01.736Z</time></trkpt><trkpt lat="57.9296155" lon="12.262092"><ele>110.0</ele><time>2026-05-02T07:15:03.726Z</time></trkpt><trkpt lat="57.9296885" lon="12.262242"><ele>110.0</ele><time>2026-05-02T07:15:05.719Z</time></trkpt><trkpt lat="57.9297734" lon="12.2623856"><ele>110.0</ele><time>2026-05-02T07:15:07.733Z</time></trkpt><trkpt lat="57.9298654" lon="12.2625106"><ele>110.0</ele><time>2026-05-02T07:15:09.722Z</time></trkpt><trkpt lat="57.9299527" lon="12.2626385"><ele>110.0</ele><time>2026-05-02T07:15:11.724Z</time></trkpt><trkpt lat="57.9300454" lon="12.2627751"><ele>109.0</ele><time>2026-05-02T07:15:13.732Z</time></trkpt><trkpt lat="57.9301426" lon="12.2628963"><ele>108.0</ele><time>2026-05-02T07:15:15.715Z</time></trkpt><trkpt lat="57.9302248" lon="12.2629709"><ele>107.0</ele><time>2026-05-02T07:15:17.725Z</time></trkpt><trkpt lat="57.9302967" lon="12.2629925"><ele>106.0</ele><time>2026-05-02T07:15:19.725Z</time></trkpt><trkpt lat="57.9303839" lon="12.2629005"><ele>105.0</ele><time>2026-05-02T07:15:21.717Z</time></trkpt><trkpt lat="57.9304782" lon="12.2627951"><ele>105.0</ele><time>2026-05-02T07:15:23.728Z</time></trkpt><trkpt lat="57.9305707" lon="12.2627649"><ele>105.0</ele><time>2026-05-02T07:15:25.726Z</time></trkpt><trkpt lat="57.9306597" lon="12.2628012"><ele>105.0</ele><time>2026-05-02T07:15:27.707Z</time></trkpt><trkpt lat="57.930749" lon="12.2628846"><ele>105.0</ele><time>2026-05-02T07:15:29.747Z</time></trkpt><trkpt lat="57.9308372" lon="12.2629832"><ele>105.0</ele><time>2026-05-02T07:15:31.732Z</time></trkpt><trkpt lat="57.9309207" lon="12.2630976"><ele>104.4</ele><time>2026-05-02T07:15:33.725Z</time></trkpt><trkpt lat="57.9310024" lon="12.2632112"><ele>103.8</ele><time>2026-05-02T07:15:35.726Z</time></trkpt><trkpt lat="57.9310938" lon="12.2633605"><ele>103.19999999999999</ele><time>2026-05-02T07:15:37.725Z</time></trkpt><trkpt lat="57.9311484" lon="12.2634543"><ele>102.6</ele><time>2026-05-02T07:15:38.726Z</time></trkpt><trkpt lat="57.9312034" lon="12.2635524"><ele>102.0</ele><time>2026-05-02T07:15:39.728Z</time></trkpt><trkpt lat="57.9312579" lon="12.263656"><ele>102.0</ele><time>2026-05-02T07:15:40.721Z</time></trkpt><trkpt lat="57.9313102" lon="12.2637659"><ele>102.0</ele><time>2026-05-02T07:15:41.726Z</time></trkpt><trkpt lat="57.9313613" lon="12.2638791"><ele>102.0</ele><time>2026-05-02T07:15:42.729Z</time></trkpt><trkpt lat="57.9314106" lon="12.2639952"><ele>102.0</ele><time>2026-05-02T07:15:43.73Z</time></trkpt><trkpt lat="57.9314568" lon="12.2641126"><ele>102.0</ele><time>2026-05-02T07:15:44.727Z</time></trkpt><trkpt lat="57.931501" lon="12.2642328"><ele>102.0</ele><time>2026-05-02T07:15:45.711Z</time></trkpt><trkpt lat="57.9315443" lon="12.2643548"><ele>102.0</ele><time>2026-05-02T07:15:46.728Z</time></trkpt><trkpt lat="57.9315875" lon="12.2644762"><ele>102.0</ele><time>2026-05-02T07:15:47.717Z</time></trkpt><trkpt lat="57.9316301" lon="12.2645965"><ele>102.0</ele><time>2026-05-02T07:15:48.729Z</time></trkpt><trkpt lat="57.9316763" lon="12.264712"><ele>102.0</ele><time>2026-05-02T07:15:49.729Z</time></trkpt><trkpt lat="57.9317261" lon="12.2648251"><ele>102.0</ele><time>2026-05-02T07:15:50.725Z</time></trkpt><trkpt lat="57.9317766" lon="12.2649393"><ele>102.0</ele><time>2026-05-02T07:15:51.708Z</time></trkpt><trkpt lat="57.9318242" lon="12.2650579"><ele>102.16666666666667</ele><time>2026-05-02T07:15:52.72Z</time></trkpt><trkpt lat="57.9318672" lon="12.2651827"><ele>102.33333333333334</ele><time>2026-05-02T07:15:53.721Z</time></trkpt><trkpt lat="57.9319064" lon="12.2653095"><ele>102.5</ele><time>2026-05-02T07:15:54.721Z</time></trkpt><trkpt lat="57.9319437" lon="12.2654398"><ele>102.66666666666667</ele><time>2026-05-02T07:15:55.71Z</time></trkpt><trkpt lat="57.9319805" lon="12.2655708"><ele>102.83333333333334</ele><time>2026-05-02T07:15:56.727Z</time></trkpt><trkpt lat="57.9320188" lon="12.265702"><ele>103.0</ele><time>2026-05-02T07:15:57.717Z</time></trkpt><trkpt lat="57.932059" lon="12.2658301"><ele>102.66666666666667</ele><time>2026-05-02T07:15:58.706Z</time></trkpt><trkpt lat="57.9321035" lon="12.2659536"><ele>102.33333333333334</ele><time>2026-05-02T07:15:59.729Z</time></trkpt><trkpt lat="57.932155" lon="12.2660718"><ele>102.0</ele><time>2026-05-02T07:16:00.726Z</time></trkpt><trkpt lat="57.9322168" lon="12.2661838"><ele>101.66666666666666</ele><time>2026-05-02T07:16:01.713Z</time></trkpt><trkpt lat="57.9322867" lon="12.2662919"><ele>101.33333333333333</ele><time>2026-05-02T07:16:02.726Z</time></trkpt><trkpt lat="57.9323568" lon="12.2664004"><ele>101.0</ele><time>2026-05-02T07:16:03.715Z</time></trkpt><trkpt lat="57.9324283" lon="12.2665012"><ele>100.99999999999999</ele><time>2026-05-02T07:16:04.73Z</time></trkpt><trkpt lat="57.9325017" lon="12.2665965"><ele>101.0</ele><time>2026-05-02T07:16:05.73Z</time></trkpt><trkpt lat="57.9325754" lon="12.2666892"><ele>101.0</ele><time>2026-05-02T07:16:06.714Z</time></trkpt><trkpt lat="57.9326466" lon="12.2667833"><ele>101.0</ele><time>2026-05-02T07:16:07.731Z</time></trkpt><trkpt lat="57.9327183" lon="12.2668833"><ele>100.99999999999999</ele><time>2026-05-02T07:16:08.724Z</time></trkpt><trkpt lat="57.9327938" lon="12.2669825"><ele>101.0</ele><time>2026-05-02T07:16:09.723Z</time></trkpt><trkpt lat="57.9328705" lon="12.2670833"><ele>100.6</ele><time>2026-05-02T07:16:10.708Z</time></trkpt><trkpt lat="57.9329481" lon="12.267186"><ele>100.19999999999999</ele><time>2026-05-02T07:16:11.727Z</time></trkpt><trkpt lat="57.933028" lon="12.26729"><ele>99.80000000000001</ele><time>2026-05-02T07:16:12.706Z</time></trkpt><trkpt lat="57.9331068" lon="12.2673943"><ele>99.4</ele><time>2026-05-02T07:16:13.72Z</time></trkpt><trkpt lat="57.9331841" lon="12.2674992"><ele>99.0</ele><time>2026-05-02T07:16:14.716Z</time></trkpt><trkpt lat="57.9332612" lon="12.2676048"><ele>99.0</ele><time>2026-05-02T07:16:15.716Z</time></trkpt><trkpt lat="57.9333376" lon="12.2677084"><ele>99.0</ele><time>2026-05-02T07:16:16.73Z</time></trkpt><trkpt lat="57.9334143" lon="12.2678108"><ele>99.0</ele><time>2026-05-02T07:16:17.723Z</time></trkpt><trkpt lat="57.93349" lon="12.2679098"><ele>99.0</ele><time>2026-05-02T07:16:18.728Z</time></trkpt><trkpt lat="57.9335642" lon="12.2680074"><ele>99.0</ele><time>2026-05-02T07:16:19.728Z</time></trkpt><trkpt lat="57.9336378" lon="12.2681063"><ele>99.0</ele><time>2026-05-02T07:16:20.71Z</time></trkpt><trkpt lat="57.9337107" lon="12.2682018"><ele>99.0</ele><time>2026-05-02T07:16:21.711Z</time></trkpt><trkpt lat="57.9337865" lon="12.2682975"><ele>99.0</ele><time>2026-05-02T07:16:22.723Z</time></trkpt><trkpt lat="57.93386" lon="12.2683934"><ele>99.0</ele><time>2026-05-02T07:16:23.719Z</time></trkpt><trkpt lat="57.9339325" lon="12.2684906"><ele>99.0</ele><time>2026-05-02T07:16:24.714Z</time></trkpt><trkpt lat="57.9340064" lon="12.2685855"><ele>99.0</ele><time>2026-05-02T07:16:25.708Z</time></trkpt><trkpt lat="57.9340791" lon="12.2686847"><ele>99.0</ele><time>2026-05-02T07:16:26.727Z</time></trkpt><trkpt lat="57.9341509" lon="12.2687809"><ele>99.0</ele><time>2026-05-02T07:16:27.718Z</time></trkpt><trkpt lat="57.9342232" lon="12.2688786"><ele>99.0</ele><time>2026-05-02T07:16:28.711Z</time></trkpt><trkpt lat="57.934295" lon="12.2689755"><ele>99.0</ele><time>2026-05-02T07:16:29.715Z</time></trkpt><trkpt lat="57.9343698" lon="12.269071"><ele>99.0</ele><time>2026-05-02T07:16:30.721Z</time></trkpt><trkpt lat="57.934441" lon="12.2691601"><ele>99.0</ele><time>2026-05-02T07:16:31.721Z</time></trkpt><trkpt lat="57.9345152" lon="12.2692582"><ele>98.80000000000001</ele><time>2026-05-02T07:16:32.717Z</time></trkpt><trkpt lat="57.9345904" lon="12.2693592"><ele>98.60000000000001</ele><time>2026-05-02T07:16:33.72Z</time></trkpt><trkpt lat="57.9346667" lon="12.2694611"><ele>98.4</ele><time>2026-05-02T07:16:34.725Z</time></trkpt><trkpt lat="57.9347463" lon="12.2695628"><ele>98.2</ele><time>2026-05-02T07:16:35.726Z</time></trkpt><trkpt lat="57.9348272" lon="12.2696686"><ele>98.0</ele><time>2026-05-02T07:16:36.721Z</time></trkpt><trkpt lat="57.9349073" lon="12.2697775"><ele>97.80000000000001</ele><time>2026-05-02T07:16:37.713Z</time></trkpt><trkpt lat="57.9349874" lon="12.2698823"><ele>97.6</ele><time>2026-05-02T07:16:38.727Z</time></trkpt><trkpt lat="57.9350657" lon="12.2699886"><ele>97.4</ele><time>2026-05-02T07:16:39.715Z</time></trkpt><trkpt lat="57.9351443" lon="12.2700977"><ele>97.19999999999999</ele><time>2026-05-02T07:16:40.725Z</time></trkpt><trkpt lat="57.9352241" lon="12.2702051"><ele>97.0</ele><time>2026-05-02T07:16:41.709Z</time></trkpt><trkpt lat="57.9353024" lon="12.2703096"><ele>97.0</ele><time>2026-05-02T07:16:42.722Z</time></trkpt><trkpt lat="57.9353764" lon="12.270408"><ele>97.0</ele><time>2026-05-02T07:16:43.732Z</time></trkpt><trkpt lat="57.9354496" lon="12.2705059"><ele>97.0</ele><time>2026-05-02T07:16:44.726Z</time></trkpt><trkpt lat="57.9355245" lon="12.2706048"><ele>97.0</ele><time>2026-05-02T07:16:45.726Z</time></trkpt><trkpt lat="57.9355997" lon="12.2707055"><ele>97.0</ele><time>2026-05-02T07:16:46.727Z</time></trkpt><trkpt lat="57.9356742" lon="12.2708073"><ele>97.0</ele><time>2026-05-02T07:16:47.727Z</time></trkpt><trkpt lat="57.9357481" lon="12.2709059"><ele>97.0</ele><time>2026-05-02T07:16:48.729Z</time></trkpt><trkpt lat="57.9358216" lon="12.2710039"><ele>97.0</ele><time>2026-05-02T07:16:49.72Z</time></trkpt><trkpt lat="57.9358956" lon="12.2711063"><ele>97.0</ele><time>2026-05-02T07:16:50.727Z</time></trkpt><trkpt lat="57.935971" lon="12.2712085"><ele>97.0</ele><time>2026-05-02T07:16:51.719Z</time></trkpt><trkpt lat="57.9360474" lon="12.2713089"><ele>97.19999999999999</ele><time>2026-05-02T07:16:52.715Z</time></trkpt><trkpt lat="57.9361266" lon="12.2714083"><ele>97.4</ele><time>2026-05-02T07:16:53.72Z</time></trkpt><trkpt lat="57.9362057" lon="12.2715113"><ele>97.6</ele><time>2026-05-02T07:16:54.725Z</time></trkpt><trkpt lat="57.9362842" lon="12.2716144"><ele>97.80000000000001</ele><time>2026-05-02T07:16:55.722Z</time></trkpt><trkpt lat="57.9363611" lon="12.2717148"><ele>98.0</ele><time>2026-05-02T07:16:56.721Z</time></trkpt><trkpt lat="57.9364386" lon="12.2718187"><ele>98.2</ele><time>2026-05-02T07:16:57.723Z</time></trkpt><trkpt lat="57.9365157" lon="12.2719255"><ele>98.4</ele><time>2026-05-02T07:16:58.714Z</time></trkpt><trkpt lat="57.9365931" lon="12.2720316"><ele>98.60000000000001</ele><time>2026-05-02T07:16:59.724Z</time></trkpt><trkpt lat="57.9366713" lon="12.2721315"><ele>98.80000000000001</ele><time>2026-05-02T07:17:00.727Z</time></trkpt><trkpt lat="57.9367479" lon="12.272228"><ele>99.0</ele><time>2026-05-02T07:17:01.723Z</time></trkpt><trkpt lat="57.9368219" lon="12.272323"><ele>99.0</ele><time>2026-05-02T07:17:02.726Z</time></trkpt><trkpt lat="57.9368964" lon="12.2724193"><ele>99.0</ele><time>2026-05-02T07:17:03.72Z</time></trkpt><trkpt lat="57.9369698" lon="12.2725142"><ele>99.0</ele><time>2026-05-02T07:17:04.709Z</time></trkpt><trkpt lat="57.9370433" lon="12.2726076"><ele>99.0</ele><time>2026-05-02T07:17:05.72Z</time></trkpt><trkpt lat="57.9371197" lon="12.2727085"><ele>99.0</ele><time>2026-05-02T07:17:06.728Z</time></trkpt><trkpt lat="57.9372022" lon="12.2728198"><ele>99.0</ele><time>2026-05-02T07:17:07.726Z</time></trkpt><trkpt lat="57.9372847" lon="12.2729279"><ele>99.0</ele><time>2026-05-02T07:17:08.721Z</time></trkpt><trkpt lat="57.9373714" lon="12.2730385"><ele>99.0</ele><time>2026-05-02T07:17:09.724Z</time></trkpt><trkpt lat="57.9374643" lon="12.27315"><ele>99.0</ele><time>2026-05-02T07:17:10.725Z</time></trkpt><trkpt lat="57.9375575" lon="12.2732704"><ele>99.0</ele><time>2026-05-02T07:17:11.724Z</time></trkpt><trkpt lat="57.9376487" lon="12.2733797"><ele>99.6</ele><time>2026-05-02T07:17:12.707Z</time></trkpt><trkpt lat="57.9377383" lon="12.2734864"><ele>100.2</ele><time>2026-05-02T07:17:13.725Z</time></trkpt><trkpt lat="57.9378313" lon="12.2736"><ele>100.8</ele><time>2026-05-02T07:17:14.715Z</time></trkpt><trkpt lat="57.9379236" lon="12.2737087"><ele>101.39999999999999</ele><time>2026-05-02T07:17:15.727Z</time></trkpt><trkpt lat="57.938016" lon="12.273813"><ele>102.0</ele><time>2026-05-02T07:17:16.707Z</time></trkpt><trkpt lat="57.9381049" lon="12.2739132"><ele>101.66666666666667</ele><time>2026-05-02T07:17:17.727Z</time></trkpt><trkpt lat="57.9381885" lon="12.2740017"><ele>101.33333333333334</ele><time>2026-05-02T07:17:18.713Z</time></trkpt><trkpt lat="57.9382712" lon="12.2740809"><ele>101.0</ele><time>2026-05-02T07:17:19.732Z</time></trkpt><trkpt lat="57.93835" lon="12.2741578"><ele>100.66666666666667</ele><time>2026-05-02T07:17:20.724Z</time></trkpt><trkpt lat="57.9384284" lon="12.2742292"><ele>100.33333333333334</ele><time>2026-05-02T07:17:21.722Z</time></trkpt><trkpt lat="57.9385045" lon="12.2742995"><ele>100.0</ele><time>2026-05-02T07:17:22.706Z</time></trkpt><trkpt lat="57.9385789" lon="12.2743659"><ele>99.50000000000001</ele><time>2026-05-02T07:17:23.712Z</time></trkpt><trkpt lat="57.9386525" lon="12.2744335"><ele>99.0</ele><time>2026-05-02T07:17:24.722Z</time></trkpt><trkpt lat="57.9387247" lon="12.2745008"><ele>98.5</ele><time>2026-05-02T07:17:25.718Z</time></trkpt><trkpt lat="57.9387956" lon="12.2745669"><ele>98.0</ele><time>2026-05-02T07:17:26.725Z</time></trkpt><trkpt lat="57.9388663" lon="12.2746321"><ele>97.50000000000001</ele><time>2026-05-02T07:17:27.719Z</time></trkpt><trkpt lat="57.9389486" lon="12.2747043"><ele>97.0</ele><time>2026-05-02T07:17:28.721Z</time></trkpt><trkpt lat="57.9390364" lon="12.2747791"><ele>96.8</ele><time>2026-05-02T07:17:29.711Z</time></trkpt><trkpt lat="57.9391228" lon="12.2748526"><ele>96.6</ele><time>2026-05-02T07:17:30.724Z</time></trkpt><trkpt lat="57.939213" lon="12.2749268"><ele>96.39999999999999</ele><time>2026-05-02T07:17:31.719Z</time></trkpt><trkpt lat="57.939303" lon="12.2750042"><ele>96.19999999999999</ele><time>2026-05-02T07:17:32.725Z</time></trkpt><trkpt lat="57.9393857" lon="12.2750814"><ele>96.0</ele><time>2026-05-02T07:17:33.724Z</time></trkpt><trkpt lat="57.9394651" lon="12.2751579"><ele>95.83333333333333</ele><time>2026-05-02T07:17:34.722Z</time></trkpt><trkpt lat="57.9395427" lon="12.2752308"><ele>95.66666666666667</ele><time>2026-05-02T07:17:35.718Z</time></trkpt><trkpt lat="57.9396197" lon="12.2753036"><ele>95.5</ele><time>2026-05-02T07:17:36.724Z</time></trkpt><trkpt lat="57.9396947" lon="12.2753782"><ele>95.33333333333334</ele><time>2026-05-02T07:17:37.722Z</time></trkpt><trkpt lat="57.9397696" lon="12.2754554"><ele>95.16666666666667</ele><time>2026-05-02T07:17:38.722Z</time></trkpt><trkpt lat="57.9398372" lon="12.2755217"><ele>95.0</ele><time>2026-05-02T07:17:39.718Z</time></trkpt><trkpt lat="57.9399" lon="12.2755834"><ele>95.0</ele><time>2026-05-02T07:17:40.715Z</time></trkpt><trkpt lat="57.9399589" lon="12.2756433"><ele>95.0</ele><time>2026-05-02T07:17:41.72Z</time></trkpt><trkpt lat="57.9400602" lon="12.2757497"><ele>95.0</ele><time>2026-05-02T07:17:43.731Z</time></trkpt><trkpt lat="57.9401494" lon="12.2758053"><ele>95.0</ele><time>2026-05-02T07:17:45.727Z</time></trkpt><trkpt lat="57.9402406" lon="12.2757423"><ele>95.0</ele><time>2026-05-02T07:17:47.711Z</time></trkpt><trkpt lat="57.9403167" lon="12.2755804"><ele>95.0</ele><time>2026-05-02T07:17:49.725Z</time></trkpt><trkpt lat="57.9403467" lon="12.2754587"><ele>95.0</ele><time>2026-05-02T07:17:50.721Z</time></trkpt><trkpt lat="57.9403767" lon="12.2753285"><ele>95.0</ele><time>2026-05-02T07:17:51.725Z</time></trkpt><trkpt lat="57.9404124" lon="12.2751968"><ele>95.0</ele><time>2026-05-02T07:17:52.732Z</time></trkpt><trkpt lat="57.9404488" lon="12.2750568"><ele>95.0</ele><time>2026-05-02T07:17:53.724Z</time></trkpt><trkpt lat="57.940484" lon="12.2749122"><ele>95.0</ele><time>2026-05-02T07:17:54.715Z</time></trkpt><trkpt lat="57.9405239" lon="12.2747594"><ele>95.0</ele><time>2026-05-02T07:17:55.719Z</time></trkpt><trkpt lat="57.9405668" lon="12.2746038"><ele>95.0</ele><time>2026-05-02T07:17:56.718Z</time></trkpt><trkpt lat="57.94061" lon="12.2744495"><ele>95.0</ele><time>2026-05-02T07:17:57.734Z</time></trkpt><trkpt lat="57.9406636" lon="12.2743025"><ele>95.0</ele><time>2026-05-02T07:17:58.708Z</time></trkpt><trkpt lat="57.940722" lon="12.2741722"><ele>95.0</ele><time>2026-05-02T07:17:59.727Z</time></trkpt><trkpt lat="57.9407805" lon="12.2740455"><ele>95.16666666666667</ele><time>2026-05-02T07:18:00.72Z</time></trkpt><trkpt lat="57.9408465" lon="12.2739361"><ele>95.33333333333334</ele><time>2026-05-02T07:18:01.714Z</time></trkpt><trkpt lat="57.9409109" lon="12.2738332"><ele>95.5</ele><time>2026-05-02T07:18:02.725Z</time></trkpt><trkpt lat="57.9409653" lon="12.2737409"><ele>95.66666666666667</ele><time>2026-05-02T07:18:03.732Z</time></trkpt><trkpt lat="57.9410171" lon="12.2736309"><ele>95.83333333333333</ele><time>2026-05-02T07:18:04.727Z</time></trkpt><trkpt lat="57.9410711" lon="12.2735238"><ele>96.0</ele><time>2026-05-02T07:18:05.721Z</time></trkpt><trkpt lat="57.9411241" lon="12.2734189"><ele>96.0</ele><time>2026-05-02T07:18:06.709Z</time></trkpt><trkpt lat="57.9411895" lon="12.2733305"><ele>96.0</ele><time>2026-05-02T07:18:07.726Z</time></trkpt><trkpt lat="57.9412598" lon="12.2732473"><ele>96.0</ele><time>2026-05-02T07:18:08.725Z</time></trkpt><trkpt lat="57.9413398" lon="12.2731745"><ele>96.0</ele><time>2026-05-02T07:18:09.729Z</time></trkpt><trkpt lat="57.9414169" lon="12.2730967"><ele>96.0</ele><time>2026-05-02T07:18:10.712Z</time></trkpt><trkpt lat="57.9415006" lon="12.2730492"><ele>96.0</ele><time>2026-05-02T07:18:11.72Z</time></trkpt><trkpt lat="57.9415888" lon="12.2730142"><ele>96.19999999999999</ele><time>2026-05-02T07:18:12.714Z</time></trkpt><trkpt lat="57.9416769" lon="12.2729818"><ele>96.39999999999999</ele><time>2026-05-02T07:18:13.719Z</time></trkpt><trkpt lat="57.9417671" lon="12.2729518"><ele>96.6</ele><time>2026-05-02T07:18:14.719Z</time></trkpt><trkpt lat="57.9418597" lon="12.2729142"><ele>96.8</ele><time>2026-05-02T07:18:15.721Z</time></trkpt><trkpt lat="57.9419471" lon="12.2728795"><ele>97.0</ele><time>2026-05-02T07:18:16.707Z</time></trkpt><trkpt lat="57.9420307" lon="12.272849"><ele>97.00000000000001</ele><time>2026-05-02T07:18:17.713Z</time></trkpt><trkpt lat="57.9421139" lon="12.2728217"><ele>97.0</ele><time>2026-05-02T07:18:18.714Z</time></trkpt><trkpt lat="57.9421998" lon="12.2727924"><ele>97.0</ele><time>2026-05-02T07:18:19.714Z</time></trkpt><trkpt lat="57.9422837" lon="12.2727641"><ele>97.0</ele><time>2026-05-02T07:18:20.725Z</time></trkpt><trkpt lat="57.9423621" lon="12.272739"><ele>97.00000000000001</ele><time>2026-05-02T07:18:21.729Z</time></trkpt><trkpt lat="57.9424393" lon="12.2727141"><ele>97.0</ele><time>2026-05-02T07:18:22.727Z</time></trkpt><trkpt lat="57.9425132" lon="12.2726857"><ele>96.71428571428571</ele><time>2026-05-02T07:18:23.714Z</time></trkpt><trkpt lat="57.942583" lon="12.2726473"><ele>96.42857142857143</ele><time>2026-05-02T07:18:24.725Z</time></trkpt><trkpt lat="57.9426497" lon="12.272596"><ele>96.14285714285714</ele><time>2026-05-02T07:18:25.699Z</time></trkpt><trkpt lat="57.9427161" lon="12.2725332"><ele>95.85714285714286</ele><time>2026-05-02T07:18:26.719Z</time></trkpt><trkpt lat="57.9427816" lon="12.2724658"><ele>95.57142857142858</ele><time>2026-05-02T07:18:27.732Z</time></trkpt><trkpt lat="57.9428484" lon="12.2723969"><ele>95.28571428571429</ele><time>2026-05-02T07:18:28.734Z</time></trkpt><trkpt lat="57.9429162" lon="12.2723259"><ele>95.0</ele><time>2026-05-02T07:18:29.729Z</time></trkpt><trkpt lat="57.9429869" lon="12.2722566"><ele>95.0</ele><time>2026-05-02T07:18:30.724Z</time></trkpt><trkpt lat="57.9430599" lon="12.2721853"><ele>95.0</ele><time>2026-05-02T07:18:31.707Z</time></trkpt><trkpt lat="57.9431319" lon="12.2721095"><ele>95.0</ele><time>2026-05-02T07:18:32.722Z</time></trkpt><trkpt lat="57.9432032" lon="12.2720324"><ele>95.0</ele><time>2026-05-02T07:18:33.716Z</time></trkpt><trkpt lat="57.9432734" lon="12.2719546"><ele>95.0</ele><time>2026-05-02T07:18:34.724Z</time></trkpt><trkpt lat="57.9433449" lon="12.2718783"><ele>95.0</ele><time>2026-05-02T07:18:35.737Z</time></trkpt><trkpt lat="57.9434174" lon="12.2718023"><ele>95.16666666666667</ele><time>2026-05-02T07:18:36.722Z</time></trkpt><trkpt lat="57.9434881" lon="12.2717263"><ele>95.33333333333334</ele><time>2026-05-02T07:18:37.723Z</time></trkpt><trkpt lat="57.943559" lon="12.2716496"><ele>95.5</ele><time>2026-05-02T07:18:38.719Z</time></trkpt><trkpt lat="57.9436314" lon="12.27157"><ele>95.66666666666667</ele><time>2026-05-02T07:18:39.734Z</time></trkpt><trkpt lat="57.9437027" lon="12.271491"><ele>95.83333333333333</ele><time>2026-05-02T07:18:40.707Z</time></trkpt><trkpt lat="57.9437785" lon="12.2714103"><ele>96.0</ele><time>2026-05-02T07:18:41.712Z</time></trkpt><trkpt lat="57.9438515" lon="12.2713316"><ele>96.0</ele><time>2026-05-02T07:18:42.726Z</time></trkpt><trkpt lat="57.9439218" lon="12.2712566"><ele>96.0</ele><time>2026-05-02T07:18:43.725Z</time></trkpt><trkpt lat="57.9439874" lon="12.2711785"><ele>96.0</ele><time>2026-05-02T07:18:44.728Z</time></trkpt><trkpt lat="57.944052" lon="12.2711003"><ele>96.0</ele><time>2026-05-02T07:18:45.723Z</time></trkpt><trkpt lat="57.944114" lon="12.2710278"><ele>96.0</ele><time>2026-05-02T07:18:46.708Z</time></trkpt><trkpt lat="57.9441712" lon="12.2709605"><ele>96.0</ele><time>2026-05-02T07:18:47.718Z</time></trkpt><trkpt lat="57.9442589" lon="12.2708571"><ele>95.66666666666667</ele><time>2026-05-02T07:18:49.725Z</time></trkpt><trkpt lat="57.944314" lon="12.2707939"><ele>95.33333333333333</ele><time>2026-05-02T07:18:51.726Z</time></trkpt><trkpt lat="57.9443874" lon="12.270712"><ele>95.0</ele><time>2026-05-02T07:18:53.743Z</time></trkpt><trkpt lat="57.9444862" lon="12.2706079"><ele>94.66666666666666</ele><time>2026-05-02T07:18:55.72Z</time></trkpt><trkpt lat="57.9445461" lon="12.2705507"><ele>94.33333333333333</ele><time>2026-05-02T07:18:56.725Z</time></trkpt><trkpt lat="57.9446101" lon="12.2704957"><ele>94.0</ele><time>2026-05-02T07:18:57.722Z</time></trkpt><trkpt lat="57.9446746" lon="12.2704441"><ele>94.0</ele><time>2026-05-02T07:18:58.71Z</time></trkpt><trkpt lat="57.9447397" lon="12.2703986"><ele>94.0</ele><time>2026-05-02T07:18:59.723Z</time></trkpt><trkpt lat="57.9448055" lon="12.2703599"><ele>94.0</ele><time>2026-05-02T07:19:00.721Z</time></trkpt><trkpt lat="57.9448722" lon="12.2703273"><ele>94.0</ele><time>2026-05-02T07:19:01.728Z</time></trkpt><trkpt lat="57.9449368" lon="12.2702937"><ele>94.0</ele><time>2026-05-02T07:19:02.719Z</time></trkpt><trkpt lat="57.945002" lon="12.2702558"><ele>94.0</ele><time>2026-05-02T07:19:03.724Z</time></trkpt><trkpt lat="57.9450674" lon="12.2702195"><ele>94.0</ele><time>2026-05-02T07:19:04.722Z</time></trkpt><trkpt lat="57.945132" lon="12.2701823"><ele>94.57142857142857</ele><time>2026-05-02T07:19:05.716Z</time></trkpt><trkpt lat="57.9451947" lon="12.2701425"><ele>95.14285714285714</ele><time>2026-05-02T07:19:06.716Z</time></trkpt><trkpt lat="57.9452573" lon="12.270098"><ele>95.71428571428572</ele><time>2026-05-02T07:19:07.726Z</time></trkpt><trkpt lat="57.945322" lon="12.2700526"><ele>96.28571428571428</ele><time>2026-05-02T07:19:08.716Z</time></trkpt><trkpt lat="57.9453919" lon="12.2700116"><ele>96.85714285714286</ele><time>2026-05-02T07:19:09.727Z</time></trkpt><trkpt lat="57.9454605" lon="12.2699712"><ele>97.42857142857143</ele><time>2026-05-02T07:19:10.717Z</time></trkpt><trkpt lat="57.9455268" lon="12.2699361"><ele>98.0</ele><time>2026-05-02T07:19:11.726Z</time></trkpt><trkpt lat="57.9455933" lon="12.2699076"><ele>98.0</ele><time>2026-05-02T07:19:12.722Z</time></trkpt><trkpt lat="57.9456584" lon="12.2698835"><ele>98.0</ele><time>2026-05-02T07:19:13.722Z</time></trkpt><trkpt lat="57.9457223" lon="12.2698672"><ele>98.0</ele><time>2026-05-02T07:19:14.712Z</time></trkpt><trkpt lat="57.9457875" lon="12.2698576"><ele>98.0</ele><time>2026-05-02T07:19:15.724Z</time></trkpt><trkpt lat="57.9458586" lon="12.2698613"><ele>98.0</ele><time>2026-05-02T07:19:16.721Z</time></trkpt><trkpt lat="57.9459336" lon="12.2698815"><ele>98.0</ele><time>2026-05-02T07:19:17.723Z</time></trkpt><trkpt lat="57.9460124" lon="12.2699186"><ele>98.0</ele><time>2026-05-02T07:19:18.727Z</time></trkpt><trkpt lat="57.9460894" lon="12.2699544"><ele>97.80000000000001</ele><time>2026-05-02T07:19:19.722Z</time></trkpt><trkpt lat="57.9461796" lon="12.270014"><ele>97.6</ele><time>2026-05-02T07:19:20.73Z</time></trkpt><trkpt lat="57.9462694" lon="12.2700801"><ele>97.4</ele><time>2026-05-02T07:19:21.726Z</time></trkpt><trkpt lat="57.9463573" lon="12.2701417"><ele>97.19999999999999</ele><time>2026-05-02T07:19:22.713Z</time></trkpt><trkpt lat="57.9464429" lon="12.2702057"><ele>97.0</ele><time>2026-05-02T07:19:23.722Z</time></trkpt><trkpt lat="57.9465225" lon="12.2702934"><ele>97.0</ele><time>2026-05-02T07:19:24.726Z</time></trkpt><trkpt lat="57.9465987" lon="12.2703903"><ele>97.0</ele><time>2026-05-02T07:19:25.72Z</time></trkpt><trkpt lat="57.9466771" lon="12.2705072"><ele>97.0</ele><time>2026-05-02T07:19:26.724Z</time></trkpt><trkpt lat="57.946758" lon="12.2706248"><ele>97.0</ele><time>2026-05-02T07:19:27.71Z</time></trkpt><trkpt lat="57.9468314" lon="12.270733"><ele>97.0</ele><time>2026-05-02T07:19:28.721Z</time></trkpt><trkpt lat="57.9469122" lon="12.2708502"><ele>97.39999999999999</ele><time>2026-05-02T07:19:29.715Z</time></trkpt><trkpt lat="57.9470023" lon="12.2709806"><ele>97.8</ele><time>2026-05-02T07:19:30.722Z</time></trkpt><trkpt lat="57.9470878" lon="12.271091"><ele>98.2</ele><time>2026-05-02T07:19:31.728Z</time></trkpt><trkpt lat="57.9471675" lon="12.2711855"><ele>98.6</ele><time>2026-05-02T07:19:32.712Z</time></trkpt><trkpt lat="57.9472485" lon="12.2712782"><ele>99.0</ele><time>2026-05-02T07:19:33.715Z</time></trkpt><trkpt lat="57.9473319" lon="12.2713654"><ele>98.5</ele><time>2026-05-02T07:19:34.724Z</time></trkpt><trkpt lat="57.9474135" lon="12.271443"><ele>98.0</ele><time>2026-05-02T07:19:35.714Z</time></trkpt><trkpt lat="57.9474946" lon="12.2715153"><ele>97.5</ele><time>2026-05-02T07:19:36.702Z</time></trkpt><trkpt lat="57.9475716" lon="12.2715864"><ele>97.0</ele><time>2026-05-02T07:19:37.713Z</time></trkpt><trkpt lat="57.9476428" lon="12.2716511"><ele>96.5</ele><time>2026-05-02T07:19:38.725Z</time></trkpt><trkpt lat="57.9477128" lon="12.2717668"><ele>96.0</ele><time>2026-05-02T07:19:39.727Z</time></trkpt><trkpt lat="57.9477728" lon="12.2718995"><ele>96.0</ele><time>2026-05-02T07:19:40.703Z</time></trkpt><trkpt lat="57.947835" lon="12.2720442"><ele>96.0</ele><time>2026-05-02T07:19:41.724Z</time></trkpt><trkpt lat="57.9478948" lon="12.2721908"><ele>96.0</ele><time>2026-05-02T07:19:42.726Z</time></trkpt><trkpt lat="57.9479482" lon="12.272333"><ele>96.0</ele><time>2026-05-02T07:19:43.725Z</time></trkpt><trkpt lat="57.9480037" lon="12.272476"><ele>96.0</ele><time>2026-05-02T07:19:44.722Z</time></trkpt><trkpt lat="57.9480597" lon="12.2726167"><ele>96.5</ele><time>2026-05-02T07:19:45.726Z</time></trkpt><trkpt lat="57.9481176" lon="12.2727523"><ele>97.0</ele><time>2026-05-02T07:19:46.723Z</time></trkpt><trkpt lat="57.9481786" lon="12.2728782"><ele>97.5</ele><time>2026-05-02T07:19:47.716Z</time></trkpt><trkpt lat="57.9482373" lon="12.2729941"><ele>98.0</ele><time>2026-05-02T07:19:48.729Z</time></trkpt><trkpt lat="57.9482917" lon="12.2731003"><ele>98.5</ele><time>2026-05-02T07:19:49.722Z</time></trkpt><trkpt lat="57.9483463" lon="12.2732027"><ele>99.0</ele><time>2026-05-02T07:19:50.727Z</time></trkpt><trkpt lat="57.9483918" lon="12.2732984"><ele>100.2</ele><time>2026-05-02T07:19:51.722Z</time></trkpt><trkpt lat="57.9484747" lon="12.2734726"><ele>101.4</ele><time>2026-05-02T07:19:53.723Z</time></trkpt><trkpt lat="57.9485619" lon="12.2736475"><ele>102.6</ele><time>2026-05-02T07:19:55.721Z</time></trkpt><trkpt lat="57.9486101" lon="12.2737492"><ele>103.8</ele><time>2026-05-02T07:19:56.726Z</time></trkpt><trkpt lat="57.9486592" lon="12.2738539"><ele>105.0</ele><time>2026-05-02T07:19:57.712Z</time></trkpt><trkpt lat="57.9487109" lon="12.2739637"><ele>105.33333333333333</ele><time>2026-05-02T07:19:58.725Z</time></trkpt><trkpt lat="57.948763" lon="12.2740725"><ele>105.66666666666666</ele><time>2026-05-02T07:19:59.714Z</time></trkpt><trkpt lat="57.9488167" lon="12.2741905"><ele>106.0</ele><time>2026-05-02T07:20:00.729Z</time></trkpt><trkpt lat="57.9488717" lon="12.2743055"><ele>106.33333333333333</ele><time>2026-05-02T07:20:01.729Z</time></trkpt><trkpt lat="57.9489292" lon="12.2744203"><ele>106.66666666666666</ele><time>2026-05-02T07:20:02.725Z</time></trkpt><trkpt lat="57.9489882" lon="12.2745391"><ele>107.0</ele><time>2026-05-02T07:20:03.721Z</time></trkpt><trkpt lat="57.9490516" lon="12.2746753"><ele>107.49999999999999</ele><time>2026-05-02T07:20:04.73Z</time></trkpt><trkpt lat="57.9491077" lon="12.2748093"><ele>108.0</ele><time>2026-05-02T07:20:05.744Z</time></trkpt><trkpt lat="57.9491583" lon="12.2749346"><ele>108.5</ele><time>2026-05-02T07:20:06.729Z</time></trkpt><trkpt lat="57.9492033" lon="12.2750664"><ele>109.0</ele><time>2026-05-02T07:20:07.718Z</time></trkpt><trkpt lat="57.949246" lon="12.2752011"><ele>109.49999999999999</ele><time>2026-05-02T07:20:08.728Z</time></trkpt><trkpt lat="57.9492895" lon="12.2753329"><ele>110.0</ele><time>2026-05-02T07:20:09.715Z</time></trkpt><trkpt lat="57.94933" lon="12.2754652"><ele>110.33333333333333</ele><time>2026-05-02T07:20:10.719Z</time></trkpt><trkpt lat="57.949369" lon="12.2755948"><ele>110.66666666666666</ele><time>2026-05-02T07:20:11.721Z</time></trkpt><trkpt lat="57.9494025" lon="12.2757255"><ele>111.0</ele><time>2026-05-02T07:20:12.719Z</time></trkpt><trkpt lat="57.9494354" lon="12.2758576"><ele>111.33333333333334</ele><time>2026-05-02T07:20:13.715Z</time></trkpt><trkpt lat="57.9494684" lon="12.2759901"><ele>111.66666666666667</ele><time>2026-05-02T07:20:14.709Z</time></trkpt><trkpt lat="57.9495017" lon="12.2761214"><ele>112.0</ele><time>2026-05-02T07:20:15.71Z</time></trkpt><trkpt lat="57.949538" lon="12.2762508"><ele>112.14285714285714</ele><time>2026-05-02T07:20:16.714Z</time></trkpt><trkpt lat="57.9495758" lon="12.2763823"><ele>112.28571428571428</ele><time>2026-05-02T07:20:17.717Z</time></trkpt><trkpt lat="57.9496113" lon="12.2765102"><ele>112.42857142857143</ele><time>2026-05-02T07:20:18.722Z</time></trkpt><trkpt lat="57.9496438" lon="12.2766304"><ele>112.57142857142857</ele><time>2026-05-02T07:20:19.728Z</time></trkpt><trkpt lat="57.949676" lon="12.2767546"><ele>112.71428571428571</ele><time>2026-05-02T07:20:20.723Z</time></trkpt><trkpt lat="57.9497098" lon="12.2768716"><ele>112.85714285714286</ele><time>2026-05-02T07:20:21.726Z</time></trkpt><trkpt lat="57.9497406" lon="12.2769869"><ele>113.0</ele><time>2026-05-02T07:20:22.72Z</time></trkpt><trkpt lat="57.94977" lon="12.2771033"><ele>113.16666666666666</ele><time>2026-05-02T07:20:23.725Z</time></trkpt><trkpt lat="57.9498017" lon="12.2772254"><ele>113.33333333333333</ele><time>2026-05-02T07:20:24.712Z</time></trkpt><trkpt lat="57.9498346" lon="12.2773499"><ele>113.5</ele><time>2026-05-02T07:20:25.723Z</time></trkpt><trkpt lat="57.9498734" lon="12.2774887"><ele>113.66666666666666</ele><time>2026-05-02T07:20:26.715Z</time></trkpt><trkpt lat="57.9499121" lon="12.2776371"><ele>113.83333333333333</ele><time>2026-05-02T07:20:27.723Z</time></trkpt><trkpt lat="57.9499503" lon="12.2777885"><ele>114.0</ele><time>2026-05-02T07:20:28.721Z</time></trkpt><trkpt lat="57.9499847" lon="12.2779321"><ele>113.66666666666667</ele><time>2026-05-02T07:20:29.729Z</time></trkpt><trkpt lat="57.9500183" lon="12.2780679"><ele>113.33333333333334</ele><time>2026-05-02T07:20:30.727Z</time></trkpt><trkpt lat="57.9500527" lon="12.278201"><ele>113.0</ele><time>2026-05-02T07:20:31.722Z</time></trkpt><trkpt lat="57.9500928" lon="12.2783401"><ele>112.66666666666667</ele><time>2026-05-02T07:20:32.729Z</time></trkpt><trkpt lat="57.9501344" lon="12.2784883"><ele>112.33333333333334</ele><time>2026-05-02T07:20:33.711Z</time></trkpt><trkpt lat="57.9501794" lon="12.2786273"><ele>112.0</ele><time>2026-05-02T07:20:34.723Z</time></trkpt><trkpt lat="57.9502219" lon="12.2787634"><ele>112.00000000000001</ele><time>2026-05-02T07:20:35.727Z</time></trkpt><trkpt lat="57.950263" lon="12.278891"><ele>112.0</ele><time>2026-05-02T07:20:36.724Z</time></trkpt><trkpt lat="57.9503039" lon="12.2790135"><ele>112.0</ele><time>2026-05-02T07:20:37.715Z</time></trkpt><trkpt lat="57.9503444" lon="12.2791323"><ele>112.0</ele><time>2026-05-02T07:20:38.711Z</time></trkpt><trkpt lat="57.9503838" lon="12.2792267"><ele>112.00000000000001</ele><time>2026-05-02T07:20:39.724Z</time></trkpt><trkpt lat="57.9504687" lon="12.2793936"><ele>112.0</ele><time>2026-05-02T07:20:41.717Z</time></trkpt><trkpt lat="57.9505237" lon="12.2794857"><ele>112.00000000000001</ele><time>2026-05-02T07:20:42.724Z</time></trkpt><trkpt lat="57.9505892" lon="12.2795701"><ele>112.0</ele><time>2026-05-02T07:20:43.719Z</time></trkpt><trkpt lat="57.9506644" lon="12.2796487"><ele>112.0</ele><time>2026-05-02T07:20:44.725Z</time></trkpt><trkpt lat="57.9507428" lon="12.2797139"><ele>112.0</ele><time>2026-05-02T07:20:45.727Z</time></trkpt><trkpt lat="57.9508193" lon="12.2797657"><ele>112.00000000000001</ele><time>2026-05-02T07:20:46.721Z</time></trkpt><trkpt lat="57.9508916" lon="12.2798146"><ele>112.0</ele><time>2026-05-02T07:20:47.71Z</time></trkpt><trkpt lat="57.9509579" lon="12.2798627"><ele>112.00000000000001</ele><time>2026-05-02T07:20:48.724Z</time></trkpt><trkpt lat="57.9510234" lon="12.2799006"><ele>112.0</ele><time>2026-05-02T07:20:49.721Z</time></trkpt><trkpt lat="57.9510891" lon="12.2799359"><ele>112.0</ele><time>2026-05-02T07:20:50.715Z</time></trkpt><trkpt lat="57.9511552" lon="12.2799695"><ele>112.0</ele><time>2026-05-02T07:20:51.727Z</time></trkpt><trkpt lat="57.9512296" lon="12.2799993"><ele>112.00000000000001</ele><time>2026-05-02T07:20:52.73Z</time></trkpt><trkpt lat="57.9513176" lon="12.2800146"><ele>112.0</ele><time>2026-05-02T07:20:53.71Z</time></trkpt><trkpt lat="57.9514056" lon="12.2800206"><ele>112.00000000000001</ele><time>2026-05-02T07:20:54.729Z</time></trkpt><trkpt lat="57.9514854" lon="12.2800247"><ele>112.0</ele><time>2026-05-02T07:20:55.731Z</time></trkpt><trkpt lat="57.9515634" lon="12.280025"><ele>112.0</ele><time>2026-05-02T07:20:56.717Z</time></trkpt><trkpt lat="57.9516421" lon="12.2800185"><ele>112.0</ele><time>2026-05-02T07:20:57.721Z</time></trkpt><trkpt lat="57.9517251" lon="12.2800007"><ele>112.00000000000001</ele><time>2026-05-02T07:20:58.727Z</time></trkpt><trkpt lat="57.9518024" lon="12.2799953"><ele>112.0</ele><time>2026-05-02T07:20:59.722Z</time></trkpt><trkpt lat="57.9518799" lon="12.279991"><ele>112.00000000000001</ele><time>2026-05-02T07:21:00.723Z</time></trkpt><trkpt lat="57.9519548" lon="12.2799842"><ele>112.0</ele><time>2026-05-02T07:21:01.725Z</time></trkpt><trkpt lat="57.9520287" lon="12.2799796"><ele>112.0</ele><time>2026-05-02T07:21:02.722Z</time></trkpt><trkpt lat="57.9521056" lon="12.279977"><ele>112.0</ele><time>2026-05-02T07:21:03.714Z</time></trkpt><trkpt lat="57.9521882" lon="12.2799872"><ele>112.00000000000001</ele><time>2026-05-02T07:21:04.707Z</time></trkpt><trkpt lat="57.9522658" lon="12.2800028"><ele>112.0</ele><time>2026-05-02T07:21:05.731Z</time></trkpt><trkpt lat="57.9523399" lon="12.2800212"><ele>112.00000000000001</ele><time>2026-05-02T07:21:06.729Z</time></trkpt><trkpt lat="57.9524143" lon="12.2800597"><ele>112.0</ele><time>2026-05-02T07:21:07.738Z</time></trkpt><trkpt lat="57.9524913" lon="12.2801107"><ele>112.0</ele><time>2026-05-02T07:21:08.731Z</time></trkpt><trkpt lat="57.9525603" lon="12.2801605"><ele>112.0</ele><time>2026-05-02T07:21:09.724Z</time></trkpt><trkpt lat="57.9526294" lon="12.2802244"><ele>112.00000000000001</ele><time>2026-05-02T07:21:10.721Z</time></trkpt><trkpt lat="57.952696" lon="12.2802823"><ele>112.0</ele><time>2026-05-02T07:21:11.731Z</time></trkpt><trkpt lat="57.9527614" lon="12.2803563"><ele>111.8</ele><time>2026-05-02T07:21:12.721Z</time></trkpt><trkpt lat="57.9528342" lon="12.2804638"><ele>111.6</ele><time>2026-05-02T07:21:13.727Z</time></trkpt><trkpt lat="57.952901" lon="12.2805751"><ele>111.39999999999999</ele><time>2026-05-02T07:21:14.721Z</time></trkpt><trkpt lat="57.9529658" lon="12.2806921"><ele>111.19999999999999</ele><time>2026-05-02T07:21:15.723Z</time></trkpt><trkpt lat="57.9530311" lon="12.2808198"><ele>111.0</ele><time>2026-05-02T07:21:16.711Z</time></trkpt><trkpt lat="57.9530941" lon="12.2809495"><ele>111.0</ele><time>2026-05-02T07:21:17.719Z</time></trkpt><trkpt lat="57.953157" lon="12.2810693"><ele>111.0</ele><time>2026-05-02T07:21:18.723Z</time></trkpt><trkpt lat="57.9532196" lon="12.2811858"><ele>111.0</ele><time>2026-05-02T07:21:19.72Z</time></trkpt><trkpt lat="57.9532855" lon="12.2813057"><ele>111.0</ele><time>2026-05-02T07:21:20.717Z</time></trkpt><trkpt lat="57.9533534" lon="12.281431"><ele>111.0</ele><time>2026-05-02T07:21:21.717Z</time></trkpt><trkpt lat="57.9534213" lon="12.2815525"><ele>112.0</ele><time>2026-05-02T07:21:22.725Z</time></trkpt><trkpt lat="57.9534874" lon="12.2816708"><ele>113.0</ele><time>2026-05-02T07:21:23.721Z</time></trkpt><trkpt lat="57.953555" lon="12.281791"><ele>114.0</ele><time>2026-05-02T07:21:24.721Z</time></trkpt><trkpt lat="57.9536202" lon="12.2819139"><ele>115.0</ele><time>2026-05-02T07:21:25.708Z</time></trkpt><trkpt lat="57.9536873" lon="12.2820358"><ele>116.0</ele><time>2026-05-02T07:21:26.728Z</time></trkpt><trkpt lat="57.9537544" lon="12.2821621"><ele>115.66666666666666</ele><time>2026-05-02T07:21:27.722Z</time></trkpt><trkpt lat="57.9538195" lon="12.2822795"><ele>115.33333333333333</ele><time>2026-05-02T07:21:28.718Z</time></trkpt><trkpt lat="57.9538828" lon="12.2823942"><ele>115.0</ele><time>2026-05-02T07:21:29.725Z</time></trkpt><trkpt lat="57.9539476" lon="12.2825115"><ele>114.66666666666666</ele><time>2026-05-02T07:21:30.725Z</time></trkpt><trkpt lat="57.954011" lon="12.28263"><ele>114.33333333333333</ele><time>2026-05-02T07:21:31.725Z</time></trkpt><trkpt lat="57.9540744" lon="12.2827433"><ele>114.0</ele><time>2026-05-02T07:21:32.721Z</time></trkpt><trkpt lat="57.9541354" lon="12.2828521"><ele>114.0</ele><time>2026-05-02T07:21:33.723Z</time></trkpt><trkpt lat="57.9541962" lon="12.2829661"><ele>114.0</ele><time>2026-05-02T07:21:34.718Z</time></trkpt><trkpt lat="57.9542553" lon="12.2830818"><ele>114.0</ele><time>2026-05-02T07:21:35.718Z</time></trkpt><trkpt lat="57.954317" lon="12.2831973"><ele>114.0</ele><time>2026-05-02T07:21:36.725Z</time></trkpt><trkpt lat="57.9543789" lon="12.2833154"><ele>114.0</ele><time>2026-05-02T07:21:37.719Z</time></trkpt><trkpt lat="57.9544407" lon="12.2834286"><ele>114.0</ele><time>2026-05-02T07:21:38.711Z</time></trkpt><trkpt lat="57.9545068" lon="12.2835477"><ele>115.33333333333333</ele><time>2026-05-02T07:21:39.73Z</time></trkpt><trkpt lat="57.9545718" lon="12.2836674"><ele>116.66666666666666</ele><time>2026-05-02T07:21:40.73Z</time></trkpt><trkpt lat="57.9546399" lon="12.283787"><ele>118.0</ele><time>2026-05-02T07:21:41.72Z</time></trkpt><trkpt lat="57.9547056" lon="12.283907"><ele>119.33333333333333</ele><time>2026-05-02T07:21:42.732Z</time></trkpt><trkpt lat="57.9547782" lon="12.2840007"><ele>120.66666666666666</ele><time>2026-05-02T07:21:43.722Z</time></trkpt><trkpt lat="57.9548473" lon="12.2840838"><ele>122.0</ele><time>2026-05-02T07:21:44.72Z</time></trkpt><trkpt lat="57.954907" lon="12.2841335"><ele>121.99999999999999</ele><time>2026-05-02T07:21:45.725Z</time></trkpt><trkpt lat="57.9549685" lon="12.2841792"><ele>122.0</ele><time>2026-05-02T07:21:46.726Z</time></trkpt><trkpt lat="57.9550291" lon="12.2842209"><ele>121.99999999999999</ele><time>2026-05-02T07:21:47.721Z</time></trkpt><trkpt lat="57.9550927" lon="12.2842358"><ele>121.99999999999999</ele><time>2026-05-02T07:21:48.713Z</time></trkpt><trkpt lat="57.9551623" lon="12.2842481"><ele>122.0</ele><time>2026-05-02T07:21:49.726Z</time></trkpt><trkpt lat="57.9552335" lon="12.2842518"><ele>121.99999999999999</ele><time>2026-05-02T07:21:50.722Z</time></trkpt><trkpt lat="57.9553012" lon="12.2842542"><ele>121.99999999999999</ele><time>2026-05-02T07:21:51.718Z</time></trkpt><trkpt lat="57.9553776" lon="12.2842541"><ele>121.83333333333333</ele><time>2026-05-02T07:21:52.732Z</time></trkpt><trkpt lat="57.9554445" lon="12.2842595"><ele>121.66666666666666</ele><time>2026-05-02T07:21:53.725Z</time></trkpt><trkpt lat="57.955568" lon="12.2842734"><ele>121.5</ele><time>2026-05-02T07:21:55.722Z</time></trkpt><trkpt lat="57.9556321" lon="12.2842967"><ele>121.33333333333334</ele><time>2026-05-02T07:21:56.727Z</time></trkpt><trkpt lat="57.9556931" lon="12.2843326"><ele>121.16666666666667</ele><time>2026-05-02T07:21:57.712Z</time></trkpt><trkpt lat="57.9557555" lon="12.2843666"><ele>121.0</ele><time>2026-05-02T07:21:58.717Z</time></trkpt><trkpt lat="57.9558243" lon="12.2844235"><ele>120.83333333333334</ele><time>2026-05-02T07:21:59.715Z</time></trkpt><trkpt lat="57.9558902" lon="12.284479"><ele>120.66666666666667</ele><time>2026-05-02T07:22:00.723Z</time></trkpt><trkpt lat="57.9559571" lon="12.2845386"><ele>120.5</ele><time>2026-05-02T07:22:01.709Z</time></trkpt><trkpt lat="57.9560217" lon="12.284606"><ele>120.33333333333334</ele><time>2026-05-02T07:22:02.721Z</time></trkpt><trkpt lat="57.9560802" lon="12.2846886"><ele>120.16666666666667</ele><time>2026-05-02T07:22:03.719Z</time></trkpt><trkpt lat="57.9561174" lon="12.2847938"><ele>120.0</ele><time>2026-05-02T07:22:04.713Z</time></trkpt><trkpt lat="57.9561581" lon="12.2849921"><ele>121.8</ele><time>2026-05-02T07:22:06.7Z</time></trkpt><trkpt lat="57.9561538" lon="12.2852016"><ele>123.6</ele><time>2026-05-02T07:22:08.719Z</time></trkpt><trkpt lat="57.9561592" lon="12.2853741"><ele>125.4</ele><time>2026-05-02T07:22:10.712Z</time></trkpt><trkpt lat="57.9561573" lon="12.2855068"><ele>127.2</ele><time>2026-05-02T07:22:13.714Z</time></trkpt><trkpt lat="57.956189" lon="12.2856702"><ele>129.0</ele><time>2026-05-02T07:23:17.722Z</time></trkpt><trkpt lat="57.956221" lon="12.2858839"><ele>130.2</ele><time>2026-05-02T07:23:19.71Z</time></trkpt><trkpt lat="57.9562427" lon="12.2860843"><ele>131.4</ele><time>2026-05-02T07:23:21.721Z</time></trkpt><trkpt lat="57.9562567" lon="12.2862891"><ele>132.6</ele><time>2026-05-02T07:23:23.722Z</time></trkpt><trkpt lat="57.9562666" lon="12.286469"><ele>133.8</ele><time>2026-05-02T07:23:25.718Z</time></trkpt><trkpt lat="57.9562806" lon="12.2866588"><ele>135.0</ele><time>2026-05-02T07:23:27.722Z</time></trkpt><trkpt lat="57.9563048" lon="12.2868779"><ele>135.0</ele><time>2026-05-02T07:23:29.723Z</time></trkpt><trkpt lat="57.9563307" lon="12.2871118"><ele>135.0</ele><time>2026-05-02T07:23:31.723Z</time></trkpt><trkpt lat="57.9563749" lon="12.2873313"><ele>135.0</ele><time>2026-05-02T07:23:33.718Z</time></trkpt><trkpt lat="57.9564063" lon="12.2874375"><ele>135.0</ele><time>2026-05-02T07:23:34.727Z</time></trkpt><trkpt lat="57.9564535" lon="12.2875465"><ele>135.0</ele><time>2026-05-02T07:23:35.721Z</time></trkpt><trkpt lat="57.9565171" lon="12.2876592"><ele>135.2</ele><time>2026-05-02T07:23:36.715Z</time></trkpt><trkpt lat="57.956591" lon="12.2877738"><ele>135.4</ele><time>2026-05-02T07:23:37.71Z</time></trkpt><trkpt lat="57.9566652" lon="12.2878836"><ele>135.6</ele><time>2026-05-02T07:23:38.721Z</time></trkpt><trkpt lat="57.9567376" lon="12.2879875"><ele>135.8</ele><time>2026-05-02T07:23:39.721Z</time></trkpt><trkpt lat="57.9568042" lon="12.2880882"><ele>136.0</ele><time>2026-05-02T07:23:40.711Z</time></trkpt><trkpt lat="57.9568742" lon="12.288188"><ele>136.0</ele><time>2026-05-02T07:23:41.726Z</time></trkpt><trkpt lat="57.9569419" lon="12.2882846"><ele>136.0</ele><time>2026-05-02T07:23:42.715Z</time></trkpt><trkpt lat="57.9570049" lon="12.2883765"><ele>136.0</ele><time>2026-05-02T07:23:43.721Z</time></trkpt><trkpt lat="57.9570685" lon="12.2884693"><ele>136.0</ele><time>2026-05-02T07:23:44.715Z</time></trkpt><trkpt lat="57.9571275" lon="12.2885607"><ele>136.0</ele><time>2026-05-02T07:23:45.714Z</time></trkpt><trkpt lat="57.9571835" lon="12.2886451"><ele>136.0</ele><time>2026-05-02T07:23:46.74Z</time></trkpt><trkpt lat="57.9572362" lon="12.2887254"><ele>135.99999999999997</ele><time>2026-05-02T07:23:47.712Z</time></trkpt><trkpt lat="57.9572946" lon="12.2887988"><ele>136.0</ele><time>2026-05-02T07:23:48.723Z</time></trkpt><trkpt lat="57.957349" lon="12.2888866"><ele>136.0</ele><time>2026-05-02T07:23:49.707Z</time></trkpt><trkpt lat="57.9574056" lon="12.2889775"><ele>136.0</ele><time>2026-05-02T07:23:50.718Z</time></trkpt><trkpt lat="57.9574639" lon="12.289066"><ele>136.0</ele><time>2026-05-02T07:23:51.722Z</time></trkpt><trkpt lat="57.9575216" lon="12.2891588"><ele>135.99999999999997</ele><time>2026-05-02T07:23:52.724Z</time></trkpt><trkpt lat="57.9575782" lon="12.2892553"><ele>136.0</ele><time>2026-05-02T07:23:53.717Z</time></trkpt><trkpt lat="57.9576359" lon="12.2893504"><ele>136.0</ele><time>2026-05-02T07:23:54.722Z</time></trkpt><trkpt lat="57.9576909" lon="12.2894425"><ele>136.0</ele><time>2026-05-02T07:23:55.72Z</time></trkpt><trkpt lat="57.9577401" lon="12.2895299"><ele>136.0</ele><time>2026-05-02T07:23:56.726Z</time></trkpt><trkpt lat="57.9578083" lon="12.2896734"><ele>136.0</ele><time>2026-05-02T07:23:58.713Z</time></trkpt><trkpt lat="57.957863" lon="12.2898205"><ele>136.0</ele><time>2026-05-02T07:24:00.734Z</time></trkpt><trkpt lat="57.9579087" lon="12.2899905"><ele>136.0</ele><time>2026-05-02T07:24:02.716Z</time></trkpt><trkpt lat="57.9579286" lon="12.2902088"><ele>135.28571428571428</ele><time>2026-05-02T07:24:04.72Z</time></trkpt><trkpt lat="57.9579189" lon="12.2903296"><ele>134.57142857142856</ele><time>2026-05-02T07:24:05.726Z</time></trkpt><trkpt lat="57.9579109" lon="12.2904538"><ele>133.85714285714286</ele><time>2026-05-02T07:24:06.727Z</time></trkpt><trkpt lat="57.9578945" lon="12.2905766"><ele>133.14285714285714</ele><time>2026-05-02T07:24:07.723Z</time></trkpt><trkpt lat="57.9578699" lon="12.2907032"><ele>132.42857142857144</ele><time>2026-05-02T07:24:08.719Z</time></trkpt><trkpt lat="57.9578403" lon="12.2908235"><ele>131.71428571428572</ele><time>2026-05-02T07:24:09.718Z</time></trkpt><trkpt lat="57.957808" lon="12.2909435"><ele>131.0</ele><time>2026-05-02T07:24:10.715Z</time></trkpt><trkpt lat="57.9577774" lon="12.291065"><ele>130.8</ele><time>2026-05-02T07:24:11.722Z</time></trkpt><trkpt lat="57.9577235" lon="12.2912779"><ele>130.6</ele><time>2026-05-02T07:24:13.715Z</time></trkpt><trkpt lat="57.9576949" lon="12.2914685"><ele>130.4</ele><time>2026-05-02T07:24:15.715Z</time></trkpt><trkpt lat="57.9577104" lon="12.2917036"><ele>130.2</ele><time>2026-05-02T07:24:17.73Z</time></trkpt><trkpt lat="57.9577221" lon="12.2918272"><ele>130.0</ele><time>2026-05-02T07:24:18.724Z</time></trkpt><trkpt lat="57.9577527" lon="12.2920436"><ele>131.4</ele><time>2026-05-02T07:24:20.723Z</time></trkpt><trkpt lat="57.957801" lon="12.2922367"><ele>132.8</ele><time>2026-05-02T07:24:22.714Z</time></trkpt><trkpt lat="57.9578778" lon="12.2924462"><ele>134.2</ele><time>2026-05-02T07:24:24.722Z</time></trkpt><trkpt lat="57.9579267" lon="12.2925559"><ele>135.6</ele><time>2026-05-02T07:24:25.717Z</time></trkpt><trkpt lat="57.9579926" lon="12.2926878"><ele>137.0</ele><time>2026-05-02T07:24:26.715Z</time></trkpt><trkpt lat="57.958059" lon="12.2928203"><ele>137.0</ele><time>2026-05-02T07:24:27.727Z</time></trkpt><trkpt lat="57.9581226" lon="12.2929531"><ele>137.0</ele><time>2026-05-02T07:24:28.719Z</time></trkpt><trkpt lat="57.958182" lon="12.2930769"><ele>137.0</ele><time>2026-05-02T07:24:29.718Z</time></trkpt><trkpt lat="57.9582465" lon="12.2932037"><ele>137.0</ele><time>2026-05-02T07:24:30.717Z</time></trkpt><trkpt lat="57.958308" lon="12.293339"><ele>137.0</ele><time>2026-05-02T07:24:31.719Z</time></trkpt><trkpt lat="57.9583718" lon="12.2934816"><ele>138.0</ele><time>2026-05-02T07:24:32.718Z</time></trkpt><trkpt lat="57.9584297" lon="12.2936117"><ele>139.0</ele><time>2026-05-02T07:24:33.727Z</time></trkpt><trkpt lat="57.9584817" lon="12.2937352"><ele>140.0</ele><time>2026-05-02T07:24:34.723Z</time></trkpt><trkpt lat="57.9585245" lon="12.293865"><ele>141.0</ele><time>2026-05-02T07:24:35.72Z</time></trkpt><trkpt lat="57.9585656" lon="12.2939935"><ele>142.0</ele><time>2026-05-02T07:24:36.709Z</time></trkpt><trkpt lat="57.9586126" lon="12.2941196"><ele>143.0</ele><time>2026-05-02T07:24:37.728Z</time></trkpt><trkpt lat="57.9586568" lon="12.2942417"><ele>143.0</ele><time>2026-05-02T07:24:38.723Z</time></trkpt><trkpt lat="57.9586962" lon="12.2943507"><ele>143.0</ele><time>2026-05-02T07:24:39.715Z</time></trkpt><trkpt lat="57.9587313" lon="12.2944521"><ele>143.0</ele><time>2026-05-02T07:24:40.719Z</time></trkpt><trkpt lat="57.9587685" lon="12.2945533"><ele>143.0</ele><time>2026-05-02T07:24:41.723Z</time></trkpt><trkpt lat="57.9588325" lon="12.2947438"><ele>143.0</ele><time>2026-05-02T07:24:43.712Z</time></trkpt><trkpt lat="57.9588954" lon="12.2949157"><ele>143.0</ele><time>2026-05-02T07:24:45.716Z</time></trkpt><trkpt lat="57.9589597" lon="12.2950914"><ele>142.4</ele><time>2026-05-02T07:24:47.711Z</time></trkpt><trkpt lat="57.9590206" lon="12.2952494"><ele>141.8</ele><time>2026-05-02T07:24:49.709Z</time></trkpt><trkpt lat="57.9590862" lon="12.2954249"><ele>141.2</ele><time>2026-05-02T07:24:51.71Z</time></trkpt><trkpt lat="57.9591646" lon="12.2956214"><ele>140.6</ele><time>2026-05-02T07:24:53.724Z</time></trkpt><trkpt lat="57.9592031" lon="12.2957235"><ele>140.0</ele><time>2026-05-02T07:24:54.716Z</time></trkpt><trkpt lat="57.9592352" lon="12.2958293"><ele>140.0</ele><time>2026-05-02T07:24:55.718Z</time></trkpt><trkpt lat="57.9592731" lon="12.2959503"><ele>140.0</ele><time>2026-05-02T07:24:56.705Z</time></trkpt><trkpt lat="57.9593092" lon="12.2960618"><ele>140.0</ele><time>2026-05-02T07:24:57.722Z</time></trkpt><trkpt lat="57.9593439" lon="12.2961656"><ele>140.0</ele><time>2026-05-02T07:24:58.724Z</time></trkpt><trkpt lat="57.9593987" lon="12.2963471"><ele>140.0</ele><time>2026-05-02T07:25:00.711Z</time></trkpt><trkpt lat="57.9594506" lon="12.2965232"><ele>140.0</ele><time>2026-05-02T07:25:02.727Z</time></trkpt><trkpt lat="57.9595056" lon="12.2966814"><ele>138.0</ele><time>2026-05-02T07:25:04.733Z</time></trkpt><trkpt lat="57.9595674" lon="12.2968603"><ele>136.0</ele><time>2026-05-02T07:25:06.717Z</time></trkpt><trkpt lat="57.9596021" lon="12.2969698"><ele>134.0</ele><time>2026-05-02T07:25:07.729Z</time></trkpt><trkpt lat="57.959673" lon="12.2971551"><ele>132.0</ele><time>2026-05-02T07:25:09.714Z</time></trkpt><trkpt lat="57.9597393" lon="12.2973287"><ele>130.0</ele><time>2026-05-02T07:25:11.719Z</time></trkpt><trkpt lat="57.9598005" lon="12.2975094"><ele>128.0</ele><time>2026-05-02T07:25:13.723Z</time></trkpt><trkpt lat="57.959862" lon="12.2977221"><ele>126.0</ele><time>2026-05-02T07:25:15.711Z</time></trkpt><trkpt lat="57.9599162" lon="12.29788"><ele>124.0</ele><time>2026-05-02T07:25:17.715Z</time></trkpt><trkpt lat="57.9599563" lon="12.2980046"><ele>122.0</ele><time>2026-05-02T07:25:20.715Z</time></trkpt><trkpt lat="57.9600093" lon="12.2981671"><ele>120.0</ele><time>2026-05-02T07:25:23.717Z</time></trkpt><trkpt lat="57.9600492" lon="12.298277"><ele>119.83333333333333</ele><time>2026-05-02T07:25:24.723Z</time></trkpt><trkpt lat="57.9600974" lon="12.2984062"><ele>119.66666666666666</ele><time>2026-05-02T07:25:25.712Z</time></trkpt><trkpt lat="57.9601435" lon="12.2985429"><ele>119.5</ele><time>2026-05-02T07:25:26.713Z</time></trkpt><trkpt lat="57.9601922" lon="12.2986866"><ele>119.33333333333333</ele><time>2026-05-02T07:25:27.719Z</time></trkpt><trkpt lat="57.9602382" lon="12.2988269"><ele>119.16666666666666</ele><time>2026-05-02T07:25:28.713Z</time></trkpt><trkpt lat="57.9602871" lon="12.2989723"><ele>119.0</ele><time>2026-05-02T07:25:29.711Z</time></trkpt><trkpt lat="57.9603283" lon="12.2991125"><ele>118.83333333333333</ele><time>2026-05-02T07:25:30.724Z</time></trkpt><trkpt lat="57.9603672" lon="12.2992377"><ele>118.66666666666666</ele><time>2026-05-02T07:25:31.724Z</time></trkpt><trkpt lat="57.9603935" lon="12.2994681"><ele>118.5</ele><time>2026-05-02T07:25:33.734Z</time></trkpt><trkpt lat="57.9603931" lon="12.2995943"><ele>118.33333333333334</ele><time>2026-05-02T07:25:34.711Z</time></trkpt><trkpt lat="57.9603801" lon="12.2997301"><ele>118.16666666666667</ele><time>2026-05-02T07:25:35.725Z</time></trkpt><trkpt lat="57.960369" lon="12.2998691"><ele>118.0</ele><time>2026-05-02T07:25:36.72Z</time></trkpt><trkpt lat="57.9603474" lon="12.2999925"><ele>118.66666666666667</ele><time>2026-05-02T07:25:37.715Z</time></trkpt><trkpt lat="57.9603102" lon="12.300098"><ele>119.33333333333334</ele><time>2026-05-02T07:25:38.728Z</time></trkpt><trkpt lat="57.9602603" lon="12.3001931"><ele>120.0</ele><time>2026-05-02T07:25:39.723Z</time></trkpt><trkpt lat="57.9601945" lon="12.3002708"><ele>120.66666666666666</ele><time>2026-05-02T07:25:40.727Z</time></trkpt><trkpt lat="57.960127" lon="12.3003504"><ele>121.33333333333333</ele><time>2026-05-02T07:25:41.714Z</time></trkpt><trkpt lat="57.9600596" lon="12.3004346"><ele>122.0</ele><time>2026-05-02T07:25:42.725Z</time></trkpt><trkpt lat="57.9599942" lon="12.3005102"><ele>122.16666666666666</ele><time>2026-05-02T07:25:43.728Z</time></trkpt><trkpt lat="57.9599322" lon="12.3005823"><ele>122.33333333333333</ele><time>2026-05-02T07:25:44.724Z</time></trkpt><trkpt lat="57.959871" lon="12.3006547"><ele>122.5</ele><time>2026-05-02T07:25:45.724Z</time></trkpt><trkpt lat="57.9598118" lon="12.3007317"><ele>122.66666666666666</ele><time>2026-05-02T07:25:46.723Z</time></trkpt><trkpt lat="57.9597587" lon="12.3008104"><ele>122.83333333333333</ele><time>2026-05-02T07:25:47.723Z</time></trkpt><trkpt lat="57.959712" lon="12.3008903"><ele>123.0</ele><time>2026-05-02T07:25:48.714Z</time></trkpt><trkpt lat="57.9596423" lon="12.3010733"><ele>123.0</ele><time>2026-05-02T07:25:50.734Z</time></trkpt><trkpt lat="57.9595854" lon="12.301275"><ele>123.0</ele><time>2026-05-02T07:25:52.722Z</time></trkpt><trkpt lat="57.9595763" lon="12.3013961"><ele>123.0</ele><time>2026-05-02T07:25:53.716Z</time></trkpt><trkpt lat="57.9595743" lon="12.3015162"><ele>123.0</ele><time>2026-05-02T07:25:54.723Z</time></trkpt><trkpt lat="57.9595806" lon="12.3016378"><ele>123.0</ele><time>2026-05-02T07:25:55.715Z</time></trkpt><trkpt lat="57.9596157" lon="12.3017583"><ele>123.0</ele><time>2026-05-02T07:25:56.717Z</time></trkpt><trkpt lat="57.959649" lon="12.301878"><ele>123.00000000000001</ele><time>2026-05-02T07:25:57.709Z</time></trkpt><trkpt lat="57.9596807" lon="12.3019938"><ele>123.0</ele><time>2026-05-02T07:25:58.71Z</time></trkpt><trkpt lat="57.9597123" lon="12.3021065"><ele>123.00000000000001</ele><time>2026-05-02T07:25:59.724Z</time></trkpt><trkpt lat="57.9597438" lon="12.3022166"><ele>123.00000000000001</ele><time>2026-05-02T07:26:00.717Z</time></trkpt><trkpt lat="57.9597791" lon="12.3023214"><ele>123.0</ele><time>2026-05-02T07:26:01.713Z</time></trkpt><trkpt lat="57.9598145" lon="12.3024248"><ele>123.00000000000001</ele><time>2026-05-02T07:26:02.719Z</time></trkpt><trkpt lat="57.9598513" lon="12.302542"><ele>123.00000000000001</ele><time>2026-05-02T07:26:03.714Z</time></trkpt><trkpt lat="57.9598883" lon="12.3026583"><ele>123.2857142857143</ele><time>2026-05-02T07:26:04.716Z</time></trkpt><trkpt lat="57.9599222" lon="12.3027734"><ele>123.57142857142858</ele><time>2026-05-02T07:26:05.718Z</time></trkpt><trkpt lat="57.959957" lon="12.302886"><ele>123.85714285714286</ele><time>2026-05-02T07:26:06.712Z</time></trkpt><trkpt lat="57.9600034" lon="12.303013"><ele>124.14285714285715</ele><time>2026-05-02T07:26:07.719Z</time></trkpt><trkpt lat="57.9600408" lon="12.3031286"><ele>124.42857142857144</ele><time>2026-05-02T07:26:08.715Z</time></trkpt><trkpt lat="57.9600804" lon="12.303248"><ele>124.71428571428571</ele><time>2026-05-02T07:26:09.716Z</time></trkpt><trkpt lat="57.9601179" lon="12.3033732"><ele>125.0</ele><time>2026-05-02T07:26:10.729Z</time></trkpt><trkpt lat="57.9601507" lon="12.3035093"><ele>125.0</ele><time>2026-05-02T07:26:11.715Z</time></trkpt><trkpt lat="57.9601798" lon="12.3036456"><ele>125.0</ele><time>2026-05-02T07:26:12.708Z</time></trkpt><trkpt lat="57.9602037" lon="12.3037814"><ele>125.0</ele><time>2026-05-02T07:26:13.722Z</time></trkpt><trkpt lat="57.960225" lon="12.3039191"><ele>125.0</ele><time>2026-05-02T07:26:14.727Z</time></trkpt><trkpt lat="57.9602317" lon="12.3040568"><ele>125.0</ele><time>2026-05-02T07:26:15.719Z</time></trkpt><trkpt lat="57.9602253" lon="12.3041903"><ele>125.0</ele><time>2026-05-02T07:26:16.72Z</time></trkpt><trkpt lat="57.9602186" lon="12.3043216"><ele>125.0</ele><time>2026-05-02T07:26:17.729Z</time></trkpt><trkpt lat="57.9602052" lon="12.3044441"><ele>124.33333333333333</ele><time>2026-05-02T07:26:18.723Z</time></trkpt><trkpt lat="57.9601933" lon="12.3045769"><ele>123.66666666666666</ele><time>2026-05-02T07:26:19.717Z</time></trkpt><trkpt lat="57.9601772" lon="12.3046988"><ele>123.0</ele><time>2026-05-02T07:26:20.732Z</time></trkpt><trkpt lat="57.9601668" lon="12.3048261"><ele>122.33333333333334</ele><time>2026-05-02T07:26:21.728Z</time></trkpt><trkpt lat="57.9601545" lon="12.3049527"><ele>121.66666666666667</ele><time>2026-05-02T07:26:22.725Z</time></trkpt><trkpt lat="57.9601415" lon="12.3050712"><ele>121.0</ele><time>2026-05-02T07:26:23.71Z</time></trkpt><trkpt lat="57.9601178" lon="12.3052949"><ele>120.0</ele><time>2026-05-02T07:26:25.733Z</time></trkpt><trkpt lat="57.9600922" lon="12.3055171"><ele>119.0</ele><time>2026-05-02T07:26:27.709Z</time></trkpt><trkpt lat="57.9600734" lon="12.3057204"><ele>118.0</ele><time>2026-05-02T07:26:29.722Z</time></trkpt><trkpt lat="57.9600774" lon="12.3059298"><ele>117.0</ele><time>2026-05-02T07:26:31.725Z</time></trkpt><trkpt lat="57.9600891" lon="12.3061151"><ele>116.0</ele><time>2026-05-02T07:26:33.714Z</time></trkpt><trkpt lat="57.9601296" lon="12.3062997"><ele>115.49999999999999</ele><time>2026-05-02T07:26:35.706Z</time></trkpt><trkpt lat="57.9602086" lon="12.3064995"><ele>115.0</ele><time>2026-05-02T07:26:37.717Z</time></trkpt><trkpt lat="57.9602595" lon="12.3066072"><ele>114.5</ele><time>2026-05-02T07:26:38.715Z</time></trkpt><trkpt lat="57.9603052" lon="12.3067154"><ele>114.0</ele><time>2026-05-02T07:26:39.714Z</time></trkpt><trkpt lat="57.9603421" lon="12.3068263"><ele>113.49999999999999</ele><time>2026-05-02T07:26:40.722Z</time></trkpt><trkpt lat="57.9603741" lon="12.3069396"><ele>113.0</ele><time>2026-05-02T07:26:41.731Z</time></trkpt><trkpt lat="57.9603926" lon="12.3070566"><ele>113.0</ele><time>2026-05-02T07:26:42.717Z</time></trkpt><trkpt lat="57.960411" lon="12.3071749"><ele>113.0</ele><time>2026-05-02T07:26:43.716Z</time></trkpt><trkpt lat="57.9604047" lon="12.3073088"><ele>113.0</ele><time>2026-05-02T07:26:44.722Z</time></trkpt><trkpt lat="57.9603991" lon="12.3074402"><ele>113.0</ele><time>2026-05-02T07:26:45.727Z</time></trkpt><trkpt lat="57.9603813" lon="12.3075624"><ele>113.0</ele><time>2026-05-02T07:26:46.716Z</time></trkpt><trkpt lat="57.9603466" lon="12.3076799"><ele>113.0</ele><time>2026-05-02T07:26:47.714Z</time></trkpt><trkpt lat="57.9603068" lon="12.3077782"><ele>113.0</ele><time>2026-05-02T07:26:48.717Z</time></trkpt><trkpt lat="57.960257" lon="12.3078739"><ele>113.0</ele><time>2026-05-02T07:26:49.721Z</time></trkpt><trkpt lat="57.9601965" lon="12.3079451"><ele>113.0</ele><time>2026-05-02T07:26:50.728Z</time></trkpt><trkpt lat="57.9601356" lon="12.3079854"><ele>113.0</ele><time>2026-05-02T07:26:51.706Z</time></trkpt><trkpt lat="57.960071" lon="12.3080286"><ele>113.0</ele><time>2026-05-02T07:26:52.716Z</time></trkpt><trkpt lat="57.9600056" lon="12.3080712"><ele>113.0</ele><time>2026-05-02T07:26:53.727Z</time></trkpt><trkpt lat="57.9599398" lon="12.308114"><ele>113.0</ele><time>2026-05-02T07:26:54.728Z</time></trkpt><trkpt lat="57.9598744" lon="12.3081553"><ele>113.0</ele><time>2026-05-02T07:26:55.716Z</time></trkpt><trkpt lat="57.9598118" lon="12.3081972"><ele>113.28571428571429</ele><time>2026-05-02T07:26:56.715Z</time></trkpt><trkpt lat="57.9597468" lon="12.3082371"><ele>113.57142857142856</ele><time>2026-05-02T07:26:57.719Z</time></trkpt><trkpt lat="57.9596826" lon="12.3082768"><ele>113.85714285714285</ele><time>2026-05-02T07:26:58.715Z</time></trkpt><trkpt lat="57.9596163" lon="12.3083184"><ele>114.14285714285714</ele><time>2026-05-02T07:26:59.716Z</time></trkpt><trkpt lat="57.9595523" lon="12.308358"><ele>114.42857142857142</ele><time>2026-05-02T07:27:00.722Z</time></trkpt><trkpt lat="57.9594877" lon="12.3083944"><ele>114.7142857142857</ele><time>2026-05-02T07:27:01.717Z</time></trkpt><trkpt lat="57.9594232" lon="12.3084344"><ele>114.99999999999999</ele><time>2026-05-02T07:27:02.715Z</time></trkpt><trkpt lat="57.9593578" lon="12.3084735"><ele>114.99999999999999</ele><time>2026-05-02T07:27:03.724Z</time></trkpt><trkpt lat="57.9592909" lon="12.3085187"><ele>115.0</ele><time>2026-05-02T07:27:04.719Z</time></trkpt><trkpt lat="57.9592236" lon="12.3085576"><ele>114.99999999999999</ele><time>2026-05-02T07:27:05.725Z</time></trkpt><trkpt lat="57.9591559" lon="12.3085902"><ele>114.99999999999999</ele><time>2026-05-02T07:27:06.705Z</time></trkpt><trkpt lat="57.9590882" lon="12.3086269"><ele>115.0</ele><time>2026-05-02T07:27:07.715Z</time></trkpt><trkpt lat="57.9590214" lon="12.3086594"><ele>114.99999999999999</ele><time>2026-05-02T07:27:08.71Z</time></trkpt><trkpt lat="57.9589526" lon="12.3086806"><ele>114.99999999999999</ele><time>2026-05-02T07:27:09.712Z</time></trkpt><trkpt lat="57.9588864" lon="12.3087016"><ele>114.99999999999999</ele><time>2026-05-02T07:27:10.737Z</time></trkpt><trkpt lat="57.9588172" lon="12.3087143"><ele>115.0</ele><time>2026-05-02T07:27:11.729Z</time></trkpt><trkpt lat="57.9587481" lon="12.3087146"><ele>114.99999999999999</ele><time>2026-05-02T07:27:12.719Z</time></trkpt><trkpt lat="57.958682" lon="12.3087095"><ele>114.99999999999999</ele><time>2026-05-02T07:27:13.722Z</time></trkpt><trkpt lat="57.9586169" lon="12.3087049"><ele>115.0</ele><time>2026-05-02T07:27:14.708Z</time></trkpt><trkpt lat="57.9585488" lon="12.3087109"><ele>114.99999999999999</ele><time>2026-05-02T07:27:15.729Z</time></trkpt><trkpt lat="57.9584789" lon="12.308722"><ele>114.99999999999999</ele><time>2026-05-02T07:27:16.727Z</time></trkpt><trkpt lat="57.9584128" lon="12.3087225"><ele>115.14285714285712</ele><time>2026-05-02T07:27:17.716Z</time></trkpt><trkpt lat="57.9583475" lon="12.3087303"><ele>115.28571428571428</ele><time>2026-05-02T07:27:18.73Z</time></trkpt><trkpt lat="57.9582787" lon="12.3087362"><ele>115.42857142857143</ele><time>2026-05-02T07:27:19.713Z</time></trkpt><trkpt lat="57.9582117" lon="12.3087439"><ele>115.57142857142857</ele><time>2026-05-02T07:27:20.722Z</time></trkpt><trkpt lat="57.9581363" lon="12.3087431"><ele>115.71428571428572</ele><time>2026-05-02T07:27:21.725Z</time></trkpt><trkpt lat="57.9580674" lon="12.3087371"><ele>115.85714285714288</ele><time>2026-05-02T07:27:22.706Z</time></trkpt><trkpt lat="57.9580011" lon="12.3087257"><ele>116.00000000000001</ele><time>2026-05-02T07:27:23.726Z</time></trkpt><trkpt lat="57.9578799" lon="12.3086804"><ele>116.0</ele><time>2026-05-02T07:27:25.718Z</time></trkpt><trkpt lat="57.9578166" lon="12.308644"><ele>116.0</ele><time>2026-05-02T07:27:26.726Z</time></trkpt><trkpt lat="57.9577576" lon="12.308598"><ele>116.0</ele><time>2026-05-02T07:27:27.718Z</time></trkpt><trkpt lat="57.9576514" lon="12.3084818"><ele>116.0</ele><time>2026-05-02T07:27:29.73Z</time></trkpt><trkpt lat="57.9575606" lon="12.308346"><ele>116.0</ele><time>2026-05-02T07:27:31.729Z</time></trkpt><trkpt lat="57.9574854" lon="12.3082023"><ele>115.0</ele><time>2026-05-02T07:27:33.717Z</time></trkpt><trkpt lat="57.9574234" lon="12.3080565"><ele>114.0</ele><time>2026-05-02T07:27:35.714Z</time></trkpt><trkpt lat="57.9573704" lon="12.3079185"><ele>113.0</ele><time>2026-05-02T07:27:37.728Z</time></trkpt><trkpt lat="57.9573167" lon="12.3077677"><ele>112.0</ele><time>2026-05-02T07:27:39.718Z</time></trkpt><trkpt lat="57.9572518" lon="12.3075917"><ele>111.0</ele><time>2026-05-02T07:27:41.719Z</time></trkpt><trkpt lat="57.9571757" lon="12.3074003"><ele>110.25</ele><time>2026-05-02T07:27:43.714Z</time></trkpt><trkpt lat="57.9571086" lon="12.3072331"><ele>109.5</ele><time>2026-05-02T07:27:45.714Z</time></trkpt><trkpt lat="57.9570366" lon="12.307055"><ele>108.75</ele><time>2026-05-02T07:27:47.71Z</time></trkpt><trkpt lat="57.9569607" lon="12.3068874"><ele>108.0</ele><time>2026-05-02T07:27:49.714Z</time></trkpt><trkpt lat="57.9568759" lon="12.3067236"><ele>108.0</ele><time>2026-05-02T07:27:51.731Z</time></trkpt><trkpt lat="57.9567885" lon="12.3065686"><ele>108.00000000000001</ele><time>2026-05-02T07:27:53.714Z</time></trkpt><trkpt lat="57.9566912" lon="12.3064273"><ele>108.00000000000001</ele><time>2026-05-02T07:27:55.728Z</time></trkpt><trkpt lat="57.9566302" lon="12.3063701"><ele>108.0</ele><time>2026-05-02T07:27:56.727Z</time></trkpt><trkpt lat="57.9565181" lon="12.3062785"><ele>108.0</ele><time>2026-05-02T07:27:58.721Z</time></trkpt><trkpt lat="57.9564265" lon="12.3062263"><ele>102.0</ele><time>2026-05-02T07:28:00.733Z</time></trkpt><trkpt lat="57.956355" lon="12.3062141"><ele>102.0</ele><time>2026-05-02T07:28:02.738Z</time></trkpt><trkpt lat="57.9562645" lon="12.3061916"><ele>102.0</ele><time>2026-05-02T07:28:05.715Z</time></trkpt><trkpt lat="57.9561982" lon="12.3060872"><ele>102.0</ele><time>2026-05-02T07:28:08.706Z</time></trkpt><trkpt lat="57.9561297" lon="12.3059885"><ele>102.0</ele><time>2026-05-02T07:28:11.718Z</time></trkpt><trkpt lat="57.9560605" lon="12.3059557"><ele>102.0</ele><time>2026-05-02T07:28:14.73Z</time></trkpt></trkseg></trk></gpx>